<?xml version="1.0" encoding="UTF-8" standalone="no" ?>
<gpx xmlns="http://www.topografix.com/GPX/1/1" xmlns:xsi="http://www.w3.org/2001/XMLSchema-instance" xsi:schemaLocation="http://www.topografix.com/GPX/1/1 http://www.topografix.com/GPX/1/1/gpx.xsd" version="1.1" creator="VisuGPX - https://www.visugpx.com">
  <metadata>
    <name>Port Joinville / Vieux Chateau</name>
    <desc><![CDATA[Départ de Port Joinville, et traverser l'ile en direction de la côte Ouest vers le Vieux Château, puis le port de la Meule. Ce jour là, c'était grandiose]]></desc>
  </metadata>
  <trk>
    <name><![CDATA[Port Joinville/Vieux Chateau 04-AVR-18]]></name>
    <trkseg>
      <trkpt lat="46.72395" lon="-2.34643">
        <ele>2.54</ele>
        <time>2018-04-04T06:40:28Z</time>
      </trkpt>
      <trkpt lat="46.72395" lon="-2.34644">
        <ele>3.02</ele>
        <time>2018-04-04T06:40:30Z</time>
      </trkpt>
      <trkpt lat="46.72402" lon="-2.34641">
        <ele>7.35</ele>
        <time>2018-04-04T06:40:59Z</time>
      </trkpt>
      <trkpt lat="46.72404" lon="-2.3463">
        <ele>8.79</ele>
        <time>2018-04-04T06:41:26Z</time>
      </trkpt>
      <trkpt lat="46.72405" lon="-2.34625">
        <ele>8.79</ele>
        <time>2018-04-04T06:41:41Z</time>
      </trkpt>
      <trkpt lat="46.72433" lon="-2.34664">
        <ele>-4.19</ele>
        <time>2018-04-04T07:03:10Z</time>
      </trkpt>
      <trkpt lat="46.72437" lon="-2.34671">
        <ele>4.46</ele>
        <time>2018-04-04T07:03:27Z</time>
      </trkpt>
      <trkpt lat="46.72437" lon="-2.34672">
        <ele>6.39</ele>
        <time>2018-04-04T07:03:42Z</time>
      </trkpt>
      <trkpt lat="46.72436" lon="-2.34674">
        <ele>10.23</ele>
        <time>2018-04-04T07:04:00Z</time>
      </trkpt>
      <trkpt lat="46.72435" lon="-2.34675">
        <ele>11.67</ele>
        <time>2018-04-04T07:04:14Z</time>
      </trkpt>
      <trkpt lat="46.72439" lon="-2.34671">
        <ele>6.39</ele>
        <time>2018-04-04T07:04:30Z</time>
      </trkpt>
      <trkpt lat="46.72431" lon="-2.34674">
        <ele>12.63</ele>
        <time>2018-04-04T07:04:51Z</time>
      </trkpt>
      <trkpt lat="46.72435" lon="-2.34674">
        <ele>14.08</ele>
        <time>2018-04-04T07:05:04Z</time>
      </trkpt>
      <trkpt lat="46.72435" lon="-2.34674">
        <ele>15.04</ele>
        <time>2018-04-04T07:05:20Z</time>
      </trkpt>
      <trkpt lat="46.72435" lon="-2.34676">
        <ele>16</ele>
        <time>2018-04-04T07:05:37Z</time>
      </trkpt>
      <trkpt lat="46.72436" lon="-2.34677">
        <ele>15.52</ele>
        <time>2018-04-04T07:05:53Z</time>
      </trkpt>
      <trkpt lat="46.72435" lon="-2.34678">
        <ele>16</ele>
        <time>2018-04-04T07:06:08Z</time>
      </trkpt>
      <trkpt lat="46.72435" lon="-2.34678">
        <ele>16.48</ele>
        <time>2018-04-04T07:06:19Z</time>
      </trkpt>
      <trkpt lat="46.72434" lon="-2.34679">
        <ele>16</ele>
        <time>2018-04-04T07:06:30Z</time>
      </trkpt>
      <trkpt lat="46.72436" lon="-2.34679">
        <ele>16.48</ele>
        <time>2018-04-04T07:06:44Z</time>
      </trkpt>
      <trkpt lat="46.72437" lon="-2.34679">
        <ele>16</ele>
        <time>2018-04-04T07:07:05Z</time>
      </trkpt>
      <trkpt lat="46.72442" lon="-2.34676">
        <ele>13.12</ele>
        <time>2018-04-04T07:07:21Z</time>
      </trkpt>
      <trkpt lat="46.72446" lon="-2.34679">
        <ele>11.19</ele>
        <time>2018-04-04T07:07:26Z</time>
      </trkpt>
      <trkpt lat="46.72452" lon="-2.34682">
        <ele>7.83</ele>
        <time>2018-04-04T07:07:33Z</time>
      </trkpt>
      <trkpt lat="46.72452" lon="-2.34685">
        <ele>8.31</ele>
        <time>2018-04-04T07:07:38Z</time>
      </trkpt>
      <trkpt lat="46.72451" lon="-2.34694">
        <ele>7.83</ele>
        <time>2018-04-04T07:07:49Z</time>
      </trkpt>
      <trkpt lat="46.7245" lon="-2.34701">
        <ele>8.31</ele>
        <time>2018-04-04T07:07:56Z</time>
      </trkpt>
      <trkpt lat="46.72446" lon="-2.34714">
        <ele>9.75</ele>
        <time>2018-04-04T07:08:06Z</time>
      </trkpt>
      <trkpt lat="46.72445" lon="-2.34719">
        <ele>10.23</ele>
        <time>2018-04-04T07:08:08Z</time>
      </trkpt>
      <trkpt lat="46.72437" lon="-2.34733">
        <ele>10.23</ele>
        <time>2018-04-04T07:08:16Z</time>
      </trkpt>
      <trkpt lat="46.72434" lon="-2.3474">
        <ele>10.23</ele>
        <time>2018-04-04T07:08:20Z</time>
      </trkpt>
      <trkpt lat="46.72431" lon="-2.34742">
        <ele>9.75</ele>
        <time>2018-04-04T07:08:23Z</time>
      </trkpt>
      <trkpt lat="46.7242" lon="-2.34751">
        <ele>7.35</ele>
        <time>2018-04-04T07:08:33Z</time>
      </trkpt>
      <trkpt lat="46.72418" lon="-2.34754">
        <ele>6.87</ele>
        <time>2018-04-04T07:08:36Z</time>
      </trkpt>
      <trkpt lat="46.72417" lon="-2.34758">
        <ele>6.87</ele>
        <time>2018-04-04T07:08:39Z</time>
      </trkpt>
      <trkpt lat="46.72417" lon="-2.34766">
        <ele>6.39</ele>
        <time>2018-04-04T07:08:44Z</time>
      </trkpt>
      <trkpt lat="46.72417" lon="-2.34769">
        <ele>5.91</ele>
        <time>2018-04-04T07:08:47Z</time>
      </trkpt>
      <trkpt lat="46.72421" lon="-2.34773">
        <ele>5.91</ele>
        <time>2018-04-04T07:08:52Z</time>
      </trkpt>
      <trkpt lat="46.72419" lon="-2.34779">
        <ele>4.94</ele>
        <time>2018-04-04T07:08:55Z</time>
      </trkpt>
      <trkpt lat="46.72417" lon="-2.34783">
        <ele>3.5</ele>
        <time>2018-04-04T07:08:59Z</time>
      </trkpt>
      <trkpt lat="46.7241" lon="-2.3479">
        <ele>3.5</ele>
        <time>2018-04-04T07:09:06Z</time>
      </trkpt>
      <trkpt lat="46.72407" lon="-2.34793">
        <ele>3.5</ele>
        <time>2018-04-04T07:09:10Z</time>
      </trkpt>
      <trkpt lat="46.72398" lon="-2.34805">
        <ele>4.94</ele>
        <time>2018-04-04T07:09:22Z</time>
      </trkpt>
      <trkpt lat="46.72381" lon="-2.3482">
        <ele>6.87</ele>
        <time>2018-04-04T07:09:36Z</time>
      </trkpt>
      <trkpt lat="46.72381" lon="-2.34821">
        <ele>6.87</ele>
        <time>2018-04-04T07:09:38Z</time>
      </trkpt>
      <trkpt lat="46.72371" lon="-2.34828">
        <ele>7.35</ele>
        <time>2018-04-04T07:09:46Z</time>
      </trkpt>
      <trkpt lat="46.72364" lon="-2.34834">
        <ele>7.35</ele>
        <time>2018-04-04T07:09:53Z</time>
      </trkpt>
      <trkpt lat="46.72365" lon="-2.34834">
        <ele>6.87</ele>
        <time>2018-04-04T07:10:00Z</time>
      </trkpt>
      <trkpt lat="46.72356" lon="-2.34837">
        <ele>6.39</ele>
        <time>2018-04-04T07:10:08Z</time>
      </trkpt>
      <trkpt lat="46.72352" lon="-2.34841">
        <ele>5.42</ele>
        <time>2018-04-04T07:10:12Z</time>
      </trkpt>
      <trkpt lat="46.72348" lon="-2.34843">
        <ele>5.42</ele>
        <time>2018-04-04T07:10:16Z</time>
      </trkpt>
      <trkpt lat="46.72348" lon="-2.3484">
        <ele>5.42</ele>
        <time>2018-04-04T07:10:28Z</time>
      </trkpt>
      <trkpt lat="46.72349" lon="-2.3484">
        <ele>5.42</ele>
        <time>2018-04-04T07:10:35Z</time>
      </trkpt>
      <trkpt lat="46.72332" lon="-2.34847">
        <ele>5.91</ele>
        <time>2018-04-04T07:10:47Z</time>
      </trkpt>
      <trkpt lat="46.72313" lon="-2.34854">
        <ele>6.87</ele>
        <time>2018-04-04T07:11:01Z</time>
      </trkpt>
      <trkpt lat="46.723" lon="-2.34859">
        <ele>7.83</ele>
        <time>2018-04-04T07:11:13Z</time>
      </trkpt>
      <trkpt lat="46.72286" lon="-2.34864">
        <ele>6.87</ele>
        <time>2018-04-04T07:11:27Z</time>
      </trkpt>
      <trkpt lat="46.72285" lon="-2.34865">
        <ele>6.87</ele>
        <time>2018-04-04T07:11:28Z</time>
      </trkpt>
      <trkpt lat="46.72279" lon="-2.34868">
        <ele>7.35</ele>
        <time>2018-04-04T07:11:33Z</time>
      </trkpt>
      <trkpt lat="46.72269" lon="-2.34873">
        <ele>10.23</ele>
        <time>2018-04-04T07:11:42Z</time>
      </trkpt>
      <trkpt lat="46.72257" lon="-2.34877">
        <ele>11.19</ele>
        <time>2018-04-04T07:11:52Z</time>
      </trkpt>
      <trkpt lat="46.72242" lon="-2.34881">
        <ele>12.15</ele>
        <time>2018-04-04T07:12:03Z</time>
      </trkpt>
      <trkpt lat="46.72231" lon="-2.34885">
        <ele>14.08</ele>
        <time>2018-04-04T07:12:13Z</time>
      </trkpt>
      <trkpt lat="46.72219" lon="-2.34892">
        <ele>13.6</ele>
        <time>2018-04-04T07:12:24Z</time>
      </trkpt>
      <trkpt lat="46.72209" lon="-2.34898">
        <ele>14.08</ele>
        <time>2018-04-04T07:12:34Z</time>
      </trkpt>
      <trkpt lat="46.72203" lon="-2.34901">
        <ele>14.56</ele>
        <time>2018-04-04T07:12:38Z</time>
      </trkpt>
      <trkpt lat="46.72188" lon="-2.34905">
        <ele>15.04</ele>
        <time>2018-04-04T07:12:51Z</time>
      </trkpt>
      <trkpt lat="46.72174" lon="-2.34908">
        <ele>15.52</ele>
        <time>2018-04-04T07:13:03Z</time>
      </trkpt>
      <trkpt lat="46.72172" lon="-2.34909">
        <ele>16</ele>
        <time>2018-04-04T07:13:06Z</time>
      </trkpt>
      <trkpt lat="46.72167" lon="-2.34911">
        <ele>16.48</ele>
        <time>2018-04-04T07:13:12Z</time>
      </trkpt>
      <trkpt lat="46.72161" lon="-2.34915">
        <ele>16.48</ele>
        <time>2018-04-04T07:13:19Z</time>
      </trkpt>
      <trkpt lat="46.72142" lon="-2.34915">
        <ele>15.04</ele>
        <time>2018-04-04T07:13:31Z</time>
      </trkpt>
      <trkpt lat="46.72134" lon="-2.34914">
        <ele>13.6</ele>
        <time>2018-04-04T07:13:39Z</time>
      </trkpt>
      <trkpt lat="46.72124" lon="-2.34914">
        <ele>14.08</ele>
        <time>2018-04-04T07:13:46Z</time>
      </trkpt>
      <trkpt lat="46.72113" lon="-2.34918">
        <ele>14.56</ele>
        <time>2018-04-04T07:13:56Z</time>
      </trkpt>
      <trkpt lat="46.72101" lon="-2.34922">
        <ele>14.56</ele>
        <time>2018-04-04T07:14:07Z</time>
      </trkpt>
      <trkpt lat="46.72098" lon="-2.34923">
        <ele>15.04</ele>
        <time>2018-04-04T07:14:09Z</time>
      </trkpt>
      <trkpt lat="46.72088" lon="-2.34934">
        <ele>14.56</ele>
        <time>2018-04-04T07:14:19Z</time>
      </trkpt>
      <trkpt lat="46.72087" lon="-2.34935">
        <ele>14.56</ele>
        <time>2018-04-04T07:14:20Z</time>
      </trkpt>
      <trkpt lat="46.72083" lon="-2.34938">
        <ele>14.08</ele>
        <time>2018-04-04T07:14:25Z</time>
      </trkpt>
      <trkpt lat="46.72076" lon="-2.34944">
        <ele>12.15</ele>
        <time>2018-04-04T07:14:32Z</time>
      </trkpt>
      <trkpt lat="46.72068" lon="-2.34953">
        <ele>11.19</ele>
        <time>2018-04-04T07:14:40Z</time>
      </trkpt>
      <trkpt lat="46.72064" lon="-2.34958">
        <ele>10.71</ele>
        <time>2018-04-04T07:14:44Z</time>
      </trkpt>
      <trkpt lat="46.72057" lon="-2.34965">
        <ele>11.67</ele>
        <time>2018-04-04T07:14:50Z</time>
      </trkpt>
      <trkpt lat="46.72047" lon="-2.34972">
        <ele>12.63</ele>
        <time>2018-04-04T07:15:00Z</time>
      </trkpt>
      <trkpt lat="46.72038" lon="-2.34969">
        <ele>12.63</ele>
        <time>2018-04-04T07:15:07Z</time>
      </trkpt>
      <trkpt lat="46.72036" lon="-2.34967">
        <ele>13.12</ele>
        <time>2018-04-04T07:15:09Z</time>
      </trkpt>
      <trkpt lat="46.72033" lon="-2.34968">
        <ele>13.12</ele>
        <time>2018-04-04T07:15:12Z</time>
      </trkpt>
      <trkpt lat="46.72031" lon="-2.34981">
        <ele>13.12</ele>
        <time>2018-04-04T07:15:22Z</time>
      </trkpt>
      <trkpt lat="46.7204" lon="-2.34998">
        <ele>15.52</ele>
        <time>2018-04-04T07:15:36Z</time>
      </trkpt>
      <trkpt lat="46.72042" lon="-2.35008">
        <ele>16</ele>
        <time>2018-04-04T07:15:42Z</time>
      </trkpt>
      <trkpt lat="46.72042" lon="-2.35016">
        <ele>16.96</ele>
        <time>2018-04-04T07:15:48Z</time>
      </trkpt>
      <trkpt lat="46.72036" lon="-2.35027">
        <ele>17.44</ele>
        <time>2018-04-04T07:15:56Z</time>
      </trkpt>
      <trkpt lat="46.72025" lon="-2.35034">
        <ele>16.96</ele>
        <time>2018-04-04T07:16:06Z</time>
      </trkpt>
      <trkpt lat="46.72022" lon="-2.35035">
        <ele>17.44</ele>
        <time>2018-04-04T07:16:08Z</time>
      </trkpt>
      <trkpt lat="46.72011" lon="-2.35036">
        <ele>17.92</ele>
        <time>2018-04-04T07:16:19Z</time>
      </trkpt>
      <trkpt lat="46.72002" lon="-2.35038">
        <ele>15.52</ele>
        <time>2018-04-04T07:16:30Z</time>
      </trkpt>
      <trkpt lat="46.71999" lon="-2.35042">
        <ele>15.04</ele>
        <time>2018-04-04T07:16:33Z</time>
      </trkpt>
      <trkpt lat="46.71997" lon="-2.35043">
        <ele>16</ele>
        <time>2018-04-04T07:16:35Z</time>
      </trkpt>
      <trkpt lat="46.71988" lon="-2.35046">
        <ele>16.48</ele>
        <time>2018-04-04T07:16:44Z</time>
      </trkpt>
      <trkpt lat="46.71976" lon="-2.35047">
        <ele>13.6</ele>
        <time>2018-04-04T07:16:55Z</time>
      </trkpt>
      <trkpt lat="46.71973" lon="-2.35048">
        <ele>13.12</ele>
        <time>2018-04-04T07:16:57Z</time>
      </trkpt>
      <trkpt lat="46.71967" lon="-2.35047">
        <ele>11.19</ele>
        <time>2018-04-04T07:17:04Z</time>
      </trkpt>
      <trkpt lat="46.71949" lon="-2.35048">
        <ele>12.15</ele>
        <time>2018-04-04T07:17:17Z</time>
      </trkpt>
      <trkpt lat="46.71935" lon="-2.35047">
        <ele>14.56</ele>
        <time>2018-04-04T07:17:30Z</time>
      </trkpt>
      <trkpt lat="46.71918" lon="-2.35047">
        <ele>15.52</ele>
        <time>2018-04-04T07:17:44Z</time>
      </trkpt>
      <trkpt lat="46.71901" lon="-2.35049">
        <ele>16.48</ele>
        <time>2018-04-04T07:17:56Z</time>
      </trkpt>
      <trkpt lat="46.71897" lon="-2.35052">
        <ele>15.52</ele>
        <time>2018-04-04T07:18:02Z</time>
      </trkpt>
      <trkpt lat="46.71892" lon="-2.35056">
        <ele>14.56</ele>
        <time>2018-04-04T07:18:07Z</time>
      </trkpt>
      <trkpt lat="46.71882" lon="-2.35072">
        <ele>13.12</ele>
        <time>2018-04-04T07:18:20Z</time>
      </trkpt>
      <trkpt lat="46.71871" lon="-2.35091">
        <ele>13.6</ele>
        <time>2018-04-04T07:18:33Z</time>
      </trkpt>
      <trkpt lat="46.71862" lon="-2.35106">
        <ele>14.08</ele>
        <time>2018-04-04T07:18:45Z</time>
      </trkpt>
      <trkpt lat="46.71858" lon="-2.35112">
        <ele>14.08</ele>
        <time>2018-04-04T07:18:50Z</time>
      </trkpt>
      <trkpt lat="46.71852" lon="-2.35116">
        <ele>14.56</ele>
        <time>2018-04-04T07:18:55Z</time>
      </trkpt>
      <trkpt lat="46.71849" lon="-2.3512">
        <ele>14.56</ele>
        <time>2018-04-04T07:18:59Z</time>
      </trkpt>
      <trkpt lat="46.71841" lon="-2.35125">
        <ele>16.48</ele>
        <time>2018-04-04T07:19:05Z</time>
      </trkpt>
      <trkpt lat="46.71829" lon="-2.35129">
        <ele>16.96</ele>
        <time>2018-04-04T07:19:18Z</time>
      </trkpt>
      <trkpt lat="46.71817" lon="-2.35133">
        <ele>13.6</ele>
        <time>2018-04-04T07:19:31Z</time>
      </trkpt>
      <trkpt lat="46.71812" lon="-2.35135">
        <ele>13.6</ele>
        <time>2018-04-04T07:19:35Z</time>
      </trkpt>
      <trkpt lat="46.71793" lon="-2.35133">
        <ele>12.63</ele>
        <time>2018-04-04T07:19:51Z</time>
      </trkpt>
      <trkpt lat="46.71779" lon="-2.35131">
        <ele>14.08</ele>
        <time>2018-04-04T07:20:02Z</time>
      </trkpt>
      <trkpt lat="46.71763" lon="-2.35129">
        <ele>15.04</ele>
        <time>2018-04-04T07:20:15Z</time>
      </trkpt>
      <trkpt lat="46.71758" lon="-2.35128">
        <ele>16</ele>
        <time>2018-04-04T07:20:26Z</time>
      </trkpt>
      <trkpt lat="46.71756" lon="-2.35128">
        <ele>15.52</ele>
        <time>2018-04-04T07:20:30Z</time>
      </trkpt>
      <trkpt lat="46.71744" lon="-2.35127">
        <ele>16</ele>
        <time>2018-04-04T07:20:42Z</time>
      </trkpt>
      <trkpt lat="46.71728" lon="-2.35123">
        <ele>16.96</ele>
        <time>2018-04-04T07:20:57Z</time>
      </trkpt>
      <trkpt lat="46.71711" lon="-2.35117">
        <ele>17.92</ele>
        <time>2018-04-04T07:21:12Z</time>
      </trkpt>
      <trkpt lat="46.7171" lon="-2.35116">
        <ele>18.4</ele>
        <time>2018-04-04T07:21:13Z</time>
      </trkpt>
      <trkpt lat="46.71705" lon="-2.35115">
        <ele>18.88</ele>
        <time>2018-04-04T07:21:17Z</time>
      </trkpt>
      <trkpt lat="46.71701" lon="-2.35113">
        <ele>18.4</ele>
        <time>2018-04-04T07:21:21Z</time>
      </trkpt>
      <trkpt lat="46.71691" lon="-2.35111">
        <ele>18.4</ele>
        <time>2018-04-04T07:21:30Z</time>
      </trkpt>
      <trkpt lat="46.71681" lon="-2.35108">
        <ele>18.88</ele>
        <time>2018-04-04T07:21:38Z</time>
      </trkpt>
      <trkpt lat="46.71676" lon="-2.35106">
        <ele>18.4</ele>
        <time>2018-04-04T07:21:43Z</time>
      </trkpt>
      <trkpt lat="46.71672" lon="-2.35102">
        <ele>18.88</ele>
        <time>2018-04-04T07:21:47Z</time>
      </trkpt>
      <trkpt lat="46.71664" lon="-2.351">
        <ele>18.4</ele>
        <time>2018-04-04T07:21:54Z</time>
      </trkpt>
      <trkpt lat="46.71648" lon="-2.35092">
        <ele>16.96</ele>
        <time>2018-04-04T07:22:09Z</time>
      </trkpt>
      <trkpt lat="46.71643" lon="-2.3509">
        <ele>16.96</ele>
        <time>2018-04-04T07:22:13Z</time>
      </trkpt>
      <trkpt lat="46.71641" lon="-2.35088">
        <ele>16.96</ele>
        <time>2018-04-04T07:22:18Z</time>
      </trkpt>
      <trkpt lat="46.71632" lon="-2.35082">
        <ele>15.04</ele>
        <time>2018-04-04T07:22:27Z</time>
      </trkpt>
      <trkpt lat="46.71625" lon="-2.35079">
        <ele>14.08</ele>
        <time>2018-04-04T07:22:33Z</time>
      </trkpt>
      <trkpt lat="46.71621" lon="-2.35078">
        <ele>14.56</ele>
        <time>2018-04-04T07:22:36Z</time>
      </trkpt>
      <trkpt lat="46.71611" lon="-2.35071">
        <ele>16</ele>
        <time>2018-04-04T07:22:45Z</time>
      </trkpt>
      <trkpt lat="46.716" lon="-2.35067">
        <ele>17.92</ele>
        <time>2018-04-04T07:22:54Z</time>
      </trkpt>
      <trkpt lat="46.71598" lon="-2.35065">
        <ele>18.4</ele>
        <time>2018-04-04T07:22:56Z</time>
      </trkpt>
      <trkpt lat="46.71596" lon="-2.35066">
        <ele>17.44</ele>
        <time>2018-04-04T07:22:59Z</time>
      </trkpt>
      <trkpt lat="46.7159" lon="-2.35063">
        <ele>16.48</ele>
        <time>2018-04-04T07:23:04Z</time>
      </trkpt>
      <trkpt lat="46.71576" lon="-2.35058">
        <ele>16.96</ele>
        <time>2018-04-04T07:23:18Z</time>
      </trkpt>
      <trkpt lat="46.71562" lon="-2.35064">
        <ele>17.92</ele>
        <time>2018-04-04T07:23:30Z</time>
      </trkpt>
      <trkpt lat="46.71549" lon="-2.35067">
        <ele>19.84</ele>
        <time>2018-04-04T07:23:46Z</time>
      </trkpt>
      <trkpt lat="46.71544" lon="-2.35064">
        <ele>19.84</ele>
        <time>2018-04-04T07:23:50Z</time>
      </trkpt>
      <trkpt lat="46.7154" lon="-2.35063">
        <ele>20.32</ele>
        <time>2018-04-04T07:23:53Z</time>
      </trkpt>
      <trkpt lat="46.71536" lon="-2.3506">
        <ele>19.84</ele>
        <time>2018-04-04T07:23:57Z</time>
      </trkpt>
      <trkpt lat="46.71529" lon="-2.3506">
        <ele>19.84</ele>
        <time>2018-04-04T07:24:02Z</time>
      </trkpt>
      <trkpt lat="46.71519" lon="-2.35054">
        <ele>18.88</ele>
        <time>2018-04-04T07:24:11Z</time>
      </trkpt>
      <trkpt lat="46.71515" lon="-2.35055">
        <ele>18.88</ele>
        <time>2018-04-04T07:24:14Z</time>
      </trkpt>
      <trkpt lat="46.71511" lon="-2.35052">
        <ele>18.4</ele>
        <time>2018-04-04T07:24:18Z</time>
      </trkpt>
      <trkpt lat="46.715" lon="-2.35053">
        <ele>19.36</ele>
        <time>2018-04-04T07:24:28Z</time>
      </trkpt>
      <trkpt lat="46.71496" lon="-2.35054">
        <ele>19.84</ele>
        <time>2018-04-04T07:24:33Z</time>
      </trkpt>
      <trkpt lat="46.71494" lon="-2.35055">
        <ele>19.84</ele>
        <time>2018-04-04T07:24:35Z</time>
      </trkpt>
      <trkpt lat="46.71483" lon="-2.3506">
        <ele>18.88</ele>
        <time>2018-04-04T07:24:45Z</time>
      </trkpt>
      <trkpt lat="46.71464" lon="-2.35068">
        <ele>22.25</ele>
        <time>2018-04-04T07:25:00Z</time>
      </trkpt>
      <trkpt lat="46.71448" lon="-2.35073">
        <ele>20.81</ele>
        <time>2018-04-04T07:25:14Z</time>
      </trkpt>
      <trkpt lat="46.71447" lon="-2.35074">
        <ele>20.32</ele>
        <time>2018-04-04T07:25:15Z</time>
      </trkpt>
      <trkpt lat="46.71437" lon="-2.35072">
        <ele>21.29</ele>
        <time>2018-04-04T07:25:23Z</time>
      </trkpt>
      <trkpt lat="46.71422" lon="-2.35074">
        <ele>21.29</ele>
        <time>2018-04-04T07:25:37Z</time>
      </trkpt>
      <trkpt lat="46.7142" lon="-2.35074">
        <ele>20.81</ele>
        <time>2018-04-04T07:25:39Z</time>
      </trkpt>
      <trkpt lat="46.71412" lon="-2.35075">
        <ele>22.25</ele>
        <time>2018-04-04T07:25:45Z</time>
      </trkpt>
      <trkpt lat="46.71407" lon="-2.35075">
        <ele>22.25</ele>
        <time>2018-04-04T07:25:49Z</time>
      </trkpt>
      <trkpt lat="46.71405" lon="-2.35077">
        <ele>22.25</ele>
        <time>2018-04-04T07:25:51Z</time>
      </trkpt>
      <trkpt lat="46.71401" lon="-2.35077">
        <ele>22.73</ele>
        <time>2018-04-04T07:25:54Z</time>
      </trkpt>
      <trkpt lat="46.71397" lon="-2.35079">
        <ele>22.25</ele>
        <time>2018-04-04T07:25:58Z</time>
      </trkpt>
      <trkpt lat="46.71385" lon="-2.35084">
        <ele>21.77</ele>
        <time>2018-04-04T07:26:09Z</time>
      </trkpt>
      <trkpt lat="46.71374" lon="-2.35089">
        <ele>22.73</ele>
        <time>2018-04-04T07:26:18Z</time>
      </trkpt>
      <trkpt lat="46.71364" lon="-2.3509">
        <ele>22.73</ele>
        <time>2018-04-04T07:26:28Z</time>
      </trkpt>
      <trkpt lat="46.71361" lon="-2.35089">
        <ele>22.25</ele>
        <time>2018-04-04T07:26:30Z</time>
      </trkpt>
      <trkpt lat="46.71352" lon="-2.35087">
        <ele>22.25</ele>
        <time>2018-04-04T07:26:42Z</time>
      </trkpt>
      <trkpt lat="46.71338" lon="-2.35081">
        <ele>22.25</ele>
        <time>2018-04-04T07:26:53Z</time>
      </trkpt>
      <trkpt lat="46.71325" lon="-2.35077">
        <ele>22.73</ele>
        <time>2018-04-04T07:27:03Z</time>
      </trkpt>
      <trkpt lat="46.71311" lon="-2.35073">
        <ele>22.73</ele>
        <time>2018-04-04T07:27:14Z</time>
      </trkpt>
      <trkpt lat="46.71294" lon="-2.35073">
        <ele>22.73</ele>
        <time>2018-04-04T07:27:29Z</time>
      </trkpt>
      <trkpt lat="46.71286" lon="-2.35075">
        <ele>22.73</ele>
        <time>2018-04-04T07:27:40Z</time>
      </trkpt>
      <trkpt lat="46.7127" lon="-2.35076">
        <ele>23.21</ele>
        <time>2018-04-04T07:27:53Z</time>
      </trkpt>
      <trkpt lat="46.71257" lon="-2.35076">
        <ele>25.61</ele>
        <time>2018-04-04T07:28:04Z</time>
      </trkpt>
      <trkpt lat="46.71249" lon="-2.35078">
        <ele>26.57</ele>
        <time>2018-04-04T07:28:11Z</time>
      </trkpt>
      <trkpt lat="46.71241" lon="-2.3508">
        <ele>27.05</ele>
        <time>2018-04-04T07:28:17Z</time>
      </trkpt>
      <trkpt lat="46.71236" lon="-2.35084">
        <ele>27.53</ele>
        <time>2018-04-04T07:28:22Z</time>
      </trkpt>
      <trkpt lat="46.71233" lon="-2.35084">
        <ele>28.02</ele>
        <time>2018-04-04T07:28:25Z</time>
      </trkpt>
      <trkpt lat="46.71227" lon="-2.35087">
        <ele>28.5</ele>
        <time>2018-04-04T07:28:29Z</time>
      </trkpt>
      <trkpt lat="46.71225" lon="-2.35088">
        <ele>28.02</ele>
        <time>2018-04-04T07:28:31Z</time>
      </trkpt>
      <trkpt lat="46.71212" lon="-2.35097">
        <ele>25.61</ele>
        <time>2018-04-04T07:28:42Z</time>
      </trkpt>
      <trkpt lat="46.71209" lon="-2.351">
        <ele>26.09</ele>
        <time>2018-04-04T07:28:45Z</time>
      </trkpt>
      <trkpt lat="46.71198" lon="-2.35103">
        <ele>27.53</ele>
        <time>2018-04-04T07:28:54Z</time>
      </trkpt>
      <trkpt lat="46.71183" lon="-2.35101">
        <ele>28.5</ele>
        <time>2018-04-04T07:29:06Z</time>
      </trkpt>
      <trkpt lat="46.71171" lon="-2.35094">
        <ele>28.5</ele>
        <time>2018-04-04T07:29:16Z</time>
      </trkpt>
      <trkpt lat="46.71166" lon="-2.35077">
        <ele>28.02</ele>
        <time>2018-04-04T07:29:25Z</time>
      </trkpt>
      <trkpt lat="46.7116" lon="-2.35072">
        <ele>26.57</ele>
        <time>2018-04-04T07:29:31Z</time>
      </trkpt>
      <trkpt lat="46.71151" lon="-2.35069">
        <ele>26.09</ele>
        <time>2018-04-04T07:29:42Z</time>
      </trkpt>
      <trkpt lat="46.71142" lon="-2.35066">
        <ele>26.09</ele>
        <time>2018-04-04T07:29:49Z</time>
      </trkpt>
      <trkpt lat="46.71134" lon="-2.35068">
        <ele>26.09</ele>
        <time>2018-04-04T07:29:57Z</time>
      </trkpt>
      <trkpt lat="46.7112" lon="-2.35071">
        <ele>23.21</ele>
        <time>2018-04-04T07:30:09Z</time>
      </trkpt>
      <trkpt lat="46.71112" lon="-2.35073">
        <ele>22.25</ele>
        <time>2018-04-04T07:30:18Z</time>
      </trkpt>
      <trkpt lat="46.71101" lon="-2.3509">
        <ele>23.21</ele>
        <time>2018-04-04T07:30:29Z</time>
      </trkpt>
      <trkpt lat="46.71094" lon="-2.35094">
        <ele>23.69</ele>
        <time>2018-04-04T07:30:37Z</time>
      </trkpt>
      <trkpt lat="46.71084" lon="-2.35102">
        <ele>25.13</ele>
        <time>2018-04-04T07:30:46Z</time>
      </trkpt>
      <trkpt lat="46.71077" lon="-2.35109">
        <ele>24.65</ele>
        <time>2018-04-04T07:30:56Z</time>
      </trkpt>
      <trkpt lat="46.7107" lon="-2.35114">
        <ele>25.13</ele>
        <time>2018-04-04T07:31:03Z</time>
      </trkpt>
      <trkpt lat="46.71065" lon="-2.35117">
        <ele>25.13</ele>
        <time>2018-04-04T07:31:08Z</time>
      </trkpt>
      <trkpt lat="46.71056" lon="-2.35125">
        <ele>26.57</ele>
        <time>2018-04-04T07:31:15Z</time>
      </trkpt>
      <trkpt lat="46.7105" lon="-2.35132">
        <ele>27.05</ele>
        <time>2018-04-04T07:31:24Z</time>
      </trkpt>
      <trkpt lat="46.71039" lon="-2.3514">
        <ele>26.09</ele>
        <time>2018-04-04T07:31:34Z</time>
      </trkpt>
      <trkpt lat="46.71031" lon="-2.35145">
        <ele>27.53</ele>
        <time>2018-04-04T07:31:43Z</time>
      </trkpt>
      <trkpt lat="46.71021" lon="-2.35152">
        <ele>28.98</ele>
        <time>2018-04-04T07:31:53Z</time>
      </trkpt>
      <trkpt lat="46.71012" lon="-2.35158">
        <ele>30.42</ele>
        <time>2018-04-04T07:32:05Z</time>
      </trkpt>
      <trkpt lat="46.70996" lon="-2.35169">
        <ele>29.46</ele>
        <time>2018-04-04T07:32:13Z</time>
      </trkpt>
      <trkpt lat="46.70988" lon="-2.35169">
        <ele>28.02</ele>
        <time>2018-04-04T07:32:22Z</time>
      </trkpt>
      <trkpt lat="46.7098" lon="-2.3516">
        <ele>27.05</ele>
        <time>2018-04-04T07:32:30Z</time>
      </trkpt>
      <trkpt lat="46.70975" lon="-2.35141">
        <ele>26.57</ele>
        <time>2018-04-04T07:32:45Z</time>
      </trkpt>
      <trkpt lat="46.70971" lon="-2.35126">
        <ele>26.09</ele>
        <time>2018-04-04T07:32:54Z</time>
      </trkpt>
      <trkpt lat="46.70968" lon="-2.3511">
        <ele>27.05</ele>
        <time>2018-04-04T07:33:05Z</time>
      </trkpt>
      <trkpt lat="46.70967" lon="-2.35108">
        <ele>27.05</ele>
        <time>2018-04-04T07:33:06Z</time>
      </trkpt>
      <trkpt lat="46.70969" lon="-2.35104">
        <ele>26.09</ele>
        <time>2018-04-04T07:33:09Z</time>
      </trkpt>
      <trkpt lat="46.70978" lon="-2.35095">
        <ele>27.05</ele>
        <time>2018-04-04T07:33:23Z</time>
      </trkpt>
      <trkpt lat="46.70978" lon="-2.35095">
        <ele>27.05</ele>
        <time>2018-04-04T07:33:24Z</time>
      </trkpt>
      <trkpt lat="46.70978" lon="-2.35096">
        <ele>26.57</ele>
        <time>2018-04-04T07:33:35Z</time>
      </trkpt>
      <trkpt lat="46.70973" lon="-2.35103">
        <ele>25.61</ele>
        <time>2018-04-04T07:33:48Z</time>
      </trkpt>
      <trkpt lat="46.7097" lon="-2.35105">
        <ele>25.61</ele>
        <time>2018-04-04T07:33:52Z</time>
      </trkpt>
      <trkpt lat="46.70968" lon="-2.35107">
        <ele>26.57</ele>
        <time>2018-04-04T07:34:03Z</time>
      </trkpt>
      <trkpt lat="46.70967" lon="-2.35106">
        <ele>26.57</ele>
        <time>2018-04-04T07:34:04Z</time>
      </trkpt>
      <trkpt lat="46.70964" lon="-2.351">
        <ele>25.61</ele>
        <time>2018-04-04T07:34:10Z</time>
      </trkpt>
      <trkpt lat="46.70957" lon="-2.3508">
        <ele>25.13</ele>
        <time>2018-04-04T07:34:23Z</time>
      </trkpt>
      <trkpt lat="46.70949" lon="-2.35061">
        <ele>22.73</ele>
        <time>2018-04-04T07:34:38Z</time>
      </trkpt>
      <trkpt lat="46.7094" lon="-2.35041">
        <ele>20.81</ele>
        <time>2018-04-04T07:34:53Z</time>
      </trkpt>
      <trkpt lat="46.7094" lon="-2.3504">
        <ele>20.81</ele>
        <time>2018-04-04T07:34:54Z</time>
      </trkpt>
      <trkpt lat="46.70938" lon="-2.35035">
        <ele>20.32</ele>
        <time>2018-04-04T07:34:57Z</time>
      </trkpt>
      <trkpt lat="46.70929" lon="-2.35016">
        <ele>22.73</ele>
        <time>2018-04-04T07:35:10Z</time>
      </trkpt>
      <trkpt lat="46.70923" lon="-2.35004">
        <ele>24.17</ele>
        <time>2018-04-04T07:35:18Z</time>
      </trkpt>
      <trkpt lat="46.70917" lon="-2.3499">
        <ele>23.69</ele>
        <time>2018-04-04T07:35:29Z</time>
      </trkpt>
      <trkpt lat="46.70915" lon="-2.34986">
        <ele>25.13</ele>
        <time>2018-04-04T07:35:39Z</time>
      </trkpt>
      <trkpt lat="46.7091" lon="-2.34988">
        <ele>25.61</ele>
        <time>2018-04-04T07:35:46Z</time>
      </trkpt>
      <trkpt lat="46.70901" lon="-2.34996">
        <ele>26.57</ele>
        <time>2018-04-04T07:36:00Z</time>
      </trkpt>
      <trkpt lat="46.70898" lon="-2.34999">
        <ele>26.57</ele>
        <time>2018-04-04T07:36:05Z</time>
      </trkpt>
      <trkpt lat="46.70896" lon="-2.34996">
        <ele>27.05</ele>
        <time>2018-04-04T07:36:10Z</time>
      </trkpt>
      <trkpt lat="46.70899" lon="-2.3499">
        <ele>27.53</ele>
        <time>2018-04-04T07:36:23Z</time>
      </trkpt>
      <trkpt lat="46.70898" lon="-2.34991">
        <ele>27.53</ele>
        <time>2018-04-04T07:36:41Z</time>
      </trkpt>
      <trkpt lat="46.70898" lon="-2.34991">
        <ele>28.02</ele>
        <time>2018-04-04T07:36:53Z</time>
      </trkpt>
      <trkpt lat="46.70896" lon="-2.3499">
        <ele>27.53</ele>
        <time>2018-04-04T07:37:05Z</time>
      </trkpt>
      <trkpt lat="46.70887" lon="-2.34993">
        <ele>25.61</ele>
        <time>2018-04-04T07:37:17Z</time>
      </trkpt>
      <trkpt lat="46.70886" lon="-2.34993">
        <ele>24.65</ele>
        <time>2018-04-04T07:37:23Z</time>
      </trkpt>
      <trkpt lat="46.70875" lon="-2.34995">
        <ele>23.69</ele>
        <time>2018-04-04T07:37:31Z</time>
      </trkpt>
      <trkpt lat="46.70863" lon="-2.35001">
        <ele>25.13</ele>
        <time>2018-04-04T07:37:41Z</time>
      </trkpt>
      <trkpt lat="46.70855" lon="-2.35003">
        <ele>25.13</ele>
        <time>2018-04-04T07:37:49Z</time>
      </trkpt>
      <trkpt lat="46.70845" lon="-2.35006">
        <ele>25.61</ele>
        <time>2018-04-04T07:37:59Z</time>
      </trkpt>
      <trkpt lat="46.70833" lon="-2.35016">
        <ele>27.05</ele>
        <time>2018-04-04T07:38:10Z</time>
      </trkpt>
      <trkpt lat="46.7082" lon="-2.35022">
        <ele>25.13</ele>
        <time>2018-04-04T07:38:21Z</time>
      </trkpt>
      <trkpt lat="46.70809" lon="-2.35029">
        <ele>27.05</ele>
        <time>2018-04-04T07:38:31Z</time>
      </trkpt>
      <trkpt lat="46.708" lon="-2.35035">
        <ele>27.53</ele>
        <time>2018-04-04T07:38:41Z</time>
      </trkpt>
      <trkpt lat="46.70797" lon="-2.35037">
        <ele>28.02</ele>
        <time>2018-04-04T07:38:44Z</time>
      </trkpt>
      <trkpt lat="46.70789" lon="-2.3504">
        <ele>28.02</ele>
        <time>2018-04-04T07:38:52Z</time>
      </trkpt>
      <trkpt lat="46.7078" lon="-2.35046">
        <ele>28.5</ele>
        <time>2018-04-04T07:39:02Z</time>
      </trkpt>
      <trkpt lat="46.70769" lon="-2.35051">
        <ele>27.05</ele>
        <time>2018-04-04T07:39:12Z</time>
      </trkpt>
      <trkpt lat="46.70764" lon="-2.35055">
        <ele>26.57</ele>
        <time>2018-04-04T07:39:16Z</time>
      </trkpt>
      <trkpt lat="46.70751" lon="-2.35063">
        <ele>23.69</ele>
        <time>2018-04-04T07:39:28Z</time>
      </trkpt>
      <trkpt lat="46.70745" lon="-2.35067">
        <ele>23.69</ele>
        <time>2018-04-04T07:39:34Z</time>
      </trkpt>
      <trkpt lat="46.70734" lon="-2.35078">
        <ele>24.65</ele>
        <time>2018-04-04T07:39:46Z</time>
      </trkpt>
      <trkpt lat="46.70729" lon="-2.35081">
        <ele>25.13</ele>
        <time>2018-04-04T07:39:52Z</time>
      </trkpt>
      <trkpt lat="46.70724" lon="-2.35084">
        <ele>26.09</ele>
        <time>2018-04-04T07:39:57Z</time>
      </trkpt>
      <trkpt lat="46.70716" lon="-2.35085">
        <ele>25.61</ele>
        <time>2018-04-04T07:40:08Z</time>
      </trkpt>
      <trkpt lat="46.70707" lon="-2.35085">
        <ele>25.13</ele>
        <time>2018-04-04T07:40:18Z</time>
      </trkpt>
      <trkpt lat="46.70699" lon="-2.35088">
        <ele>24.65</ele>
        <time>2018-04-04T07:40:26Z</time>
      </trkpt>
      <trkpt lat="46.70693" lon="-2.35091">
        <ele>25.61</ele>
        <time>2018-04-04T07:40:32Z</time>
      </trkpt>
      <trkpt lat="46.7069" lon="-2.35095">
        <ele>25.61</ele>
        <time>2018-04-04T07:40:35Z</time>
      </trkpt>
      <trkpt lat="46.70681" lon="-2.35086">
        <ele>26.09</ele>
        <time>2018-04-04T07:40:46Z</time>
      </trkpt>
      <trkpt lat="46.70673" lon="-2.35079">
        <ele>27.05</ele>
        <time>2018-04-04T07:40:59Z</time>
      </trkpt>
      <trkpt lat="46.70672" lon="-2.35078">
        <ele>26.57</ele>
        <time>2018-04-04T07:41:00Z</time>
      </trkpt>
      <trkpt lat="46.7067" lon="-2.35076">
        <ele>26.09</ele>
        <time>2018-04-04T07:41:03Z</time>
      </trkpt>
      <trkpt lat="46.70665" lon="-2.35074">
        <ele>24.65</ele>
        <time>2018-04-04T07:41:08Z</time>
      </trkpt>
      <trkpt lat="46.70658" lon="-2.35067">
        <ele>23.69</ele>
        <time>2018-04-04T07:41:17Z</time>
      </trkpt>
      <trkpt lat="46.70649" lon="-2.35062">
        <ele>21.77</ele>
        <time>2018-04-04T07:41:27Z</time>
      </trkpt>
      <trkpt lat="46.70645" lon="-2.35059">
        <ele>21.77</ele>
        <time>2018-04-04T07:41:36Z</time>
      </trkpt>
      <trkpt lat="46.70641" lon="-2.35057">
        <ele>21.77</ele>
        <time>2018-04-04T07:41:40Z</time>
      </trkpt>
      <trkpt lat="46.70634" lon="-2.35053">
        <ele>22.73</ele>
        <time>2018-04-04T07:41:46Z</time>
      </trkpt>
      <trkpt lat="46.70625" lon="-2.35048">
        <ele>22.73</ele>
        <time>2018-04-04T07:41:54Z</time>
      </trkpt>
      <trkpt lat="46.70619" lon="-2.35042">
        <ele>23.21</ele>
        <time>2018-04-04T07:42:01Z</time>
      </trkpt>
      <trkpt lat="46.70606" lon="-2.35036">
        <ele>24.17</ele>
        <time>2018-04-04T07:42:12Z</time>
      </trkpt>
      <trkpt lat="46.70597" lon="-2.35032">
        <ele>25.61</ele>
        <time>2018-04-04T07:42:20Z</time>
      </trkpt>
      <trkpt lat="46.70593" lon="-2.35028">
        <ele>26.09</ele>
        <time>2018-04-04T07:42:23Z</time>
      </trkpt>
      <trkpt lat="46.70583" lon="-2.35023">
        <ele>27.53</ele>
        <time>2018-04-04T07:42:32Z</time>
      </trkpt>
      <trkpt lat="46.70573" lon="-2.35015">
        <ele>28.02</ele>
        <time>2018-04-04T07:42:42Z</time>
      </trkpt>
      <trkpt lat="46.70569" lon="-2.35012">
        <ele>27.05</ele>
        <time>2018-04-04T07:42:47Z</time>
      </trkpt>
      <trkpt lat="46.70564" lon="-2.35016">
        <ele>27.05</ele>
        <time>2018-04-04T07:42:52Z</time>
      </trkpt>
      <trkpt lat="46.7056" lon="-2.35024">
        <ele>26.57</ele>
        <time>2018-04-04T07:42:58Z</time>
      </trkpt>
      <trkpt lat="46.70559" lon="-2.35029">
        <ele>27.05</ele>
        <time>2018-04-04T07:43:01Z</time>
      </trkpt>
      <trkpt lat="46.70556" lon="-2.35039">
        <ele>26.57</ele>
        <time>2018-04-04T07:43:07Z</time>
      </trkpt>
      <trkpt lat="46.70552" lon="-2.3505">
        <ele>25.13</ele>
        <time>2018-04-04T07:43:15Z</time>
      </trkpt>
      <trkpt lat="46.70551" lon="-2.35057">
        <ele>25.13</ele>
        <time>2018-04-04T07:43:19Z</time>
      </trkpt>
      <trkpt lat="46.70548" lon="-2.3507">
        <ele>25.13</ele>
        <time>2018-04-04T07:43:27Z</time>
      </trkpt>
      <trkpt lat="46.70546" lon="-2.35077">
        <ele>24.17</ele>
        <time>2018-04-04T07:43:32Z</time>
      </trkpt>
      <trkpt lat="46.70542" lon="-2.35092">
        <ele>24.17</ele>
        <time>2018-04-04T07:43:42Z</time>
      </trkpt>
      <trkpt lat="46.70536" lon="-2.35103">
        <ele>24.65</ele>
        <time>2018-04-04T07:43:50Z</time>
      </trkpt>
      <trkpt lat="46.70535" lon="-2.35111">
        <ele>26.09</ele>
        <time>2018-04-04T07:43:55Z</time>
      </trkpt>
      <trkpt lat="46.70533" lon="-2.35119">
        <ele>26.09</ele>
        <time>2018-04-04T07:44:00Z</time>
      </trkpt>
      <trkpt lat="46.70529" lon="-2.35127">
        <ele>25.61</ele>
        <time>2018-04-04T07:44:05Z</time>
      </trkpt>
      <trkpt lat="46.70524" lon="-2.35134">
        <ele>25.61</ele>
        <time>2018-04-04T07:44:10Z</time>
      </trkpt>
      <trkpt lat="46.70522" lon="-2.35143">
        <ele>26.57</ele>
        <time>2018-04-04T07:44:16Z</time>
      </trkpt>
      <trkpt lat="46.70518" lon="-2.35158">
        <ele>26.57</ele>
        <time>2018-04-04T07:44:28Z</time>
      </trkpt>
      <trkpt lat="46.7051" lon="-2.35174">
        <ele>26.57</ele>
        <time>2018-04-04T07:44:37Z</time>
      </trkpt>
      <trkpt lat="46.70506" lon="-2.35181">
        <ele>26.57</ele>
        <time>2018-04-04T07:44:42Z</time>
      </trkpt>
      <trkpt lat="46.705" lon="-2.35196">
        <ele>26.57</ele>
        <time>2018-04-04T07:44:52Z</time>
      </trkpt>
      <trkpt lat="46.70498" lon="-2.35201">
        <ele>26.57</ele>
        <time>2018-04-04T07:44:57Z</time>
      </trkpt>
      <trkpt lat="46.70497" lon="-2.35213">
        <ele>28.98</ele>
        <time>2018-04-04T07:45:03Z</time>
      </trkpt>
      <trkpt lat="46.70494" lon="-2.35225">
        <ele>28.98</ele>
        <time>2018-04-04T07:45:10Z</time>
      </trkpt>
      <trkpt lat="46.70488" lon="-2.35229">
        <ele>28.5</ele>
        <time>2018-04-04T07:45:24Z</time>
      </trkpt>
      <trkpt lat="46.70487" lon="-2.3523">
        <ele>27.05</ele>
        <time>2018-04-04T07:45:40Z</time>
      </trkpt>
      <trkpt lat="46.7049" lon="-2.35231">
        <ele>26.57</ele>
        <time>2018-04-04T07:45:52Z</time>
      </trkpt>
      <trkpt lat="46.70487" lon="-2.35236">
        <ele>25.61</ele>
        <time>2018-04-04T07:46:01Z</time>
      </trkpt>
      <trkpt lat="46.70483" lon="-2.35241">
        <ele>25.61</ele>
        <time>2018-04-04T07:46:06Z</time>
      </trkpt>
      <trkpt lat="46.70481" lon="-2.35243">
        <ele>27.05</ele>
        <time>2018-04-04T07:46:10Z</time>
      </trkpt>
      <trkpt lat="46.70476" lon="-2.35249">
        <ele>29.46</ele>
        <time>2018-04-04T07:46:20Z</time>
      </trkpt>
      <trkpt lat="46.70475" lon="-2.35252">
        <ele>29.94</ele>
        <time>2018-04-04T07:46:29Z</time>
      </trkpt>
      <trkpt lat="46.70473" lon="-2.35255">
        <ele>30.9</ele>
        <time>2018-04-04T07:46:33Z</time>
      </trkpt>
      <trkpt lat="46.70469" lon="-2.35264">
        <ele>31.38</ele>
        <time>2018-04-04T07:46:43Z</time>
      </trkpt>
      <trkpt lat="46.70469" lon="-2.35267">
        <ele>31.38</ele>
        <time>2018-04-04T07:46:55Z</time>
      </trkpt>
      <trkpt lat="46.70464" lon="-2.3528">
        <ele>30.42</ele>
        <time>2018-04-04T07:47:04Z</time>
      </trkpt>
      <trkpt lat="46.70457" lon="-2.35293">
        <ele>29.94</ele>
        <time>2018-04-04T07:47:16Z</time>
      </trkpt>
      <trkpt lat="46.7045" lon="-2.35303">
        <ele>30.42</ele>
        <time>2018-04-04T07:47:24Z</time>
      </trkpt>
      <trkpt lat="46.70449" lon="-2.35307">
        <ele>30.9</ele>
        <time>2018-04-04T07:47:28Z</time>
      </trkpt>
      <trkpt lat="46.70441" lon="-2.35318">
        <ele>35.23</ele>
        <time>2018-04-04T07:47:38Z</time>
      </trkpt>
      <trkpt lat="46.7044" lon="-2.35321">
        <ele>36.67</ele>
        <time>2018-04-04T07:47:42Z</time>
      </trkpt>
      <trkpt lat="46.70434" lon="-2.3533">
        <ele>36.19</ele>
        <time>2018-04-04T07:47:49Z</time>
      </trkpt>
      <trkpt lat="46.70429" lon="-2.3534">
        <ele>36.19</ele>
        <time>2018-04-04T07:47:56Z</time>
      </trkpt>
      <trkpt lat="46.70428" lon="-2.35346">
        <ele>36.67</ele>
        <time>2018-04-04T07:48:01Z</time>
      </trkpt>
      <trkpt lat="46.70419" lon="-2.35362">
        <ele>34.26</ele>
        <time>2018-04-04T07:48:11Z</time>
      </trkpt>
      <trkpt lat="46.70414" lon="-2.35371">
        <ele>33.3</ele>
        <time>2018-04-04T07:48:20Z</time>
      </trkpt>
      <trkpt lat="46.70408" lon="-2.35382">
        <ele>33.3</ele>
        <time>2018-04-04T07:48:28Z</time>
      </trkpt>
      <trkpt lat="46.70402" lon="-2.35393">
        <ele>31.86</ele>
        <time>2018-04-04T07:48:35Z</time>
      </trkpt>
      <trkpt lat="46.704" lon="-2.35407">
        <ele>32.82</ele>
        <time>2018-04-04T07:48:46Z</time>
      </trkpt>
      <trkpt lat="46.70397" lon="-2.3541">
        <ele>33.3</ele>
        <time>2018-04-04T07:48:58Z</time>
      </trkpt>
      <trkpt lat="46.70394" lon="-2.35413">
        <ele>33.3</ele>
        <time>2018-04-04T07:49:08Z</time>
      </trkpt>
      <trkpt lat="46.70395" lon="-2.35413">
        <ele>32.34</ele>
        <time>2018-04-04T07:49:18Z</time>
      </trkpt>
      <trkpt lat="46.70397" lon="-2.35413">
        <ele>31.86</ele>
        <time>2018-04-04T07:49:30Z</time>
      </trkpt>
      <trkpt lat="46.70395" lon="-2.35418">
        <ele>31.86</ele>
        <time>2018-04-04T07:49:44Z</time>
      </trkpt>
      <trkpt lat="46.70395" lon="-2.35419">
        <ele>32.34</ele>
        <time>2018-04-04T07:49:45Z</time>
      </trkpt>
      <trkpt lat="46.70389" lon="-2.35435">
        <ele>31.38</ele>
        <time>2018-04-04T07:49:55Z</time>
      </trkpt>
      <trkpt lat="46.70389" lon="-2.35441">
        <ele>32.82</ele>
        <time>2018-04-04T07:50:00Z</time>
      </trkpt>
      <trkpt lat="46.70389" lon="-2.35444">
        <ele>33.78</ele>
        <time>2018-04-04T07:50:02Z</time>
      </trkpt>
      <trkpt lat="46.70388" lon="-2.35447">
        <ele>34.74</ele>
        <time>2018-04-04T07:50:04Z</time>
      </trkpt>
      <trkpt lat="46.70381" lon="-2.35464">
        <ele>32.34</ele>
        <time>2018-04-04T07:50:15Z</time>
      </trkpt>
      <trkpt lat="46.70379" lon="-2.35466">
        <ele>31.86</ele>
        <time>2018-04-04T07:50:17Z</time>
      </trkpt>
      <trkpt lat="46.70378" lon="-2.3547">
        <ele>31.38</ele>
        <time>2018-04-04T07:50:19Z</time>
      </trkpt>
      <trkpt lat="46.70378" lon="-2.35476">
        <ele>30.42</ele>
        <time>2018-04-04T07:50:22Z</time>
      </trkpt>
      <trkpt lat="46.70373" lon="-2.35482">
        <ele>28.02</ele>
        <time>2018-04-04T07:50:25Z</time>
      </trkpt>
      <trkpt lat="46.7037" lon="-2.35488">
        <ele>26.57</ele>
        <time>2018-04-04T07:50:29Z</time>
      </trkpt>
      <trkpt lat="46.70368" lon="-2.35494">
        <ele>25.61</ele>
        <time>2018-04-04T07:50:33Z</time>
      </trkpt>
      <trkpt lat="46.70365" lon="-2.35501">
        <ele>26.09</ele>
        <time>2018-04-04T07:50:38Z</time>
      </trkpt>
      <trkpt lat="46.70357" lon="-2.35522">
        <ele>23.69</ele>
        <time>2018-04-04T07:50:50Z</time>
      </trkpt>
      <trkpt lat="46.70348" lon="-2.35538">
        <ele>21.77</ele>
        <time>2018-04-04T07:51:04Z</time>
      </trkpt>
      <trkpt lat="46.70346" lon="-2.35544">
        <ele>22.25</ele>
        <time>2018-04-04T07:51:09Z</time>
      </trkpt>
      <trkpt lat="46.70344" lon="-2.35551">
        <ele>21.77</ele>
        <time>2018-04-04T07:51:14Z</time>
      </trkpt>
      <trkpt lat="46.70341" lon="-2.35559">
        <ele>21.29</ele>
        <time>2018-04-04T07:51:20Z</time>
      </trkpt>
      <trkpt lat="46.70335" lon="-2.35562">
        <ele>20.81</ele>
        <time>2018-04-04T07:51:26Z</time>
      </trkpt>
      <trkpt lat="46.70336" lon="-2.35562">
        <ele>21.29</ele>
        <time>2018-04-04T07:51:39Z</time>
      </trkpt>
      <trkpt lat="46.70331" lon="-2.35572">
        <ele>20.32</ele>
        <time>2018-04-04T07:51:46Z</time>
      </trkpt>
      <trkpt lat="46.70331" lon="-2.35575">
        <ele>19.84</ele>
        <time>2018-04-04T07:51:49Z</time>
      </trkpt>
      <trkpt lat="46.70327" lon="-2.35583">
        <ele>20.32</ele>
        <time>2018-04-04T07:51:56Z</time>
      </trkpt>
      <trkpt lat="46.70322" lon="-2.35589">
        <ele>19.84</ele>
        <time>2018-04-04T07:52:01Z</time>
      </trkpt>
      <trkpt lat="46.70317" lon="-2.35594">
        <ele>19.36</ele>
        <time>2018-04-04T07:52:12Z</time>
      </trkpt>
      <trkpt lat="46.70317" lon="-2.35596">
        <ele>19.36</ele>
        <time>2018-04-04T07:52:22Z</time>
      </trkpt>
      <trkpt lat="46.70317" lon="-2.35599">
        <ele>19.84</ele>
        <time>2018-04-04T07:52:33Z</time>
      </trkpt>
      <trkpt lat="46.70315" lon="-2.35602">
        <ele>20.32</ele>
        <time>2018-04-04T07:52:45Z</time>
      </trkpt>
      <trkpt lat="46.70313" lon="-2.35604">
        <ele>19.84</ele>
        <time>2018-04-04T07:53:00Z</time>
      </trkpt>
      <trkpt lat="46.70314" lon="-2.35605">
        <ele>20.32</ele>
        <time>2018-04-04T07:53:13Z</time>
      </trkpt>
      <trkpt lat="46.70313" lon="-2.35604">
        <ele>20.32</ele>
        <time>2018-04-04T07:53:34Z</time>
      </trkpt>
      <trkpt lat="46.70313" lon="-2.35605">
        <ele>20.81</ele>
        <time>2018-04-04T07:53:58Z</time>
      </trkpt>
      <trkpt lat="46.70307" lon="-2.35613">
        <ele>20.32</ele>
        <time>2018-04-04T07:54:07Z</time>
      </trkpt>
      <trkpt lat="46.70307" lon="-2.35614">
        <ele>20.32</ele>
        <time>2018-04-04T07:54:08Z</time>
      </trkpt>
      <trkpt lat="46.70305" lon="-2.35614">
        <ele>19.84</ele>
        <time>2018-04-04T07:54:10Z</time>
      </trkpt>
      <trkpt lat="46.70302" lon="-2.35619">
        <ele>20.81</ele>
        <time>2018-04-04T07:54:16Z</time>
      </trkpt>
      <trkpt lat="46.703" lon="-2.35624">
        <ele>20.81</ele>
        <time>2018-04-04T07:54:21Z</time>
      </trkpt>
      <trkpt lat="46.70296" lon="-2.35631">
        <ele>21.77</ele>
        <time>2018-04-04T07:54:30Z</time>
      </trkpt>
      <trkpt lat="46.70295" lon="-2.35633">
        <ele>21.29</ele>
        <time>2018-04-04T07:54:33Z</time>
      </trkpt>
      <trkpt lat="46.7029" lon="-2.35642">
        <ele>23.21</ele>
        <time>2018-04-04T07:54:42Z</time>
      </trkpt>
      <trkpt lat="46.70283" lon="-2.35652">
        <ele>24.17</ele>
        <time>2018-04-04T07:54:51Z</time>
      </trkpt>
      <trkpt lat="46.70279" lon="-2.35662">
        <ele>28.02</ele>
        <time>2018-04-04T07:54:59Z</time>
      </trkpt>
      <trkpt lat="46.70276" lon="-2.35672">
        <ele>30.9</ele>
        <time>2018-04-04T07:55:06Z</time>
      </trkpt>
      <trkpt lat="46.70266" lon="-2.35687">
        <ele>32.34</ele>
        <time>2018-04-04T07:55:17Z</time>
      </trkpt>
      <trkpt lat="46.70263" lon="-2.35691">
        <ele>33.3</ele>
        <time>2018-04-04T07:55:20Z</time>
      </trkpt>
      <trkpt lat="46.70254" lon="-2.35708">
        <ele>34.74</ele>
        <time>2018-04-04T07:55:30Z</time>
      </trkpt>
      <trkpt lat="46.7025" lon="-2.35713">
        <ele>34.26</ele>
        <time>2018-04-04T07:55:35Z</time>
      </trkpt>
      <trkpt lat="46.70247" lon="-2.35717">
        <ele>34.26</ele>
        <time>2018-04-04T07:55:40Z</time>
      </trkpt>
      <trkpt lat="46.7024" lon="-2.35724">
        <ele>33.78</ele>
        <time>2018-04-04T07:55:49Z</time>
      </trkpt>
      <trkpt lat="46.70235" lon="-2.35732">
        <ele>31.86</ele>
        <time>2018-04-04T07:56:00Z</time>
      </trkpt>
      <trkpt lat="46.7023" lon="-2.35739">
        <ele>32.82</ele>
        <time>2018-04-04T07:56:06Z</time>
      </trkpt>
      <trkpt lat="46.70222" lon="-2.35757">
        <ele>28.02</ele>
        <time>2018-04-04T07:56:16Z</time>
      </trkpt>
      <trkpt lat="46.7021" lon="-2.35767">
        <ele>23.69</ele>
        <time>2018-04-04T07:56:26Z</time>
      </trkpt>
      <trkpt lat="46.70203" lon="-2.35775">
        <ele>20.81</ele>
        <time>2018-04-04T07:56:35Z</time>
      </trkpt>
      <trkpt lat="46.70197" lon="-2.3578">
        <ele>19.84</ele>
        <time>2018-04-04T07:56:41Z</time>
      </trkpt>
      <trkpt lat="46.70185" lon="-2.35793">
        <ele>20.32</ele>
        <time>2018-04-04T07:56:52Z</time>
      </trkpt>
      <trkpt lat="46.70179" lon="-2.35798">
        <ele>22.25</ele>
        <time>2018-04-04T07:57:01Z</time>
      </trkpt>
      <trkpt lat="46.70178" lon="-2.35803">
        <ele>22.73</ele>
        <time>2018-04-04T07:57:05Z</time>
      </trkpt>
      <trkpt lat="46.70174" lon="-2.35815">
        <ele>22.25</ele>
        <time>2018-04-04T07:57:12Z</time>
      </trkpt>
      <trkpt lat="46.70168" lon="-2.35826">
        <ele>21.29</ele>
        <time>2018-04-04T07:57:20Z</time>
      </trkpt>
      <trkpt lat="46.70164" lon="-2.35837">
        <ele>18.88</ele>
        <time>2018-04-04T07:57:27Z</time>
      </trkpt>
      <trkpt lat="46.70161" lon="-2.35842">
        <ele>17.44</ele>
        <time>2018-04-04T07:57:31Z</time>
      </trkpt>
      <trkpt lat="46.70161" lon="-2.35844">
        <ele>16.48</ele>
        <time>2018-04-04T07:57:44Z</time>
      </trkpt>
      <trkpt lat="46.70159" lon="-2.35846">
        <ele>16.48</ele>
        <time>2018-04-04T07:57:54Z</time>
      </trkpt>
      <trkpt lat="46.70162" lon="-2.3585">
        <ele>16.48</ele>
        <time>2018-04-04T07:58:05Z</time>
      </trkpt>
      <trkpt lat="46.70162" lon="-2.35852">
        <ele>16.96</ele>
        <time>2018-04-04T07:58:07Z</time>
      </trkpt>
      <trkpt lat="46.70158" lon="-2.35862">
        <ele>17.92</ele>
        <time>2018-04-04T07:58:18Z</time>
      </trkpt>
      <trkpt lat="46.70154" lon="-2.35869">
        <ele>16</ele>
        <time>2018-04-04T07:58:29Z</time>
      </trkpt>
      <trkpt lat="46.70146" lon="-2.35876">
        <ele>13.12</ele>
        <time>2018-04-04T07:58:43Z</time>
      </trkpt>
      <trkpt lat="46.70143" lon="-2.35883">
        <ele>14.56</ele>
        <time>2018-04-04T07:58:57Z</time>
      </trkpt>
      <trkpt lat="46.70143" lon="-2.35885">
        <ele>15.52</ele>
        <time>2018-04-04T07:59:09Z</time>
      </trkpt>
      <trkpt lat="46.70144" lon="-2.35879">
        <ele>15.04</ele>
        <time>2018-04-04T07:59:23Z</time>
      </trkpt>
      <trkpt lat="46.70145" lon="-2.35878">
        <ele>15.52</ele>
        <time>2018-04-04T07:59:41Z</time>
      </trkpt>
      <trkpt lat="46.70146" lon="-2.35876">
        <ele>16.48</ele>
        <time>2018-04-04T07:59:54Z</time>
      </trkpt>
      <trkpt lat="46.70145" lon="-2.35872">
        <ele>17.92</ele>
        <time>2018-04-04T08:00:05Z</time>
      </trkpt>
      <trkpt lat="46.70139" lon="-2.35874">
        <ele>17.44</ele>
        <time>2018-04-04T08:00:14Z</time>
      </trkpt>
      <trkpt lat="46.70127" lon="-2.35879">
        <ele>18.4</ele>
        <time>2018-04-04T08:00:21Z</time>
      </trkpt>
      <trkpt lat="46.70126" lon="-2.35879">
        <ele>18.88</ele>
        <time>2018-04-04T08:00:23Z</time>
      </trkpt>
      <trkpt lat="46.70111" lon="-2.35885">
        <ele>19.36</ele>
        <time>2018-04-04T08:00:33Z</time>
      </trkpt>
      <trkpt lat="46.70102" lon="-2.35889">
        <ele>20.81</ele>
        <time>2018-04-04T08:00:43Z</time>
      </trkpt>
      <trkpt lat="46.70101" lon="-2.35889">
        <ele>19.84</ele>
        <time>2018-04-04T08:00:47Z</time>
      </trkpt>
      <trkpt lat="46.70098" lon="-2.35891">
        <ele>20.81</ele>
        <time>2018-04-04T08:00:51Z</time>
      </trkpt>
      <trkpt lat="46.70088" lon="-2.35895">
        <ele>24.65</ele>
        <time>2018-04-04T08:01:00Z</time>
      </trkpt>
      <trkpt lat="46.70084" lon="-2.35897">
        <ele>25.13</ele>
        <time>2018-04-04T08:01:04Z</time>
      </trkpt>
      <trkpt lat="46.70071" lon="-2.35899">
        <ele>22.73</ele>
        <time>2018-04-04T08:01:13Z</time>
      </trkpt>
      <trkpt lat="46.70063" lon="-2.359">
        <ele>20.32</ele>
        <time>2018-04-04T08:01:22Z</time>
      </trkpt>
      <trkpt lat="46.70061" lon="-2.35901">
        <ele>19.36</ele>
        <time>2018-04-04T08:01:28Z</time>
      </trkpt>
      <trkpt lat="46.70053" lon="-2.35904">
        <ele>19.84</ele>
        <time>2018-04-04T08:01:40Z</time>
      </trkpt>
      <trkpt lat="46.70051" lon="-2.35903">
        <ele>19.84</ele>
        <time>2018-04-04T08:01:42Z</time>
      </trkpt>
      <trkpt lat="46.70048" lon="-2.35904">
        <ele>20.32</ele>
        <time>2018-04-04T08:01:44Z</time>
      </trkpt>
      <trkpt lat="46.70035" lon="-2.35899">
        <ele>21.29</ele>
        <time>2018-04-04T08:01:56Z</time>
      </trkpt>
      <trkpt lat="46.70023" lon="-2.35901">
        <ele>18.88</ele>
        <time>2018-04-04T08:02:05Z</time>
      </trkpt>
      <trkpt lat="46.70016" lon="-2.35901">
        <ele>18.4</ele>
        <time>2018-04-04T08:02:10Z</time>
      </trkpt>
      <trkpt lat="46.70006" lon="-2.35899">
        <ele>16.96</ele>
        <time>2018-04-04T08:02:20Z</time>
      </trkpt>
      <trkpt lat="46.69993" lon="-2.35899">
        <ele>16.48</ele>
        <time>2018-04-04T08:02:30Z</time>
      </trkpt>
      <trkpt lat="46.6998" lon="-2.35902">
        <ele>16</ele>
        <time>2018-04-04T08:02:42Z</time>
      </trkpt>
      <trkpt lat="46.69968" lon="-2.35908">
        <ele>15.52</ele>
        <time>2018-04-04T08:02:52Z</time>
      </trkpt>
      <trkpt lat="46.69964" lon="-2.3591">
        <ele>16</ele>
        <time>2018-04-04T08:02:55Z</time>
      </trkpt>
      <trkpt lat="46.69962" lon="-2.35911">
        <ele>17.92</ele>
        <time>2018-04-04T08:02:58Z</time>
      </trkpt>
      <trkpt lat="46.69948" lon="-2.35925">
        <ele>18.88</ele>
        <time>2018-04-04T08:03:12Z</time>
      </trkpt>
      <trkpt lat="46.6994" lon="-2.35934">
        <ele>19.84</ele>
        <time>2018-04-04T08:03:21Z</time>
      </trkpt>
      <trkpt lat="46.69935" lon="-2.35941">
        <ele>19.84</ele>
        <time>2018-04-04T08:03:27Z</time>
      </trkpt>
      <trkpt lat="46.69931" lon="-2.35948">
        <ele>20.81</ele>
        <time>2018-04-04T08:03:33Z</time>
      </trkpt>
      <trkpt lat="46.69929" lon="-2.35954">
        <ele>19.36</ele>
        <time>2018-04-04T08:03:37Z</time>
      </trkpt>
      <trkpt lat="46.69925" lon="-2.35963">
        <ele>18.88</ele>
        <time>2018-04-04T08:03:44Z</time>
      </trkpt>
      <trkpt lat="46.6992" lon="-2.3597">
        <ele>17.92</ele>
        <time>2018-04-04T08:03:49Z</time>
      </trkpt>
      <trkpt lat="46.69914" lon="-2.35982">
        <ele>19.36</ele>
        <time>2018-04-04T08:04:00Z</time>
      </trkpt>
      <trkpt lat="46.69909" lon="-2.3599">
        <ele>19.36</ele>
        <time>2018-04-04T08:04:08Z</time>
      </trkpt>
      <trkpt lat="46.69902" lon="-2.36003">
        <ele>18.4</ele>
        <time>2018-04-04T08:04:21Z</time>
      </trkpt>
      <trkpt lat="46.69898" lon="-2.36011">
        <ele>18.4</ele>
        <time>2018-04-04T08:04:27Z</time>
      </trkpt>
      <trkpt lat="46.69894" lon="-2.36017">
        <ele>19.36</ele>
        <time>2018-04-04T08:04:33Z</time>
      </trkpt>
      <trkpt lat="46.69886" lon="-2.36035">
        <ele>20.81</ele>
        <time>2018-04-04T08:04:46Z</time>
      </trkpt>
      <trkpt lat="46.69883" lon="-2.36039">
        <ele>21.77</ele>
        <time>2018-04-04T08:04:49Z</time>
      </trkpt>
      <trkpt lat="46.69881" lon="-2.36043">
        <ele>23.21</ele>
        <time>2018-04-04T08:05:02Z</time>
      </trkpt>
      <trkpt lat="46.69881" lon="-2.36043">
        <ele>23.21</ele>
        <time>2018-04-04T08:05:26Z</time>
      </trkpt>
      <trkpt lat="46.69882" lon="-2.36044">
        <ele>23.21</ele>
        <time>2018-04-04T08:05:35Z</time>
      </trkpt>
      <trkpt lat="46.69887" lon="-2.36043">
        <ele>23.69</ele>
        <time>2018-04-04T08:05:44Z</time>
      </trkpt>
      <trkpt lat="46.69884" lon="-2.36049">
        <ele>25.61</ele>
        <time>2018-04-04T08:05:55Z</time>
      </trkpt>
      <trkpt lat="46.69884" lon="-2.36051">
        <ele>26.57</ele>
        <time>2018-04-04T08:06:03Z</time>
      </trkpt>
      <trkpt lat="46.69882" lon="-2.36053">
        <ele>26.09</ele>
        <time>2018-04-04T08:06:06Z</time>
      </trkpt>
      <trkpt lat="46.69873" lon="-2.36067">
        <ele>25.61</ele>
        <time>2018-04-04T08:06:19Z</time>
      </trkpt>
      <trkpt lat="46.6987" lon="-2.36073">
        <ele>25.61</ele>
        <time>2018-04-04T08:06:23Z</time>
      </trkpt>
      <trkpt lat="46.69868" lon="-2.36076">
        <ele>27.05</ele>
        <time>2018-04-04T08:06:33Z</time>
      </trkpt>
      <trkpt lat="46.69869" lon="-2.36075">
        <ele>27.53</ele>
        <time>2018-04-04T08:06:41Z</time>
      </trkpt>
      <trkpt lat="46.69868" lon="-2.36075">
        <ele>28.02</ele>
        <time>2018-04-04T08:06:49Z</time>
      </trkpt>
      <trkpt lat="46.69869" lon="-2.36075">
        <ele>27.05</ele>
        <time>2018-04-04T08:07:00Z</time>
      </trkpt>
      <trkpt lat="46.69864" lon="-2.36073">
        <ele>25.61</ele>
        <time>2018-04-04T08:07:11Z</time>
      </trkpt>
      <trkpt lat="46.69866" lon="-2.36074">
        <ele>25.61</ele>
        <time>2018-04-04T08:07:24Z</time>
      </trkpt>
      <trkpt lat="46.69868" lon="-2.36076">
        <ele>25.13</ele>
        <time>2018-04-04T08:07:36Z</time>
      </trkpt>
      <trkpt lat="46.69867" lon="-2.36075">
        <ele>25.61</ele>
        <time>2018-04-04T08:07:43Z</time>
      </trkpt>
      <trkpt lat="46.69867" lon="-2.36076">
        <ele>26.09</ele>
        <time>2018-04-04T08:07:46Z</time>
      </trkpt>
      <trkpt lat="46.6987" lon="-2.36078">
        <ele>26.57</ele>
        <time>2018-04-04T08:07:51Z</time>
      </trkpt>
      <trkpt lat="46.6987" lon="-2.36077">
        <ele>27.53</ele>
        <time>2018-04-04T08:07:54Z</time>
      </trkpt>
      <trkpt lat="46.69867" lon="-2.36077">
        <ele>26.09</ele>
        <time>2018-04-04T08:08:04Z</time>
      </trkpt>
      <trkpt lat="46.69867" lon="-2.36078">
        <ele>26.09</ele>
        <time>2018-04-04T08:08:06Z</time>
      </trkpt>
      <trkpt lat="46.69867" lon="-2.36076">
        <ele>28.02</ele>
        <time>2018-04-04T08:08:16Z</time>
      </trkpt>
      <trkpt lat="46.69867" lon="-2.36076">
        <ele>27.53</ele>
        <time>2018-04-04T08:08:20Z</time>
      </trkpt>
      <trkpt lat="46.69867" lon="-2.36077">
        <ele>28.02</ele>
        <time>2018-04-04T08:08:22Z</time>
      </trkpt>
      <trkpt lat="46.69868" lon="-2.36077">
        <ele>26.09</ele>
        <time>2018-04-04T08:08:30Z</time>
      </trkpt>
      <trkpt lat="46.69868" lon="-2.36077">
        <ele>25.13</ele>
        <time>2018-04-04T08:08:31Z</time>
      </trkpt>
      <trkpt lat="46.69865" lon="-2.36078">
        <ele>20.81</ele>
        <time>2018-04-04T08:08:39Z</time>
      </trkpt>
      <trkpt lat="46.69863" lon="-2.36077">
        <ele>20.32</ele>
        <time>2018-04-04T08:08:47Z</time>
      </trkpt>
      <trkpt lat="46.69863" lon="-2.36077">
        <ele>20.81</ele>
        <time>2018-04-04T08:08:50Z</time>
      </trkpt>
      <trkpt lat="46.69865" lon="-2.36076">
        <ele>21.77</ele>
        <time>2018-04-04T08:08:59Z</time>
      </trkpt>
      <trkpt lat="46.69866" lon="-2.36077">
        <ele>22.25</ele>
        <time>2018-04-04T08:09:07Z</time>
      </trkpt>
      <trkpt lat="46.69866" lon="-2.36076">
        <ele>23.21</ele>
        <time>2018-04-04T08:09:20Z</time>
      </trkpt>
      <trkpt lat="46.69867" lon="-2.36076">
        <ele>24.17</ele>
        <time>2018-04-04T08:09:30Z</time>
      </trkpt>
      <trkpt lat="46.69867" lon="-2.36076">
        <ele>23.69</ele>
        <time>2018-04-04T08:09:50Z</time>
      </trkpt>
      <trkpt lat="46.69866" lon="-2.36077">
        <ele>24.65</ele>
        <time>2018-04-04T08:10:01Z</time>
      </trkpt>
      <trkpt lat="46.69867" lon="-2.36077">
        <ele>24.65</ele>
        <time>2018-04-04T08:10:07Z</time>
      </trkpt>
      <trkpt lat="46.69861" lon="-2.36086">
        <ele>24.65</ele>
        <time>2018-04-04T08:10:15Z</time>
      </trkpt>
      <trkpt lat="46.69858" lon="-2.36089">
        <ele>25.61</ele>
        <time>2018-04-04T08:10:20Z</time>
      </trkpt>
      <trkpt lat="46.69859" lon="-2.36097">
        <ele>27.53</ele>
        <time>2018-04-04T08:10:25Z</time>
      </trkpt>
      <trkpt lat="46.69858" lon="-2.36117">
        <ele>28.5</ele>
        <time>2018-04-04T08:10:37Z</time>
      </trkpt>
      <trkpt lat="46.6986" lon="-2.3613">
        <ele>28.02</ele>
        <time>2018-04-04T08:10:46Z</time>
      </trkpt>
      <trkpt lat="46.69862" lon="-2.36143">
        <ele>27.05</ele>
        <time>2018-04-04T08:10:53Z</time>
      </trkpt>
      <trkpt lat="46.69868" lon="-2.36158">
        <ele>27.05</ele>
        <time>2018-04-04T08:11:02Z</time>
      </trkpt>
      <trkpt lat="46.69874" lon="-2.36168">
        <ele>28.5</ele>
        <time>2018-04-04T08:11:11Z</time>
      </trkpt>
      <trkpt lat="46.6988" lon="-2.3618">
        <ele>28.5</ele>
        <time>2018-04-04T08:11:19Z</time>
      </trkpt>
      <trkpt lat="46.69881" lon="-2.36186">
        <ele>28.02</ele>
        <time>2018-04-04T08:11:21Z</time>
      </trkpt>
      <trkpt lat="46.69884" lon="-2.36191">
        <ele>26.57</ele>
        <time>2018-04-04T08:11:26Z</time>
      </trkpt>
      <trkpt lat="46.69891" lon="-2.36206">
        <ele>28.02</ele>
        <time>2018-04-04T08:11:35Z</time>
      </trkpt>
      <trkpt lat="46.6989" lon="-2.36208">
        <ele>27.53</ele>
        <time>2018-04-04T08:11:43Z</time>
      </trkpt>
      <trkpt lat="46.69896" lon="-2.36222">
        <ele>26.57</ele>
        <time>2018-04-04T08:11:54Z</time>
      </trkpt>
      <trkpt lat="46.699" lon="-2.36238">
        <ele>25.61</ele>
        <time>2018-04-04T08:12:03Z</time>
      </trkpt>
      <trkpt lat="46.69904" lon="-2.36251">
        <ele>24.65</ele>
        <time>2018-04-04T08:12:11Z</time>
      </trkpt>
      <trkpt lat="46.69908" lon="-2.36266">
        <ele>23.69</ele>
        <time>2018-04-04T08:12:21Z</time>
      </trkpt>
      <trkpt lat="46.69908" lon="-2.36271">
        <ele>23.21</ele>
        <time>2018-04-04T08:12:23Z</time>
      </trkpt>
      <trkpt lat="46.69912" lon="-2.36275">
        <ele>23.21</ele>
        <time>2018-04-04T08:12:27Z</time>
      </trkpt>
      <trkpt lat="46.69919" lon="-2.36292">
        <ele>22.25</ele>
        <time>2018-04-04T08:12:38Z</time>
      </trkpt>
      <trkpt lat="46.69925" lon="-2.36302">
        <ele>21.29</ele>
        <time>2018-04-04T08:12:46Z</time>
      </trkpt>
      <trkpt lat="46.69932" lon="-2.36312">
        <ele>22.73</ele>
        <time>2018-04-04T08:12:53Z</time>
      </trkpt>
      <trkpt lat="46.69938" lon="-2.36324">
        <ele>24.17</ele>
        <time>2018-04-04T08:13:01Z</time>
      </trkpt>
      <trkpt lat="46.6994" lon="-2.36343">
        <ele>24.65</ele>
        <time>2018-04-04T08:13:12Z</time>
      </trkpt>
      <trkpt lat="46.69942" lon="-2.36358">
        <ele>25.61</ele>
        <time>2018-04-04T08:13:22Z</time>
      </trkpt>
      <trkpt lat="46.69943" lon="-2.36372">
        <ele>25.13</ele>
        <time>2018-04-04T08:13:29Z</time>
      </trkpt>
      <trkpt lat="46.69947" lon="-2.36397">
        <ele>27.05</ele>
        <time>2018-04-04T08:13:44Z</time>
      </trkpt>
      <trkpt lat="46.69947" lon="-2.364">
        <ele>27.53</ele>
        <time>2018-04-04T08:13:46Z</time>
      </trkpt>
      <trkpt lat="46.69954" lon="-2.3642">
        <ele>28.02</ele>
        <time>2018-04-04T08:13:58Z</time>
      </trkpt>
      <trkpt lat="46.69954" lon="-2.36421">
        <ele>28.02</ele>
        <time>2018-04-04T08:13:59Z</time>
      </trkpt>
      <trkpt lat="46.69957" lon="-2.36439">
        <ele>27.53</ele>
        <time>2018-04-04T08:14:11Z</time>
      </trkpt>
      <trkpt lat="46.69956" lon="-2.36443">
        <ele>28.5</ele>
        <time>2018-04-04T08:14:15Z</time>
      </trkpt>
      <trkpt lat="46.69956" lon="-2.36449">
        <ele>28.02</ele>
        <time>2018-04-04T08:14:19Z</time>
      </trkpt>
      <trkpt lat="46.69958" lon="-2.36455">
        <ele>26.57</ele>
        <time>2018-04-04T08:14:24Z</time>
      </trkpt>
      <trkpt lat="46.69962" lon="-2.36463">
        <ele>25.13</ele>
        <time>2018-04-04T08:14:29Z</time>
      </trkpt>
      <trkpt lat="46.69962" lon="-2.36467">
        <ele>24.65</ele>
        <time>2018-04-04T08:14:31Z</time>
      </trkpt>
      <trkpt lat="46.69969" lon="-2.3648">
        <ele>23.21</ele>
        <time>2018-04-04T08:14:42Z</time>
      </trkpt>
      <trkpt lat="46.6997" lon="-2.36482">
        <ele>23.21</ele>
        <time>2018-04-04T08:14:43Z</time>
      </trkpt>
      <trkpt lat="46.69979" lon="-2.36498">
        <ele>24.65</ele>
        <time>2018-04-04T08:14:55Z</time>
      </trkpt>
      <trkpt lat="46.69985" lon="-2.36511">
        <ele>24.17</ele>
        <time>2018-04-04T08:15:05Z</time>
      </trkpt>
      <trkpt lat="46.69991" lon="-2.36526">
        <ele>24.17</ele>
        <time>2018-04-04T08:15:16Z</time>
      </trkpt>
      <trkpt lat="46.69996" lon="-2.36534">
        <ele>23.21</ele>
        <time>2018-04-04T08:15:25Z</time>
      </trkpt>
      <trkpt lat="46.70003" lon="-2.3654">
        <ele>22.25</ele>
        <time>2018-04-04T08:15:35Z</time>
      </trkpt>
      <trkpt lat="46.70009" lon="-2.36551">
        <ele>21.77</ele>
        <time>2018-04-04T08:15:45Z</time>
      </trkpt>
      <trkpt lat="46.7001" lon="-2.36553">
        <ele>21.29</ele>
        <time>2018-04-04T08:15:47Z</time>
      </trkpt>
      <trkpt lat="46.70009" lon="-2.36561">
        <ele>21.77</ele>
        <time>2018-04-04T08:15:55Z</time>
      </trkpt>
      <trkpt lat="46.70008" lon="-2.3656">
        <ele>22.73</ele>
        <time>2018-04-04T08:16:06Z</time>
      </trkpt>
      <trkpt lat="46.70009" lon="-2.36563">
        <ele>23.69</ele>
        <time>2018-04-04T08:16:10Z</time>
      </trkpt>
      <trkpt lat="46.70009" lon="-2.36572">
        <ele>22.73</ele>
        <time>2018-04-04T08:16:15Z</time>
      </trkpt>
      <trkpt lat="46.70009" lon="-2.3659">
        <ele>22.73</ele>
        <time>2018-04-04T08:16:26Z</time>
      </trkpt>
      <trkpt lat="46.70013" lon="-2.36607">
        <ele>23.21</ele>
        <time>2018-04-04T08:16:35Z</time>
      </trkpt>
      <trkpt lat="46.70013" lon="-2.36608">
        <ele>23.21</ele>
        <time>2018-04-04T08:16:36Z</time>
      </trkpt>
      <trkpt lat="46.70014" lon="-2.36619">
        <ele>23.21</ele>
        <time>2018-04-04T08:16:43Z</time>
      </trkpt>
      <trkpt lat="46.70011" lon="-2.36633">
        <ele>23.21</ele>
        <time>2018-04-04T08:16:52Z</time>
      </trkpt>
      <trkpt lat="46.7001" lon="-2.36635">
        <ele>23.21</ele>
        <time>2018-04-04T08:16:54Z</time>
      </trkpt>
      <trkpt lat="46.70008" lon="-2.36651">
        <ele>24.17</ele>
        <time>2018-04-04T08:17:04Z</time>
      </trkpt>
      <trkpt lat="46.70008" lon="-2.36661">
        <ele>24.65</ele>
        <time>2018-04-04T08:17:10Z</time>
      </trkpt>
      <trkpt lat="46.70005" lon="-2.36681">
        <ele>23.69</ele>
        <time>2018-04-04T08:17:19Z</time>
      </trkpt>
      <trkpt lat="46.70001" lon="-2.36692">
        <ele>23.69</ele>
        <time>2018-04-04T08:17:25Z</time>
      </trkpt>
      <trkpt lat="46.7" lon="-2.36694">
        <ele>22.73</ele>
        <time>2018-04-04T08:17:28Z</time>
      </trkpt>
      <trkpt lat="46.69997" lon="-2.3671">
        <ele>24.65</ele>
        <time>2018-04-04T08:17:39Z</time>
      </trkpt>
      <trkpt lat="46.69995" lon="-2.36712">
        <ele>24.65</ele>
        <time>2018-04-04T08:17:42Z</time>
      </trkpt>
      <trkpt lat="46.69984" lon="-2.36717">
        <ele>24.17</ele>
        <time>2018-04-04T08:17:52Z</time>
      </trkpt>
      <trkpt lat="46.6998" lon="-2.36718">
        <ele>26.57</ele>
        <time>2018-04-04T08:18:00Z</time>
      </trkpt>
      <trkpt lat="46.69975" lon="-2.36722">
        <ele>27.05</ele>
        <time>2018-04-04T08:18:09Z</time>
      </trkpt>
      <trkpt lat="46.69975" lon="-2.36724">
        <ele>26.57</ele>
        <time>2018-04-04T08:18:11Z</time>
      </trkpt>
      <trkpt lat="46.69972" lon="-2.36725">
        <ele>26.57</ele>
        <time>2018-04-04T08:18:13Z</time>
      </trkpt>
      <trkpt lat="46.69969" lon="-2.36728">
        <ele>26.57</ele>
        <time>2018-04-04T08:18:15Z</time>
      </trkpt>
      <trkpt lat="46.69966" lon="-2.36731">
        <ele>26.57</ele>
        <time>2018-04-04T08:18:19Z</time>
      </trkpt>
      <trkpt lat="46.69957" lon="-2.36741">
        <ele>23.69</ele>
        <time>2018-04-04T08:18:28Z</time>
      </trkpt>
      <trkpt lat="46.69947" lon="-2.36755">
        <ele>18.4</ele>
        <time>2018-04-04T08:18:37Z</time>
      </trkpt>
      <trkpt lat="46.69946" lon="-2.36756">
        <ele>18.4</ele>
        <time>2018-04-04T08:18:38Z</time>
      </trkpt>
      <trkpt lat="46.69943" lon="-2.36762">
        <ele>16.48</ele>
        <time>2018-04-04T08:18:48Z</time>
      </trkpt>
      <trkpt lat="46.69943" lon="-2.36762">
        <ele>16.48</ele>
        <time>2018-04-04T08:18:51Z</time>
      </trkpt>
      <trkpt lat="46.69943" lon="-2.36763">
        <ele>16.96</ele>
        <time>2018-04-04T08:19:02Z</time>
      </trkpt>
      <trkpt lat="46.69944" lon="-2.36763">
        <ele>16.48</ele>
        <time>2018-04-04T08:19:15Z</time>
      </trkpt>
      <trkpt lat="46.69943" lon="-2.36762">
        <ele>16.48</ele>
        <time>2018-04-04T08:19:29Z</time>
      </trkpt>
      <trkpt lat="46.69943" lon="-2.36761">
        <ele>16</ele>
        <time>2018-04-04T08:19:44Z</time>
      </trkpt>
      <trkpt lat="46.69945" lon="-2.36763">
        <ele>14.08</ele>
        <time>2018-04-04T08:19:55Z</time>
      </trkpt>
      <trkpt lat="46.69947" lon="-2.36764">
        <ele>12.63</ele>
        <time>2018-04-04T08:20:05Z</time>
      </trkpt>
      <trkpt lat="46.69952" lon="-2.36771">
        <ele>12.15</ele>
        <time>2018-04-04T08:20:10Z</time>
      </trkpt>
      <trkpt lat="46.69956" lon="-2.3678">
        <ele>10.23</ele>
        <time>2018-04-04T08:20:19Z</time>
      </trkpt>
      <trkpt lat="46.69953" lon="-2.36784">
        <ele>10.71</ele>
        <time>2018-04-04T08:20:22Z</time>
      </trkpt>
      <trkpt lat="46.69947" lon="-2.36784">
        <ele>11.19</ele>
        <time>2018-04-04T08:20:32Z</time>
      </trkpt>
      <trkpt lat="46.69944" lon="-2.36784">
        <ele>11.67</ele>
        <time>2018-04-04T08:20:35Z</time>
      </trkpt>
      <trkpt lat="46.69942" lon="-2.36783">
        <ele>12.15</ele>
        <time>2018-04-04T08:20:38Z</time>
      </trkpt>
      <trkpt lat="46.69939" lon="-2.36778">
        <ele>14.08</ele>
        <time>2018-04-04T08:20:45Z</time>
      </trkpt>
      <trkpt lat="46.6994" lon="-2.36781">
        <ele>17.44</ele>
        <time>2018-04-04T08:20:52Z</time>
      </trkpt>
      <trkpt lat="46.69929" lon="-2.36788">
        <ele>16.48</ele>
        <time>2018-04-04T08:21:02Z</time>
      </trkpt>
      <trkpt lat="46.69926" lon="-2.36794">
        <ele>15.04</ele>
        <time>2018-04-04T08:21:11Z</time>
      </trkpt>
      <trkpt lat="46.69925" lon="-2.36794">
        <ele>14.56</ele>
        <time>2018-04-04T08:21:27Z</time>
      </trkpt>
      <trkpt lat="46.69925" lon="-2.36794">
        <ele>14.56</ele>
        <time>2018-04-04T08:21:43Z</time>
      </trkpt>
      <trkpt lat="46.69926" lon="-2.3679">
        <ele>14.56</ele>
        <time>2018-04-04T08:21:54Z</time>
      </trkpt>
      <trkpt lat="46.69924" lon="-2.36793">
        <ele>13.6</ele>
        <time>2018-04-04T08:22:01Z</time>
      </trkpt>
      <trkpt lat="46.69921" lon="-2.36795">
        <ele>12.15</ele>
        <time>2018-04-04T08:22:06Z</time>
      </trkpt>
      <trkpt lat="46.69917" lon="-2.368">
        <ele>11.67</ele>
        <time>2018-04-04T08:22:16Z</time>
      </trkpt>
      <trkpt lat="46.69912" lon="-2.36804">
        <ele>10.71</ele>
        <time>2018-04-04T08:22:24Z</time>
      </trkpt>
      <trkpt lat="46.69912" lon="-2.36803">
        <ele>10.71</ele>
        <time>2018-04-04T08:22:29Z</time>
      </trkpt>
      <trkpt lat="46.69907" lon="-2.36804">
        <ele>11.67</ele>
        <time>2018-04-04T08:22:36Z</time>
      </trkpt>
      <trkpt lat="46.69908" lon="-2.36806">
        <ele>11.67</ele>
        <time>2018-04-04T08:22:39Z</time>
      </trkpt>
      <trkpt lat="46.69906" lon="-2.3681">
        <ele>11.67</ele>
        <time>2018-04-04T08:22:42Z</time>
      </trkpt>
      <trkpt lat="46.69905" lon="-2.36814">
        <ele>10.23</ele>
        <time>2018-04-04T08:22:53Z</time>
      </trkpt>
      <trkpt lat="46.69904" lon="-2.36815">
        <ele>11.19</ele>
        <time>2018-04-04T08:23:02Z</time>
      </trkpt>
      <trkpt lat="46.69908" lon="-2.36809">
        <ele>12.15</ele>
        <time>2018-04-04T08:23:10Z</time>
      </trkpt>
      <trkpt lat="46.69908" lon="-2.36807">
        <ele>12.15</ele>
        <time>2018-04-04T08:23:14Z</time>
      </trkpt>
      <trkpt lat="46.69909" lon="-2.36804">
        <ele>12.15</ele>
        <time>2018-04-04T08:23:17Z</time>
      </trkpt>
      <trkpt lat="46.69916" lon="-2.368">
        <ele>11.67</ele>
        <time>2018-04-04T08:23:26Z</time>
      </trkpt>
      <trkpt lat="46.69919" lon="-2.36797">
        <ele>11.67</ele>
        <time>2018-04-04T08:23:37Z</time>
      </trkpt>
      <trkpt lat="46.69921" lon="-2.36795">
        <ele>10.23</ele>
        <time>2018-04-04T08:23:40Z</time>
      </trkpt>
      <trkpt lat="46.69924" lon="-2.36786">
        <ele>6.39</ele>
        <time>2018-04-04T08:23:47Z</time>
      </trkpt>
      <trkpt lat="46.69937" lon="-2.3678">
        <ele>7.35</ele>
        <time>2018-04-04T08:23:59Z</time>
      </trkpt>
      <trkpt lat="46.69942" lon="-2.36781">
        <ele>7.83</ele>
        <time>2018-04-04T08:24:02Z</time>
      </trkpt>
      <trkpt lat="46.69944" lon="-2.36783">
        <ele>8.79</ele>
        <time>2018-04-04T08:24:04Z</time>
      </trkpt>
      <trkpt lat="46.6995" lon="-2.36784">
        <ele>10.71</ele>
        <time>2018-04-04T08:24:10Z</time>
      </trkpt>
      <trkpt lat="46.69954" lon="-2.36782">
        <ele>11.67</ele>
        <time>2018-04-04T08:24:14Z</time>
      </trkpt>
      <trkpt lat="46.69956" lon="-2.36786">
        <ele>11.19</ele>
        <time>2018-04-04T08:24:23Z</time>
      </trkpt>
      <trkpt lat="46.69956" lon="-2.36787">
        <ele>11.19</ele>
        <time>2018-04-04T08:24:31Z</time>
      </trkpt>
      <trkpt lat="46.69955" lon="-2.36781">
        <ele>13.6</ele>
        <time>2018-04-04T08:24:41Z</time>
      </trkpt>
      <trkpt lat="46.69953" lon="-2.36772">
        <ele>16</ele>
        <time>2018-04-04T08:24:50Z</time>
      </trkpt>
      <trkpt lat="46.6995" lon="-2.36766">
        <ele>19.84</ele>
        <time>2018-04-04T08:25:00Z</time>
      </trkpt>
      <trkpt lat="46.6995" lon="-2.36765">
        <ele>20.32</ele>
        <time>2018-04-04T08:25:11Z</time>
      </trkpt>
      <trkpt lat="46.6995" lon="-2.36765">
        <ele>20.32</ele>
        <time>2018-04-04T08:25:22Z</time>
      </trkpt>
      <trkpt lat="46.6995" lon="-2.36765">
        <ele>20.32</ele>
        <time>2018-04-04T08:25:23Z</time>
      </trkpt>
      <trkpt lat="46.6995" lon="-2.36762">
        <ele>21.29</ele>
        <time>2018-04-04T08:25:34Z</time>
      </trkpt>
      <trkpt lat="46.69948" lon="-2.36763">
        <ele>19.36</ele>
        <time>2018-04-04T08:25:45Z</time>
      </trkpt>
      <trkpt lat="46.69948" lon="-2.36764">
        <ele>18.88</ele>
        <time>2018-04-04T08:26:02Z</time>
      </trkpt>
      <trkpt lat="46.69948" lon="-2.36763">
        <ele>18.4</ele>
        <time>2018-04-04T08:26:11Z</time>
      </trkpt>
      <trkpt lat="46.69946" lon="-2.36758">
        <ele>18.4</ele>
        <time>2018-04-04T08:26:23Z</time>
      </trkpt>
      <trkpt lat="46.69943" lon="-2.3675">
        <ele>15.04</ele>
        <time>2018-04-04T08:26:35Z</time>
      </trkpt>
      <trkpt lat="46.69943" lon="-2.36749">
        <ele>14.56</ele>
        <time>2018-04-04T08:26:45Z</time>
      </trkpt>
      <trkpt lat="46.69933" lon="-2.3674">
        <ele>15.04</ele>
        <time>2018-04-04T08:26:56Z</time>
      </trkpt>
      <trkpt lat="46.69925" lon="-2.36731">
        <ele>16.96</ele>
        <time>2018-04-04T08:27:07Z</time>
      </trkpt>
      <trkpt lat="46.69922" lon="-2.36726">
        <ele>16.96</ele>
        <time>2018-04-04T08:27:12Z</time>
      </trkpt>
      <trkpt lat="46.69918" lon="-2.36721">
        <ele>16.96</ele>
        <time>2018-04-04T08:27:17Z</time>
      </trkpt>
      <trkpt lat="46.69915" lon="-2.36713">
        <ele>18.4</ele>
        <time>2018-04-04T08:27:25Z</time>
      </trkpt>
      <trkpt lat="46.69915" lon="-2.36711">
        <ele>18.4</ele>
        <time>2018-04-04T08:27:29Z</time>
      </trkpt>
      <trkpt lat="46.69912" lon="-2.36696">
        <ele>18.4</ele>
        <time>2018-04-04T08:27:39Z</time>
      </trkpt>
      <trkpt lat="46.69909" lon="-2.3668">
        <ele>17.44</ele>
        <time>2018-04-04T08:27:49Z</time>
      </trkpt>
      <trkpt lat="46.69907" lon="-2.36667">
        <ele>18.4</ele>
        <time>2018-04-04T08:27:58Z</time>
      </trkpt>
      <trkpt lat="46.69907" lon="-2.36664">
        <ele>18.88</ele>
        <time>2018-04-04T08:28:09Z</time>
      </trkpt>
      <trkpt lat="46.69907" lon="-2.36664">
        <ele>18.88</ele>
        <time>2018-04-04T08:28:18Z</time>
      </trkpt>
      <trkpt lat="46.69905" lon="-2.36663">
        <ele>18.88</ele>
        <time>2018-04-04T08:28:21Z</time>
      </trkpt>
      <trkpt lat="46.69899" lon="-2.36661">
        <ele>19.36</ele>
        <time>2018-04-04T08:28:26Z</time>
      </trkpt>
      <trkpt lat="46.69881" lon="-2.36653">
        <ele>18.88</ele>
        <time>2018-04-04T08:28:39Z</time>
      </trkpt>
      <trkpt lat="46.69876" lon="-2.3665">
        <ele>18.4</ele>
        <time>2018-04-04T08:28:43Z</time>
      </trkpt>
      <trkpt lat="46.69862" lon="-2.3664">
        <ele>17.92</ele>
        <time>2018-04-04T08:28:56Z</time>
      </trkpt>
      <trkpt lat="46.69855" lon="-2.36629">
        <ele>18.88</ele>
        <time>2018-04-04T08:29:05Z</time>
      </trkpt>
      <trkpt lat="46.69847" lon="-2.36617">
        <ele>18.4</ele>
        <time>2018-04-04T08:29:14Z</time>
      </trkpt>
      <trkpt lat="46.69842" lon="-2.36609">
        <ele>17.92</ele>
        <time>2018-04-04T08:29:20Z</time>
      </trkpt>
      <trkpt lat="46.69832" lon="-2.36604">
        <ele>16.48</ele>
        <time>2018-04-04T08:29:28Z</time>
      </trkpt>
      <trkpt lat="46.69829" lon="-2.36603">
        <ele>16</ele>
        <time>2018-04-04T08:29:34Z</time>
      </trkpt>
      <trkpt lat="46.69816" lon="-2.36597">
        <ele>16.96</ele>
        <time>2018-04-04T08:29:45Z</time>
      </trkpt>
      <trkpt lat="46.69814" lon="-2.36594">
        <ele>17.92</ele>
        <time>2018-04-04T08:29:49Z</time>
      </trkpt>
      <trkpt lat="46.69805" lon="-2.36587">
        <ele>18.4</ele>
        <time>2018-04-04T08:29:57Z</time>
      </trkpt>
      <trkpt lat="46.69797" lon="-2.36572">
        <ele>18.88</ele>
        <time>2018-04-04T08:30:07Z</time>
      </trkpt>
      <trkpt lat="46.69788" lon="-2.36563">
        <ele>18.4</ele>
        <time>2018-04-04T08:30:16Z</time>
      </trkpt>
      <trkpt lat="46.6978" lon="-2.36554">
        <ele>18.4</ele>
        <time>2018-04-04T08:30:24Z</time>
      </trkpt>
      <trkpt lat="46.69773" lon="-2.36547">
        <ele>17.92</ele>
        <time>2018-04-04T08:30:33Z</time>
      </trkpt>
      <trkpt lat="46.69771" lon="-2.36544">
        <ele>18.4</ele>
        <time>2018-04-04T08:30:35Z</time>
      </trkpt>
      <trkpt lat="46.69766" lon="-2.36538">
        <ele>18.4</ele>
        <time>2018-04-04T08:30:40Z</time>
      </trkpt>
      <trkpt lat="46.69756" lon="-2.3653">
        <ele>18.4</ele>
        <time>2018-04-04T08:30:49Z</time>
      </trkpt>
      <trkpt lat="46.69747" lon="-2.36519">
        <ele>19.36</ele>
        <time>2018-04-04T08:30:58Z</time>
      </trkpt>
      <trkpt lat="46.69741" lon="-2.36507">
        <ele>19.84</ele>
        <time>2018-04-04T08:31:06Z</time>
      </trkpt>
      <trkpt lat="46.69735" lon="-2.36495">
        <ele>19.36</ele>
        <time>2018-04-04T08:31:15Z</time>
      </trkpt>
      <trkpt lat="46.69728" lon="-2.36484">
        <ele>19.36</ele>
        <time>2018-04-04T08:31:23Z</time>
      </trkpt>
      <trkpt lat="46.69721" lon="-2.36473">
        <ele>18.88</ele>
        <time>2018-04-04T08:31:32Z</time>
      </trkpt>
      <trkpt lat="46.69719" lon="-2.3647">
        <ele>18.88</ele>
        <time>2018-04-04T08:31:42Z</time>
      </trkpt>
      <trkpt lat="46.69719" lon="-2.3647">
        <ele>18.88</ele>
        <time>2018-04-04T08:32:06Z</time>
      </trkpt>
      <trkpt lat="46.69713" lon="-2.36461">
        <ele>19.36</ele>
        <time>2018-04-04T08:32:23Z</time>
      </trkpt>
      <trkpt lat="46.69706" lon="-2.36453">
        <ele>18.88</ele>
        <time>2018-04-04T08:32:31Z</time>
      </trkpt>
      <trkpt lat="46.69697" lon="-2.36444">
        <ele>18.4</ele>
        <time>2018-04-04T08:32:40Z</time>
      </trkpt>
      <trkpt lat="46.69689" lon="-2.36437">
        <ele>18.88</ele>
        <time>2018-04-04T08:32:49Z</time>
      </trkpt>
      <trkpt lat="46.69681" lon="-2.36432">
        <ele>18.88</ele>
        <time>2018-04-04T08:32:57Z</time>
      </trkpt>
      <trkpt lat="46.69674" lon="-2.36428">
        <ele>18.4</ele>
        <time>2018-04-04T08:33:03Z</time>
      </trkpt>
      <trkpt lat="46.6966" lon="-2.36423">
        <ele>17.92</ele>
        <time>2018-04-04T08:33:12Z</time>
      </trkpt>
      <trkpt lat="46.69659" lon="-2.36422">
        <ele>17.92</ele>
        <time>2018-04-04T08:33:14Z</time>
      </trkpt>
      <trkpt lat="46.69654" lon="-2.36417">
        <ele>18.4</ele>
        <time>2018-04-04T08:33:20Z</time>
      </trkpt>
      <trkpt lat="46.69645" lon="-2.36401">
        <ele>20.81</ele>
        <time>2018-04-04T08:33:31Z</time>
      </trkpt>
      <trkpt lat="46.69637" lon="-2.36386">
        <ele>20.81</ele>
        <time>2018-04-04T08:33:42Z</time>
      </trkpt>
      <trkpt lat="46.69629" lon="-2.36378">
        <ele>21.77</ele>
        <time>2018-04-04T08:33:49Z</time>
      </trkpt>
      <trkpt lat="46.69625" lon="-2.36369">
        <ele>22.73</ele>
        <time>2018-04-04T08:33:55Z</time>
      </trkpt>
      <trkpt lat="46.6962" lon="-2.36356">
        <ele>23.69</ele>
        <time>2018-04-04T08:34:04Z</time>
      </trkpt>
      <trkpt lat="46.69619" lon="-2.36354">
        <ele>23.69</ele>
        <time>2018-04-04T08:34:07Z</time>
      </trkpt>
      <trkpt lat="46.69616" lon="-2.3635">
        <ele>22.25</ele>
        <time>2018-04-04T08:34:12Z</time>
      </trkpt>
      <trkpt lat="46.6961" lon="-2.36335">
        <ele>21.77</ele>
        <time>2018-04-04T08:34:21Z</time>
      </trkpt>
      <trkpt lat="46.6961" lon="-2.36333">
        <ele>21.29</ele>
        <time>2018-04-04T08:34:23Z</time>
      </trkpt>
      <trkpt lat="46.69605" lon="-2.36317">
        <ele>21.77</ele>
        <time>2018-04-04T08:34:32Z</time>
      </trkpt>
      <trkpt lat="46.69599" lon="-2.36303">
        <ele>22.25</ele>
        <time>2018-04-04T08:34:41Z</time>
      </trkpt>
      <trkpt lat="46.69595" lon="-2.36287">
        <ele>19.84</ele>
        <time>2018-04-04T08:34:49Z</time>
      </trkpt>
      <trkpt lat="46.69594" lon="-2.36277">
        <ele>20.32</ele>
        <time>2018-04-04T08:34:55Z</time>
      </trkpt>
      <trkpt lat="46.69593" lon="-2.36274">
        <ele>20.32</ele>
        <time>2018-04-04T08:34:57Z</time>
      </trkpt>
      <trkpt lat="46.6959" lon="-2.36256">
        <ele>19.84</ele>
        <time>2018-04-04T08:35:07Z</time>
      </trkpt>
      <trkpt lat="46.6959" lon="-2.36253">
        <ele>19.84</ele>
        <time>2018-04-04T08:35:08Z</time>
      </trkpt>
      <trkpt lat="46.69587" lon="-2.36238">
        <ele>19.84</ele>
        <time>2018-04-04T08:35:17Z</time>
      </trkpt>
      <trkpt lat="46.69585" lon="-2.36225">
        <ele>20.32</ele>
        <time>2018-04-04T08:35:24Z</time>
      </trkpt>
      <trkpt lat="46.69583" lon="-2.36212">
        <ele>20.81</ele>
        <time>2018-04-04T08:35:32Z</time>
      </trkpt>
      <trkpt lat="46.69583" lon="-2.36211">
        <ele>20.81</ele>
        <time>2018-04-04T08:35:35Z</time>
      </trkpt>
      <trkpt lat="46.69583" lon="-2.36193">
        <ele>23.69</ele>
        <time>2018-04-04T08:35:44Z</time>
      </trkpt>
      <trkpt lat="46.69582" lon="-2.36173">
        <ele>25.13</ele>
        <time>2018-04-04T08:35:54Z</time>
      </trkpt>
      <trkpt lat="46.69583" lon="-2.36156">
        <ele>25.61</ele>
        <time>2018-04-04T08:36:05Z</time>
      </trkpt>
      <trkpt lat="46.69583" lon="-2.36156">
        <ele>25.13</ele>
        <time>2018-04-04T08:36:07Z</time>
      </trkpt>
      <trkpt lat="46.69583" lon="-2.36146">
        <ele>23.21</ele>
        <time>2018-04-04T08:36:15Z</time>
      </trkpt>
      <trkpt lat="46.69588" lon="-2.36128">
        <ele>23.69</ele>
        <time>2018-04-04T08:36:23Z</time>
      </trkpt>
      <trkpt lat="46.69595" lon="-2.36114">
        <ele>22.73</ele>
        <time>2018-04-04T08:36:34Z</time>
      </trkpt>
      <trkpt lat="46.696" lon="-2.36102">
        <ele>20.81</ele>
        <time>2018-04-04T08:36:42Z</time>
      </trkpt>
      <trkpt lat="46.69605" lon="-2.36099">
        <ele>19.84</ele>
        <time>2018-04-04T08:36:45Z</time>
      </trkpt>
      <trkpt lat="46.69607" lon="-2.36092">
        <ele>19.36</ele>
        <time>2018-04-04T08:36:51Z</time>
      </trkpt>
      <trkpt lat="46.69615" lon="-2.36082">
        <ele>20.81</ele>
        <time>2018-04-04T08:36:57Z</time>
      </trkpt>
      <trkpt lat="46.69626" lon="-2.36059">
        <ele>21.29</ele>
        <time>2018-04-04T08:37:12Z</time>
      </trkpt>
      <trkpt lat="46.69626" lon="-2.36048">
        <ele>21.29</ele>
        <time>2018-04-04T08:37:17Z</time>
      </trkpt>
      <trkpt lat="46.69626" lon="-2.36044">
        <ele>22.25</ele>
        <time>2018-04-04T08:37:27Z</time>
      </trkpt>
      <trkpt lat="46.69624" lon="-2.36035">
        <ele>21.77</ele>
        <time>2018-04-04T08:37:43Z</time>
      </trkpt>
      <trkpt lat="46.6962" lon="-2.36025">
        <ele>22.25</ele>
        <time>2018-04-04T08:37:50Z</time>
      </trkpt>
      <trkpt lat="46.69617" lon="-2.36011">
        <ele>23.21</ele>
        <time>2018-04-04T08:37:59Z</time>
      </trkpt>
      <trkpt lat="46.69617" lon="-2.35997">
        <ele>24.17</ele>
        <time>2018-04-04T08:38:04Z</time>
      </trkpt>
      <trkpt lat="46.69616" lon="-2.35991">
        <ele>24.65</ele>
        <time>2018-04-04T08:38:09Z</time>
      </trkpt>
      <trkpt lat="46.69619" lon="-2.3598">
        <ele>25.61</ele>
        <time>2018-04-04T08:38:14Z</time>
      </trkpt>
      <trkpt lat="46.69619" lon="-2.35975">
        <ele>26.57</ele>
        <time>2018-04-04T08:38:18Z</time>
      </trkpt>
      <trkpt lat="46.69622" lon="-2.35956">
        <ele>28.02</ele>
        <time>2018-04-04T08:38:28Z</time>
      </trkpt>
      <trkpt lat="46.69618" lon="-2.3594">
        <ele>27.05</ele>
        <time>2018-04-04T08:38:38Z</time>
      </trkpt>
      <trkpt lat="46.69615" lon="-2.35931">
        <ele>26.09</ele>
        <time>2018-04-04T08:38:43Z</time>
      </trkpt>
      <trkpt lat="46.69611" lon="-2.35932">
        <ele>26.09</ele>
        <time>2018-04-04T08:38:48Z</time>
      </trkpt>
      <trkpt lat="46.696" lon="-2.35933">
        <ele>25.13</ele>
        <time>2018-04-04T08:38:58Z</time>
      </trkpt>
      <trkpt lat="46.69595" lon="-2.35932">
        <ele>24.17</ele>
        <time>2018-04-04T08:39:03Z</time>
      </trkpt>
      <trkpt lat="46.6959" lon="-2.35925">
        <ele>23.69</ele>
        <time>2018-04-04T08:39:09Z</time>
      </trkpt>
      <trkpt lat="46.69588" lon="-2.35912">
        <ele>20.81</ele>
        <time>2018-04-04T08:39:19Z</time>
      </trkpt>
      <trkpt lat="46.69588" lon="-2.35905">
        <ele>19.84</ele>
        <time>2018-04-04T08:39:23Z</time>
      </trkpt>
      <trkpt lat="46.6959" lon="-2.35889">
        <ele>17.92</ele>
        <time>2018-04-04T08:39:33Z</time>
      </trkpt>
      <trkpt lat="46.69595" lon="-2.35881">
        <ele>17.44</ele>
        <time>2018-04-04T08:39:39Z</time>
      </trkpt>
      <trkpt lat="46.69596" lon="-2.3588">
        <ele>17.92</ele>
        <time>2018-04-04T08:39:41Z</time>
      </trkpt>
      <trkpt lat="46.69608" lon="-2.35873">
        <ele>18.88</ele>
        <time>2018-04-04T08:39:51Z</time>
      </trkpt>
      <trkpt lat="46.69613" lon="-2.35871">
        <ele>19.84</ele>
        <time>2018-04-04T08:40:01Z</time>
      </trkpt>
      <trkpt lat="46.69613" lon="-2.35871">
        <ele>19.84</ele>
        <time>2018-04-04T08:40:03Z</time>
      </trkpt>
      <trkpt lat="46.69617" lon="-2.35865">
        <ele>20.32</ele>
        <time>2018-04-04T08:40:08Z</time>
      </trkpt>
      <trkpt lat="46.69622" lon="-2.35849">
        <ele>20.32</ele>
        <time>2018-04-04T08:40:18Z</time>
      </trkpt>
      <trkpt lat="46.69624" lon="-2.35841">
        <ele>19.84</ele>
        <time>2018-04-04T08:40:23Z</time>
      </trkpt>
      <trkpt lat="46.69625" lon="-2.35841">
        <ele>18.88</ele>
        <time>2018-04-04T08:40:28Z</time>
      </trkpt>
      <trkpt lat="46.69627" lon="-2.35833">
        <ele>17.92</ele>
        <time>2018-04-04T08:40:36Z</time>
      </trkpt>
      <trkpt lat="46.6963" lon="-2.35832">
        <ele>17.44</ele>
        <time>2018-04-04T08:40:39Z</time>
      </trkpt>
      <trkpt lat="46.69634" lon="-2.35818">
        <ele>17.44</ele>
        <time>2018-04-04T08:40:47Z</time>
      </trkpt>
      <trkpt lat="46.69641" lon="-2.35802">
        <ele>17.92</ele>
        <time>2018-04-04T08:40:57Z</time>
      </trkpt>
      <trkpt lat="46.69653" lon="-2.35786">
        <ele>18.88</ele>
        <time>2018-04-04T08:41:10Z</time>
      </trkpt>
      <trkpt lat="46.69655" lon="-2.35783">
        <ele>18.88</ele>
        <time>2018-04-04T08:41:12Z</time>
      </trkpt>
      <trkpt lat="46.69662" lon="-2.35777">
        <ele>18.88</ele>
        <time>2018-04-04T08:41:19Z</time>
      </trkpt>
      <trkpt lat="46.69669" lon="-2.35766">
        <ele>19.36</ele>
        <time>2018-04-04T08:41:32Z</time>
      </trkpt>
      <trkpt lat="46.69674" lon="-2.35755">
        <ele>16.96</ele>
        <time>2018-04-04T08:41:41Z</time>
      </trkpt>
      <trkpt lat="46.69677" lon="-2.35751">
        <ele>16.96</ele>
        <time>2018-04-04T08:41:44Z</time>
      </trkpt>
      <trkpt lat="46.6968" lon="-2.35748">
        <ele>16.96</ele>
        <time>2018-04-04T08:41:47Z</time>
      </trkpt>
      <trkpt lat="46.69698" lon="-2.35736">
        <ele>19.36</ele>
        <time>2018-04-04T08:42:00Z</time>
      </trkpt>
      <trkpt lat="46.69705" lon="-2.3573">
        <ele>20.81</ele>
        <time>2018-04-04T08:42:07Z</time>
      </trkpt>
      <trkpt lat="46.69712" lon="-2.35726">
        <ele>20.81</ele>
        <time>2018-04-04T08:42:12Z</time>
      </trkpt>
      <trkpt lat="46.69728" lon="-2.35709">
        <ele>20.81</ele>
        <time>2018-04-04T08:42:26Z</time>
      </trkpt>
      <trkpt lat="46.69729" lon="-2.35705">
        <ele>20.32</ele>
        <time>2018-04-04T08:42:31Z</time>
      </trkpt>
      <trkpt lat="46.6973" lon="-2.35687">
        <ele>19.84</ele>
        <time>2018-04-04T08:42:40Z</time>
      </trkpt>
      <trkpt lat="46.69721" lon="-2.3567">
        <ele>20.32</ele>
        <time>2018-04-04T08:42:51Z</time>
      </trkpt>
      <trkpt lat="46.69714" lon="-2.35657">
        <ele>21.29</ele>
        <time>2018-04-04T08:43:01Z</time>
      </trkpt>
      <trkpt lat="46.69707" lon="-2.35643">
        <ele>21.29</ele>
        <time>2018-04-04T08:43:11Z</time>
      </trkpt>
      <trkpt lat="46.69695" lon="-2.35637">
        <ele>22.25</ele>
        <time>2018-04-04T08:43:21Z</time>
      </trkpt>
      <trkpt lat="46.69691" lon="-2.35635">
        <ele>21.77</ele>
        <time>2018-04-04T08:43:31Z</time>
      </trkpt>
      <trkpt lat="46.69691" lon="-2.35633">
        <ele>22.25</ele>
        <time>2018-04-04T08:43:41Z</time>
      </trkpt>
      <trkpt lat="46.69692" lon="-2.35631">
        <ele>22.73</ele>
        <time>2018-04-04T08:43:43Z</time>
      </trkpt>
      <trkpt lat="46.69697" lon="-2.3562">
        <ele>24.17</ele>
        <time>2018-04-04T08:43:50Z</time>
      </trkpt>
      <trkpt lat="46.69691" lon="-2.35606">
        <ele>24.65</ele>
        <time>2018-04-04T08:44:00Z</time>
      </trkpt>
      <trkpt lat="46.69684" lon="-2.35595">
        <ele>25.13</ele>
        <time>2018-04-04T08:44:10Z</time>
      </trkpt>
      <trkpt lat="46.6968" lon="-2.35587">
        <ele>25.61</ele>
        <time>2018-04-04T08:44:16Z</time>
      </trkpt>
      <trkpt lat="46.69676" lon="-2.35576">
        <ele>24.65</ele>
        <time>2018-04-04T08:44:23Z</time>
      </trkpt>
      <trkpt lat="46.69669" lon="-2.35559">
        <ele>25.13</ele>
        <time>2018-04-04T08:44:33Z</time>
      </trkpt>
      <trkpt lat="46.69668" lon="-2.35557">
        <ele>25.13</ele>
        <time>2018-04-04T08:44:36Z</time>
      </trkpt>
      <trkpt lat="46.69664" lon="-2.35541">
        <ele>26.09</ele>
        <time>2018-04-04T08:44:45Z</time>
      </trkpt>
      <trkpt lat="46.69662" lon="-2.35535">
        <ele>27.05</ele>
        <time>2018-04-04T08:44:47Z</time>
      </trkpt>
      <trkpt lat="46.69657" lon="-2.3552">
        <ele>27.05</ele>
        <time>2018-04-04T08:44:57Z</time>
      </trkpt>
      <trkpt lat="46.69653" lon="-2.35509">
        <ele>27.53</ele>
        <time>2018-04-04T08:45:02Z</time>
      </trkpt>
      <trkpt lat="46.69651" lon="-2.35506">
        <ele>28.02</ele>
        <time>2018-04-04T08:45:06Z</time>
      </trkpt>
      <trkpt lat="46.69646" lon="-2.3549">
        <ele>28.5</ele>
        <time>2018-04-04T08:45:16Z</time>
      </trkpt>
      <trkpt lat="46.69639" lon="-2.35482">
        <ele>28.5</ele>
        <time>2018-04-04T08:45:25Z</time>
      </trkpt>
      <trkpt lat="46.69628" lon="-2.35476">
        <ele>27.53</ele>
        <time>2018-04-04T08:45:36Z</time>
      </trkpt>
      <trkpt lat="46.69613" lon="-2.35467">
        <ele>24.65</ele>
        <time>2018-04-04T08:45:49Z</time>
      </trkpt>
      <trkpt lat="46.69613" lon="-2.35467">
        <ele>24.65</ele>
        <time>2018-04-04T08:45:50Z</time>
      </trkpt>
      <trkpt lat="46.69607" lon="-2.35457">
        <ele>24.17</ele>
        <time>2018-04-04T08:45:58Z</time>
      </trkpt>
      <trkpt lat="46.69593" lon="-2.35448">
        <ele>21.77</ele>
        <time>2018-04-04T08:46:10Z</time>
      </trkpt>
      <trkpt lat="46.69589" lon="-2.35446">
        <ele>20.32</ele>
        <time>2018-04-04T08:46:14Z</time>
      </trkpt>
      <trkpt lat="46.69579" lon="-2.35432">
        <ele>21.77</ele>
        <time>2018-04-04T08:46:25Z</time>
      </trkpt>
      <trkpt lat="46.69571" lon="-2.35422">
        <ele>21.77</ele>
        <time>2018-04-04T08:46:33Z</time>
      </trkpt>
      <trkpt lat="46.69563" lon="-2.3541">
        <ele>22.25</ele>
        <time>2018-04-04T08:46:43Z</time>
      </trkpt>
      <trkpt lat="46.69559" lon="-2.35405">
        <ele>22.73</ele>
        <time>2018-04-04T08:46:53Z</time>
      </trkpt>
      <trkpt lat="46.69559" lon="-2.35404">
        <ele>23.21</ele>
        <time>2018-04-04T08:47:01Z</time>
      </trkpt>
      <trkpt lat="46.69554" lon="-2.35396">
        <ele>24.17</ele>
        <time>2018-04-04T08:47:07Z</time>
      </trkpt>
      <trkpt lat="46.69549" lon="-2.35389">
        <ele>24.65</ele>
        <time>2018-04-04T08:47:12Z</time>
      </trkpt>
      <trkpt lat="46.69536" lon="-2.3537">
        <ele>23.69</ele>
        <time>2018-04-04T08:47:26Z</time>
      </trkpt>
      <trkpt lat="46.69536" lon="-2.35369">
        <ele>23.21</ele>
        <time>2018-04-04T08:47:27Z</time>
      </trkpt>
      <trkpt lat="46.69525" lon="-2.35357">
        <ele>22.73</ele>
        <time>2018-04-04T08:47:39Z</time>
      </trkpt>
      <trkpt lat="46.69517" lon="-2.35344">
        <ele>23.69</ele>
        <time>2018-04-04T08:47:48Z</time>
      </trkpt>
      <trkpt lat="46.69508" lon="-2.35334">
        <ele>23.69</ele>
        <time>2018-04-04T08:47:56Z</time>
      </trkpt>
      <trkpt lat="46.69502" lon="-2.35325">
        <ele>24.17</ele>
        <time>2018-04-04T08:48:04Z</time>
      </trkpt>
      <trkpt lat="46.69495" lon="-2.35316">
        <ele>23.69</ele>
        <time>2018-04-04T08:48:12Z</time>
      </trkpt>
      <trkpt lat="46.69494" lon="-2.35313">
        <ele>23.69</ele>
        <time>2018-04-04T08:48:17Z</time>
      </trkpt>
      <trkpt lat="46.69484" lon="-2.35307">
        <ele>24.65</ele>
        <time>2018-04-04T08:48:26Z</time>
      </trkpt>
      <trkpt lat="46.69476" lon="-2.353">
        <ele>25.13</ele>
        <time>2018-04-04T08:48:33Z</time>
      </trkpt>
      <trkpt lat="46.69474" lon="-2.35299">
        <ele>25.13</ele>
        <time>2018-04-04T08:48:37Z</time>
      </trkpt>
      <trkpt lat="46.69466" lon="-2.3529">
        <ele>26.09</ele>
        <time>2018-04-04T08:48:45Z</time>
      </trkpt>
      <trkpt lat="46.69455" lon="-2.35282">
        <ele>25.61</ele>
        <time>2018-04-04T08:48:54Z</time>
      </trkpt>
      <trkpt lat="46.69445" lon="-2.3527">
        <ele>24.65</ele>
        <time>2018-04-04T08:49:06Z</time>
      </trkpt>
      <trkpt lat="46.69438" lon="-2.3526">
        <ele>24.65</ele>
        <time>2018-04-04T08:49:14Z</time>
      </trkpt>
      <trkpt lat="46.6943" lon="-2.35249">
        <ele>24.17</ele>
        <time>2018-04-04T08:49:22Z</time>
      </trkpt>
      <trkpt lat="46.69422" lon="-2.35242">
        <ele>23.69</ele>
        <time>2018-04-04T08:49:29Z</time>
      </trkpt>
      <trkpt lat="46.69416" lon="-2.35234">
        <ele>23.69</ele>
        <time>2018-04-04T08:49:36Z</time>
      </trkpt>
      <trkpt lat="46.69409" lon="-2.35228">
        <ele>22.25</ele>
        <time>2018-04-04T08:49:45Z</time>
      </trkpt>
      <trkpt lat="46.69404" lon="-2.35223">
        <ele>22.73</ele>
        <time>2018-04-04T08:49:50Z</time>
      </trkpt>
      <trkpt lat="46.69402" lon="-2.35223">
        <ele>22.25</ele>
        <time>2018-04-04T08:49:53Z</time>
      </trkpt>
      <trkpt lat="46.69392" lon="-2.35212">
        <ele>21.77</ele>
        <time>2018-04-04T08:50:02Z</time>
      </trkpt>
      <trkpt lat="46.69391" lon="-2.35211">
        <ele>21.29</ele>
        <time>2018-04-04T08:50:05Z</time>
      </trkpt>
      <trkpt lat="46.69381" lon="-2.35197">
        <ele>21.29</ele>
        <time>2018-04-04T08:50:15Z</time>
      </trkpt>
      <trkpt lat="46.6938" lon="-2.35196">
        <ele>21.29</ele>
        <time>2018-04-04T08:50:17Z</time>
      </trkpt>
      <trkpt lat="46.69374" lon="-2.35185">
        <ele>21.29</ele>
        <time>2018-04-04T08:50:24Z</time>
      </trkpt>
      <trkpt lat="46.69369" lon="-2.3517">
        <ele>21.77</ele>
        <time>2018-04-04T08:50:34Z</time>
      </trkpt>
      <trkpt lat="46.69363" lon="-2.35159">
        <ele>23.21</ele>
        <time>2018-04-04T08:50:43Z</time>
      </trkpt>
      <trkpt lat="46.69357" lon="-2.35143">
        <ele>22.73</ele>
        <time>2018-04-04T08:50:54Z</time>
      </trkpt>
      <trkpt lat="46.69352" lon="-2.35135">
        <ele>23.69</ele>
        <time>2018-04-04T08:51:02Z</time>
      </trkpt>
      <trkpt lat="46.69344" lon="-2.35119">
        <ele>24.17</ele>
        <time>2018-04-04T08:51:11Z</time>
      </trkpt>
      <trkpt lat="46.6934" lon="-2.35107">
        <ele>24.65</ele>
        <time>2018-04-04T08:51:20Z</time>
      </trkpt>
      <trkpt lat="46.6934" lon="-2.35105">
        <ele>24.65</ele>
        <time>2018-04-04T08:51:21Z</time>
      </trkpt>
      <trkpt lat="46.69336" lon="-2.35093">
        <ele>24.65</ele>
        <time>2018-04-04T08:51:28Z</time>
      </trkpt>
      <trkpt lat="46.69333" lon="-2.35087">
        <ele>24.17</ele>
        <time>2018-04-04T08:51:32Z</time>
      </trkpt>
      <trkpt lat="46.6933" lon="-2.35077">
        <ele>24.17</ele>
        <time>2018-04-04T08:51:37Z</time>
      </trkpt>
      <trkpt lat="46.69327" lon="-2.35068">
        <ele>23.69</ele>
        <time>2018-04-04T08:51:47Z</time>
      </trkpt>
      <trkpt lat="46.69322" lon="-2.35054">
        <ele>23.69</ele>
        <time>2018-04-04T08:51:55Z</time>
      </trkpt>
      <trkpt lat="46.69318" lon="-2.35042">
        <ele>23.21</ele>
        <time>2018-04-04T08:52:04Z</time>
      </trkpt>
      <trkpt lat="46.69316" lon="-2.35034">
        <ele>23.21</ele>
        <time>2018-04-04T08:52:09Z</time>
      </trkpt>
      <trkpt lat="46.69313" lon="-2.35025">
        <ele>21.77</ele>
        <time>2018-04-04T08:52:13Z</time>
      </trkpt>
      <trkpt lat="46.69312" lon="-2.35022">
        <ele>22.25</ele>
        <time>2018-04-04T08:52:16Z</time>
      </trkpt>
      <trkpt lat="46.69307" lon="-2.35011">
        <ele>20.81</ele>
        <time>2018-04-04T08:52:24Z</time>
      </trkpt>
      <trkpt lat="46.69305" lon="-2.35008">
        <ele>20.81</ele>
        <time>2018-04-04T08:52:26Z</time>
      </trkpt>
      <trkpt lat="46.69303" lon="-2.35">
        <ele>20.81</ele>
        <time>2018-04-04T08:52:31Z</time>
      </trkpt>
      <trkpt lat="46.69299" lon="-2.3499">
        <ele>20.81</ele>
        <time>2018-04-04T08:52:38Z</time>
      </trkpt>
      <trkpt lat="46.69294" lon="-2.34976">
        <ele>20.81</ele>
        <time>2018-04-04T08:52:47Z</time>
      </trkpt>
      <trkpt lat="46.69288" lon="-2.34962">
        <ele>20.32</ele>
        <time>2018-04-04T08:52:56Z</time>
      </trkpt>
      <trkpt lat="46.69282" lon="-2.3495">
        <ele>19.84</ele>
        <time>2018-04-04T08:53:04Z</time>
      </trkpt>
      <trkpt lat="46.69281" lon="-2.34948">
        <ele>19.36</ele>
        <time>2018-04-04T08:53:07Z</time>
      </trkpt>
      <trkpt lat="46.69279" lon="-2.34931">
        <ele>18.4</ele>
        <time>2018-04-04T08:53:16Z</time>
      </trkpt>
      <trkpt lat="46.69277" lon="-2.34914">
        <ele>17.44</ele>
        <time>2018-04-04T08:53:25Z</time>
      </trkpt>
      <trkpt lat="46.69276" lon="-2.34896">
        <ele>17.44</ele>
        <time>2018-04-04T08:53:34Z</time>
      </trkpt>
      <trkpt lat="46.69273" lon="-2.34885">
        <ele>17.44</ele>
        <time>2018-04-04T08:53:42Z</time>
      </trkpt>
      <trkpt lat="46.69269" lon="-2.34873">
        <ele>17.44</ele>
        <time>2018-04-04T08:53:50Z</time>
      </trkpt>
      <trkpt lat="46.69266" lon="-2.3486">
        <ele>16.96</ele>
        <time>2018-04-04T08:53:59Z</time>
      </trkpt>
      <trkpt lat="46.69266" lon="-2.34848">
        <ele>15.52</ele>
        <time>2018-04-04T08:54:07Z</time>
      </trkpt>
      <trkpt lat="46.69266" lon="-2.34844">
        <ele>15.52</ele>
        <time>2018-04-04T08:54:19Z</time>
      </trkpt>
      <trkpt lat="46.69275" lon="-2.34834">
        <ele>16.48</ele>
        <time>2018-04-04T08:54:32Z</time>
      </trkpt>
      <trkpt lat="46.69277" lon="-2.34834">
        <ele>16.48</ele>
        <time>2018-04-04T08:54:34Z</time>
      </trkpt>
      <trkpt lat="46.69286" lon="-2.34834">
        <ele>16</ele>
        <time>2018-04-04T08:54:44Z</time>
      </trkpt>
      <trkpt lat="46.6929" lon="-2.34835">
        <ele>15.52</ele>
        <time>2018-04-04T08:54:53Z</time>
      </trkpt>
      <trkpt lat="46.6929" lon="-2.34836">
        <ele>16</ele>
        <time>2018-04-04T08:55:09Z</time>
      </trkpt>
      <trkpt lat="46.69289" lon="-2.34836">
        <ele>15.04</ele>
        <time>2018-04-04T08:55:20Z</time>
      </trkpt>
      <trkpt lat="46.6929" lon="-2.34837">
        <ele>14.56</ele>
        <time>2018-04-04T08:55:31Z</time>
      </trkpt>
      <trkpt lat="46.6929" lon="-2.34835">
        <ele>15.04</ele>
        <time>2018-04-04T08:55:40Z</time>
      </trkpt>
      <trkpt lat="46.69291" lon="-2.34836">
        <ele>16</ele>
        <time>2018-04-04T08:55:51Z</time>
      </trkpt>
      <trkpt lat="46.69292" lon="-2.34836">
        <ele>15.52</ele>
        <time>2018-04-04T08:55:55Z</time>
      </trkpt>
      <trkpt lat="46.69299" lon="-2.3484">
        <ele>14.56</ele>
        <time>2018-04-04T08:56:05Z</time>
      </trkpt>
      <trkpt lat="46.69313" lon="-2.34844">
        <ele>15.52</ele>
        <time>2018-04-04T08:56:14Z</time>
      </trkpt>
      <trkpt lat="46.69313" lon="-2.34841">
        <ele>15.52</ele>
        <time>2018-04-04T08:56:17Z</time>
      </trkpt>
      <trkpt lat="46.69321" lon="-2.34824">
        <ele>15.52</ele>
        <time>2018-04-04T08:56:27Z</time>
      </trkpt>
      <trkpt lat="46.69325" lon="-2.34812">
        <ele>16</ele>
        <time>2018-04-04T08:56:35Z</time>
      </trkpt>
      <trkpt lat="46.69333" lon="-2.34799">
        <ele>16</ele>
        <time>2018-04-04T08:56:45Z</time>
      </trkpt>
      <trkpt lat="46.69339" lon="-2.34788">
        <ele>16</ele>
        <time>2018-04-04T08:56:52Z</time>
      </trkpt>
      <trkpt lat="46.69356" lon="-2.34795">
        <ele>16</ele>
        <time>2018-04-04T08:57:04Z</time>
      </trkpt>
      <trkpt lat="46.69356" lon="-2.34793">
        <ele>16</ele>
        <time>2018-04-04T08:57:07Z</time>
      </trkpt>
      <trkpt lat="46.69363" lon="-2.34793">
        <ele>15.52</ele>
        <time>2018-04-04T08:57:11Z</time>
      </trkpt>
      <trkpt lat="46.69376" lon="-2.34792">
        <ele>15.52</ele>
        <time>2018-04-04T08:57:21Z</time>
      </trkpt>
      <trkpt lat="46.69385" lon="-2.34789">
        <ele>14.08</ele>
        <time>2018-04-04T08:57:31Z</time>
      </trkpt>
      <trkpt lat="46.69385" lon="-2.34786">
        <ele>13.6</ele>
        <time>2018-04-04T08:57:34Z</time>
      </trkpt>
      <trkpt lat="46.69404" lon="-2.34786">
        <ele>13.12</ele>
        <time>2018-04-04T08:57:44Z</time>
      </trkpt>
      <trkpt lat="46.69405" lon="-2.34785">
        <ele>13.12</ele>
        <time>2018-04-04T08:57:47Z</time>
      </trkpt>
      <trkpt lat="46.69409" lon="-2.34774">
        <ele>12.63</ele>
        <time>2018-04-04T08:57:51Z</time>
      </trkpt>
      <trkpt lat="46.6941" lon="-2.34769">
        <ele>13.12</ele>
        <time>2018-04-04T08:57:55Z</time>
      </trkpt>
      <trkpt lat="46.69411" lon="-2.34748">
        <ele>12.15</ele>
        <time>2018-04-04T08:58:05Z</time>
      </trkpt>
      <trkpt lat="46.69411" lon="-2.34748">
        <ele>12.63</ele>
        <time>2018-04-04T08:58:07Z</time>
      </trkpt>
      <trkpt lat="46.6942" lon="-2.34731">
        <ele>14.56</ele>
        <time>2018-04-04T08:58:18Z</time>
      </trkpt>
      <trkpt lat="46.69422" lon="-2.34728">
        <ele>14.56</ele>
        <time>2018-04-04T08:58:22Z</time>
      </trkpt>
      <trkpt lat="46.69432" lon="-2.34723">
        <ele>14.08</ele>
        <time>2018-04-04T08:58:30Z</time>
      </trkpt>
      <trkpt lat="46.69442" lon="-2.34714">
        <ele>14.56</ele>
        <time>2018-04-04T08:58:39Z</time>
      </trkpt>
      <trkpt lat="46.69458" lon="-2.34709">
        <ele>15.52</ele>
        <time>2018-04-04T08:58:51Z</time>
      </trkpt>
      <trkpt lat="46.69463" lon="-2.34708">
        <ele>15.52</ele>
        <time>2018-04-04T08:58:53Z</time>
      </trkpt>
      <trkpt lat="46.69465" lon="-2.34707">
        <ele>15.52</ele>
        <time>2018-04-04T08:58:56Z</time>
      </trkpt>
      <trkpt lat="46.69467" lon="-2.34705">
        <ele>14.08</ele>
        <time>2018-04-04T08:59:00Z</time>
      </trkpt>
      <trkpt lat="46.69475" lon="-2.34703">
        <ele>12.15</ele>
        <time>2018-04-04T08:59:05Z</time>
      </trkpt>
      <trkpt lat="46.69477" lon="-2.347">
        <ele>10.23</ele>
        <time>2018-04-04T08:59:10Z</time>
      </trkpt>
      <trkpt lat="46.69482" lon="-2.347">
        <ele>9.75</ele>
        <time>2018-04-04T08:59:13Z</time>
      </trkpt>
      <trkpt lat="46.69493" lon="-2.34693">
        <ele>10.23</ele>
        <time>2018-04-04T08:59:22Z</time>
      </trkpt>
      <trkpt lat="46.69505" lon="-2.34692">
        <ele>11.19</ele>
        <time>2018-04-04T08:59:31Z</time>
      </trkpt>
      <trkpt lat="46.6951" lon="-2.34696">
        <ele>11.19</ele>
        <time>2018-04-04T08:59:34Z</time>
      </trkpt>
      <trkpt lat="46.69516" lon="-2.34697">
        <ele>11.19</ele>
        <time>2018-04-04T08:59:44Z</time>
      </trkpt>
      <trkpt lat="46.69516" lon="-2.34699">
        <ele>10.23</ele>
        <time>2018-04-04T08:59:59Z</time>
      </trkpt>
      <trkpt lat="46.69522" lon="-2.34698">
        <ele>10.23</ele>
        <time>2018-04-04T09:00:14Z</time>
      </trkpt>
      <trkpt lat="46.69532" lon="-2.34697">
        <ele>11.67</ele>
        <time>2018-04-04T09:00:25Z</time>
      </trkpt>
      <trkpt lat="46.69532" lon="-2.34697">
        <ele>12.15</ele>
        <time>2018-04-04T09:00:29Z</time>
      </trkpt>
      <trkpt lat="46.69531" lon="-2.34696">
        <ele>12.63</ele>
        <time>2018-04-04T09:00:31Z</time>
      </trkpt>
      <trkpt lat="46.6953" lon="-2.34693">
        <ele>12.15</ele>
        <time>2018-04-04T09:00:41Z</time>
      </trkpt>
      <trkpt lat="46.6953" lon="-2.34692">
        <ele>11.67</ele>
        <time>2018-04-04T09:00:59Z</time>
      </trkpt>
      <trkpt lat="46.6953" lon="-2.34696">
        <ele>13.12</ele>
        <time>2018-04-04T09:01:10Z</time>
      </trkpt>
      <trkpt lat="46.6953" lon="-2.34697">
        <ele>13.6</ele>
        <time>2018-04-04T09:01:11Z</time>
      </trkpt>
      <trkpt lat="46.6954" lon="-2.347">
        <ele>14.56</ele>
        <time>2018-04-04T09:01:21Z</time>
      </trkpt>
      <trkpt lat="46.69544" lon="-2.34694">
        <ele>13.6</ele>
        <time>2018-04-04T09:01:26Z</time>
      </trkpt>
      <trkpt lat="46.69549" lon="-2.34674">
        <ele>12.63</ele>
        <time>2018-04-04T09:01:35Z</time>
      </trkpt>
      <trkpt lat="46.6955" lon="-2.34665">
        <ele>15.52</ele>
        <time>2018-04-04T09:01:43Z</time>
      </trkpt>
      <trkpt lat="46.69554" lon="-2.3466">
        <ele>15.52</ele>
        <time>2018-04-04T09:01:48Z</time>
      </trkpt>
      <trkpt lat="46.69555" lon="-2.34642">
        <ele>8.79</ele>
        <time>2018-04-04T09:01:56Z</time>
      </trkpt>
      <trkpt lat="46.69555" lon="-2.34642">
        <ele>8.79</ele>
        <time>2018-04-04T09:01:57Z</time>
      </trkpt>
      <trkpt lat="46.69557" lon="-2.34634">
        <ele>4.94</ele>
        <time>2018-04-04T09:02:02Z</time>
      </trkpt>
      <trkpt lat="46.69556" lon="-2.34628">
        <ele>3.5</ele>
        <time>2018-04-04T09:02:06Z</time>
      </trkpt>
      <trkpt lat="46.6956" lon="-2.34621">
        <ele>1.1</ele>
        <time>2018-04-04T09:02:14Z</time>
      </trkpt>
      <trkpt lat="46.69563" lon="-2.34618">
        <ele>-1.3</ele>
        <time>2018-04-04T09:02:17Z</time>
      </trkpt>
      <trkpt lat="46.69567" lon="-2.34609">
        <ele>-5.63</ele>
        <time>2018-04-04T09:02:22Z</time>
      </trkpt>
      <trkpt lat="46.69567" lon="-2.34605">
        <ele>-8.03</ele>
        <time>2018-04-04T09:02:25Z</time>
      </trkpt>
      <trkpt lat="46.69567" lon="-2.34599">
        <ele>-10.44</ele>
        <time>2018-04-04T09:02:34Z</time>
      </trkpt>
      <trkpt lat="46.69569" lon="-2.34596">
        <ele>-9.96</ele>
        <time>2018-04-04T09:02:42Z</time>
      </trkpt>
      <trkpt lat="46.69565" lon="-2.34589">
        <ele>-9.48</ele>
        <time>2018-04-04T09:02:48Z</time>
      </trkpt>
      <trkpt lat="46.69556" lon="-2.34586">
        <ele>-11.4</ele>
        <time>2018-04-04T09:02:58Z</time>
      </trkpt>
      <trkpt lat="46.69554" lon="-2.34585">
        <ele>-11.88</ele>
        <time>2018-04-04T09:03:00Z</time>
      </trkpt>
      <trkpt lat="46.6955" lon="-2.34585">
        <ele>-12.84</ele>
        <time>2018-04-04T09:03:04Z</time>
      </trkpt>
      <trkpt lat="46.69542" lon="-2.34581">
        <ele>-11.4</ele>
        <time>2018-04-04T09:03:09Z</time>
      </trkpt>
      <trkpt lat="46.69536" lon="-2.34588">
        <ele>-11.4</ele>
        <time>2018-04-04T09:03:18Z</time>
      </trkpt>
      <trkpt lat="46.69535" lon="-2.34588">
        <ele>-10.92</ele>
        <time>2018-04-04T09:03:19Z</time>
      </trkpt>
      <trkpt lat="46.6953" lon="-2.3459">
        <ele>-11.4</ele>
        <time>2018-04-04T09:03:30Z</time>
      </trkpt>
      <trkpt lat="46.69529" lon="-2.34591">
        <ele>-10.92</ele>
        <time>2018-04-04T09:03:35Z</time>
      </trkpt>
      <trkpt lat="46.69532" lon="-2.34587">
        <ele>-11.88</ele>
        <time>2018-04-04T09:03:38Z</time>
      </trkpt>
      <trkpt lat="46.69534" lon="-2.34583">
        <ele>-11.88</ele>
        <time>2018-04-04T09:03:45Z</time>
      </trkpt>
      <trkpt lat="46.69536" lon="-2.3458">
        <ele>-12.36</ele>
        <time>2018-04-04T09:03:48Z</time>
      </trkpt>
      <trkpt lat="46.6954" lon="-2.34576">
        <ele>-10.44</ele>
        <time>2018-04-04T09:03:57Z</time>
      </trkpt>
      <trkpt lat="46.69542" lon="-2.34575">
        <ele>-4.19</ele>
        <time>2018-04-04T09:04:05Z</time>
      </trkpt>
      <trkpt lat="46.69542" lon="-2.34576">
        <ele>-4.19</ele>
        <time>2018-04-04T09:04:09Z</time>
      </trkpt>
      <trkpt lat="46.69543" lon="-2.34577">
        <ele>-2.75</ele>
        <time>2018-04-04T09:04:15Z</time>
      </trkpt>
      <trkpt lat="46.69544" lon="-2.34578">
        <ele>-1.79</ele>
        <time>2018-04-04T09:04:26Z</time>
      </trkpt>
      <trkpt lat="46.69544" lon="-2.34577">
        <ele>-1.3</ele>
        <time>2018-04-04T09:04:36Z</time>
      </trkpt>
      <trkpt lat="46.69545" lon="-2.34575">
        <ele>-0.82</ele>
        <time>2018-04-04T09:04:41Z</time>
      </trkpt>
      <trkpt lat="46.69552" lon="-2.34571">
        <ele>-0.82</ele>
        <time>2018-04-04T09:04:51Z</time>
      </trkpt>
      <trkpt lat="46.69553" lon="-2.34571">
        <ele>-0.34</ele>
        <time>2018-04-04T09:04:53Z</time>
      </trkpt>
      <trkpt lat="46.69556" lon="-2.34565">
        <ele>0.14</ele>
        <time>2018-04-04T09:05:03Z</time>
      </trkpt>
      <trkpt lat="46.69555" lon="-2.34566">
        <ele>0.14</ele>
        <time>2018-04-04T09:05:04Z</time>
      </trkpt>
      <trkpt lat="46.69551" lon="-2.34568">
        <ele>0.14</ele>
        <time>2018-04-04T09:05:10Z</time>
      </trkpt>
      <trkpt lat="46.69547" lon="-2.34574">
        <ele>0.14</ele>
        <time>2018-04-04T09:05:22Z</time>
      </trkpt>
      <trkpt lat="46.69539" lon="-2.34573">
        <ele>0.62</ele>
        <time>2018-04-04T09:05:33Z</time>
      </trkpt>
      <trkpt lat="46.69536" lon="-2.34573">
        <ele>1.58</ele>
        <time>2018-04-04T09:05:38Z</time>
      </trkpt>
      <trkpt lat="46.69533" lon="-2.34574">
        <ele>3.5</ele>
        <time>2018-04-04T09:05:49Z</time>
      </trkpt>
      <trkpt lat="46.69531" lon="-2.34576">
        <ele>6.39</ele>
        <time>2018-04-04T09:05:58Z</time>
      </trkpt>
      <trkpt lat="46.69532" lon="-2.34574">
        <ele>6.87</ele>
        <time>2018-04-04T09:06:09Z</time>
      </trkpt>
      <trkpt lat="46.69532" lon="-2.34575">
        <ele>6.87</ele>
        <time>2018-04-04T09:06:11Z</time>
      </trkpt>
      <trkpt lat="46.69535" lon="-2.34576">
        <ele>7.35</ele>
        <time>2018-04-04T09:06:16Z</time>
      </trkpt>
      <trkpt lat="46.69538" lon="-2.34574">
        <ele>6.87</ele>
        <time>2018-04-04T09:06:18Z</time>
      </trkpt>
      <trkpt lat="46.69543" lon="-2.34574">
        <ele>5.42</ele>
        <time>2018-04-04T09:06:27Z</time>
      </trkpt>
      <trkpt lat="46.69545" lon="-2.34576">
        <ele>4.94</ele>
        <time>2018-04-04T09:06:30Z</time>
      </trkpt>
      <trkpt lat="46.6955" lon="-2.3459">
        <ele>4.46</ele>
        <time>2018-04-04T09:06:39Z</time>
      </trkpt>
      <trkpt lat="46.6955" lon="-2.34592">
        <ele>3.98</ele>
        <time>2018-04-04T09:06:48Z</time>
      </trkpt>
      <trkpt lat="46.6955" lon="-2.34592">
        <ele>4.46</ele>
        <time>2018-04-04T09:06:50Z</time>
      </trkpt>
      <trkpt lat="46.69554" lon="-2.34593">
        <ele>3.5</ele>
        <time>2018-04-04T09:06:53Z</time>
      </trkpt>
      <trkpt lat="46.69558" lon="-2.34592">
        <ele>2.54</ele>
        <time>2018-04-04T09:07:01Z</time>
      </trkpt>
      <trkpt lat="46.69556" lon="-2.34592">
        <ele>2.54</ele>
        <time>2018-04-04T09:07:16Z</time>
      </trkpt>
      <trkpt lat="46.69556" lon="-2.34592">
        <ele>2.54</ele>
        <time>2018-04-04T09:07:20Z</time>
      </trkpt>
      <trkpt lat="46.69553" lon="-2.34589">
        <ele>1.58</ele>
        <time>2018-04-04T09:07:32Z</time>
      </trkpt>
      <trkpt lat="46.69553" lon="-2.34589">
        <ele>1.58</ele>
        <time>2018-04-04T09:07:36Z</time>
      </trkpt>
      <trkpt lat="46.69561" lon="-2.34583">
        <ele>0.62</ele>
        <time>2018-04-04T09:07:47Z</time>
      </trkpt>
      <trkpt lat="46.69562" lon="-2.34583">
        <ele>0.62</ele>
        <time>2018-04-04T09:07:48Z</time>
      </trkpt>
      <trkpt lat="46.69565" lon="-2.34581">
        <ele>0.14</ele>
        <time>2018-04-04T09:07:57Z</time>
      </trkpt>
      <trkpt lat="46.69563" lon="-2.34581">
        <ele>0.14</ele>
        <time>2018-04-04T09:08:06Z</time>
      </trkpt>
      <trkpt lat="46.69555" lon="-2.34579">
        <ele>0.62</ele>
        <time>2018-04-04T09:08:16Z</time>
      </trkpt>
      <trkpt lat="46.69552" lon="-2.34578">
        <ele>1.1</ele>
        <time>2018-04-04T09:08:19Z</time>
      </trkpt>
      <trkpt lat="46.69547" lon="-2.34579">
        <ele>3.5</ele>
        <time>2018-04-04T09:08:31Z</time>
      </trkpt>
      <trkpt lat="46.69547" lon="-2.34578">
        <ele>3.5</ele>
        <time>2018-04-04T09:08:33Z</time>
      </trkpt>
      <trkpt lat="46.6955" lon="-2.34574">
        <ele>4.94</ele>
        <time>2018-04-04T09:08:37Z</time>
      </trkpt>
      <trkpt lat="46.69556" lon="-2.34574">
        <ele>6.39</ele>
        <time>2018-04-04T09:08:43Z</time>
      </trkpt>
      <trkpt lat="46.6956" lon="-2.34572">
        <ele>6.87</ele>
        <time>2018-04-04T09:08:47Z</time>
      </trkpt>
      <trkpt lat="46.69562" lon="-2.34574">
        <ele>6.39</ele>
        <time>2018-04-04T09:08:49Z</time>
      </trkpt>
      <trkpt lat="46.69557" lon="-2.34577">
        <ele>5.91</ele>
        <time>2018-04-04T09:08:54Z</time>
      </trkpt>
      <trkpt lat="46.69552" lon="-2.34578">
        <ele>4.46</ele>
        <time>2018-04-04T09:08:59Z</time>
      </trkpt>
      <trkpt lat="46.6955" lon="-2.34579">
        <ele>3.5</ele>
        <time>2018-04-04T09:09:01Z</time>
      </trkpt>
      <trkpt lat="46.6954" lon="-2.3458">
        <ele>-0.34</ele>
        <time>2018-04-04T09:09:10Z</time>
      </trkpt>
      <trkpt lat="46.69538" lon="-2.34579">
        <ele>-0.34</ele>
        <time>2018-04-04T09:09:12Z</time>
      </trkpt>
      <trkpt lat="46.69536" lon="-2.34584">
        <ele>-0.34</ele>
        <time>2018-04-04T09:09:16Z</time>
      </trkpt>
      <trkpt lat="46.6953" lon="-2.34587">
        <ele>-1.3</ele>
        <time>2018-04-04T09:09:24Z</time>
      </trkpt>
      <trkpt lat="46.69527" lon="-2.34589">
        <ele>-3.71</ele>
        <time>2018-04-04T09:09:33Z</time>
      </trkpt>
      <trkpt lat="46.69523" lon="-2.34595">
        <ele>-5.63</ele>
        <time>2018-04-04T09:09:43Z</time>
      </trkpt>
      <trkpt lat="46.69521" lon="-2.34595">
        <ele>-2.75</ele>
        <time>2018-04-04T09:09:54Z</time>
      </trkpt>
      <trkpt lat="46.69521" lon="-2.34595">
        <ele>-2.75</ele>
        <time>2018-04-04T09:10:09Z</time>
      </trkpt>
      <trkpt lat="46.69517" lon="-2.34594">
        <ele>-1.3</ele>
        <time>2018-04-04T09:10:19Z</time>
      </trkpt>
      <trkpt lat="46.69519" lon="-2.34594">
        <ele>-0.82</ele>
        <time>2018-04-04T09:10:31Z</time>
      </trkpt>
      <trkpt lat="46.69536" lon="-2.34582">
        <ele>-0.82</ele>
        <time>2018-04-04T09:10:48Z</time>
      </trkpt>
      <trkpt lat="46.69553" lon="-2.34577">
        <ele>-1.3</ele>
        <time>2018-04-04T09:11:01Z</time>
      </trkpt>
      <trkpt lat="46.69567" lon="-2.34572">
        <ele>-2.27</ele>
        <time>2018-04-04T09:11:13Z</time>
      </trkpt>
      <trkpt lat="46.69571" lon="-2.34568">
        <ele>-1.79</ele>
        <time>2018-04-04T09:11:19Z</time>
      </trkpt>
      <trkpt lat="46.69577" lon="-2.34568">
        <ele>-0.82</ele>
        <time>2018-04-04T09:11:23Z</time>
      </trkpt>
      <trkpt lat="46.69589" lon="-2.34574">
        <ele>0.62</ele>
        <time>2018-04-04T09:11:35Z</time>
      </trkpt>
      <trkpt lat="46.69591" lon="-2.34575">
        <ele>0.62</ele>
        <time>2018-04-04T09:11:37Z</time>
      </trkpt>
      <trkpt lat="46.696" lon="-2.34582">
        <ele>1.1</ele>
        <time>2018-04-04T09:11:43Z</time>
      </trkpt>
      <trkpt lat="46.69603" lon="-2.34582">
        <ele>2.06</ele>
        <time>2018-04-04T09:11:46Z</time>
      </trkpt>
      <trkpt lat="46.69618" lon="-2.34589">
        <ele>5.42</ele>
        <time>2018-04-04T09:11:57Z</time>
      </trkpt>
      <trkpt lat="46.69626" lon="-2.34594">
        <ele>6.39</ele>
        <time>2018-04-04T09:12:05Z</time>
      </trkpt>
      <trkpt lat="46.69635" lon="-2.34592">
        <ele>6.39</ele>
        <time>2018-04-04T09:12:12Z</time>
      </trkpt>
      <trkpt lat="46.69645" lon="-2.34595">
        <ele>6.39</ele>
        <time>2018-04-04T09:12:17Z</time>
      </trkpt>
      <trkpt lat="46.6965" lon="-2.34593">
        <ele>7.35</ele>
        <time>2018-04-04T09:12:23Z</time>
      </trkpt>
      <trkpt lat="46.69653" lon="-2.34593">
        <ele>7.35</ele>
        <time>2018-04-04T09:12:25Z</time>
      </trkpt>
      <trkpt lat="46.69667" lon="-2.34592">
        <ele>8.79</ele>
        <time>2018-04-04T09:12:33Z</time>
      </trkpt>
      <trkpt lat="46.69668" lon="-2.34591">
        <ele>9.27</ele>
        <time>2018-04-04T09:12:38Z</time>
      </trkpt>
      <trkpt lat="46.69679" lon="-2.34593">
        <ele>9.75</ele>
        <time>2018-04-04T09:12:46Z</time>
      </trkpt>
      <trkpt lat="46.69692" lon="-2.34596">
        <ele>9.75</ele>
        <time>2018-04-04T09:12:55Z</time>
      </trkpt>
      <trkpt lat="46.69708" lon="-2.34598">
        <ele>7.83</ele>
        <time>2018-04-04T09:13:06Z</time>
      </trkpt>
      <trkpt lat="46.69729" lon="-2.34601">
        <ele>6.39</ele>
        <time>2018-04-04T09:13:19Z</time>
      </trkpt>
      <trkpt lat="46.6974" lon="-2.34595">
        <ele>5.91</ele>
        <time>2018-04-04T09:13:29Z</time>
      </trkpt>
      <trkpt lat="46.69742" lon="-2.34592">
        <ele>6.39</ele>
        <time>2018-04-04T09:13:32Z</time>
      </trkpt>
      <trkpt lat="46.69747" lon="-2.34589">
        <ele>6.39</ele>
        <time>2018-04-04T09:13:36Z</time>
      </trkpt>
      <trkpt lat="46.69761" lon="-2.3458">
        <ele>6.87</ele>
        <time>2018-04-04T09:13:49Z</time>
      </trkpt>
      <trkpt lat="46.69762" lon="-2.3458">
        <ele>6.87</ele>
        <time>2018-04-04T09:13:50Z</time>
      </trkpt>
      <trkpt lat="46.69767" lon="-2.34579">
        <ele>7.83</ele>
        <time>2018-04-04T09:13:58Z</time>
      </trkpt>
      <trkpt lat="46.69781" lon="-2.34589">
        <ele>8.31</ele>
        <time>2018-04-04T09:14:12Z</time>
      </trkpt>
      <trkpt lat="46.69788" lon="-2.34595">
        <ele>9.27</ele>
        <time>2018-04-04T09:14:27Z</time>
      </trkpt>
      <trkpt lat="46.69799" lon="-2.34607">
        <ele>9.27</ele>
        <time>2018-04-04T09:14:40Z</time>
      </trkpt>
      <trkpt lat="46.69799" lon="-2.34606">
        <ele>9.27</ele>
        <time>2018-04-04T09:14:41Z</time>
      </trkpt>
      <trkpt lat="46.69804" lon="-2.34593">
        <ele>9.75</ele>
        <time>2018-04-04T09:14:51Z</time>
      </trkpt>
      <trkpt lat="46.69808" lon="-2.34586">
        <ele>10.23</ele>
        <time>2018-04-04T09:14:56Z</time>
      </trkpt>
      <trkpt lat="46.69819" lon="-2.34569">
        <ele>10.23</ele>
        <time>2018-04-04T09:15:11Z</time>
      </trkpt>
      <trkpt lat="46.6982" lon="-2.34568">
        <ele>10.23</ele>
        <time>2018-04-04T09:15:12Z</time>
      </trkpt>
      <trkpt lat="46.69824" lon="-2.34564">
        <ele>11.19</ele>
        <time>2018-04-04T09:15:16Z</time>
      </trkpt>
      <trkpt lat="46.69829" lon="-2.34552">
        <ele>12.15</ele>
        <time>2018-04-04T09:15:29Z</time>
      </trkpt>
      <trkpt lat="46.69831" lon="-2.34547">
        <ele>11.67</ele>
        <time>2018-04-04T09:15:32Z</time>
      </trkpt>
      <trkpt lat="46.6984" lon="-2.34528">
        <ele>13.6</ele>
        <time>2018-04-04T09:15:44Z</time>
      </trkpt>
      <trkpt lat="46.69847" lon="-2.34516">
        <ele>13.12</ele>
        <time>2018-04-04T09:15:53Z</time>
      </trkpt>
      <trkpt lat="46.69851" lon="-2.34512">
        <ele>13.12</ele>
        <time>2018-04-04T09:15:57Z</time>
      </trkpt>
      <trkpt lat="46.69856" lon="-2.34505">
        <ele>13.12</ele>
        <time>2018-04-04T09:16:03Z</time>
      </trkpt>
      <trkpt lat="46.69863" lon="-2.34497">
        <ele>13.6</ele>
        <time>2018-04-04T09:16:10Z</time>
      </trkpt>
      <trkpt lat="46.6987" lon="-2.34486">
        <ele>14.08</ele>
        <time>2018-04-04T09:16:21Z</time>
      </trkpt>
      <trkpt lat="46.69878" lon="-2.34472">
        <ele>14.56</ele>
        <time>2018-04-04T09:16:31Z</time>
      </trkpt>
      <trkpt lat="46.69892" lon="-2.34468">
        <ele>16</ele>
        <time>2018-04-04T09:16:43Z</time>
      </trkpt>
      <trkpt lat="46.69898" lon="-2.34464">
        <ele>17.44</ele>
        <time>2018-04-04T09:16:52Z</time>
      </trkpt>
      <trkpt lat="46.69903" lon="-2.34462">
        <ele>17.44</ele>
        <time>2018-04-04T09:16:56Z</time>
      </trkpt>
      <trkpt lat="46.69915" lon="-2.34453">
        <ele>19.84</ele>
        <time>2018-04-04T09:17:08Z</time>
      </trkpt>
      <trkpt lat="46.69925" lon="-2.34446">
        <ele>16.48</ele>
        <time>2018-04-04T09:17:17Z</time>
      </trkpt>
      <trkpt lat="46.69927" lon="-2.34446">
        <ele>16</ele>
        <time>2018-04-04T09:17:18Z</time>
      </trkpt>
      <trkpt lat="46.69943" lon="-2.34441">
        <ele>15.04</ele>
        <time>2018-04-04T09:17:28Z</time>
      </trkpt>
      <trkpt lat="46.69954" lon="-2.34439">
        <ele>14.56</ele>
        <time>2018-04-04T09:17:36Z</time>
      </trkpt>
      <trkpt lat="46.69957" lon="-2.3444">
        <ele>14.56</ele>
        <time>2018-04-04T09:17:41Z</time>
      </trkpt>
      <trkpt lat="46.69963" lon="-2.34435">
        <ele>14.56</ele>
        <time>2018-04-04T09:17:46Z</time>
      </trkpt>
      <trkpt lat="46.6997" lon="-2.34436">
        <ele>15.04</ele>
        <time>2018-04-04T09:17:50Z</time>
      </trkpt>
      <trkpt lat="46.69976" lon="-2.34432">
        <ele>18.4</ele>
        <time>2018-04-04T09:17:56Z</time>
      </trkpt>
      <trkpt lat="46.6998" lon="-2.34429">
        <ele>20.32</ele>
        <time>2018-04-04T09:18:02Z</time>
      </trkpt>
      <trkpt lat="46.69993" lon="-2.34421">
        <ele>21.77</ele>
        <time>2018-04-04T09:18:11Z</time>
      </trkpt>
      <trkpt lat="46.69999" lon="-2.34414">
        <ele>23.21</ele>
        <time>2018-04-04T09:18:19Z</time>
      </trkpt>
      <trkpt lat="46.70009" lon="-2.34404">
        <ele>24.65</ele>
        <time>2018-04-04T09:18:28Z</time>
      </trkpt>
      <trkpt lat="46.70013" lon="-2.34396">
        <ele>25.61</ele>
        <time>2018-04-04T09:18:34Z</time>
      </trkpt>
      <trkpt lat="46.70026" lon="-2.34388">
        <ele>28.02</ele>
        <time>2018-04-04T09:18:47Z</time>
      </trkpt>
      <trkpt lat="46.70038" lon="-2.34373">
        <ele>30.42</ele>
        <time>2018-04-04T09:18:58Z</time>
      </trkpt>
      <trkpt lat="46.70053" lon="-2.34356">
        <ele>33.3</ele>
        <time>2018-04-04T09:19:11Z</time>
      </trkpt>
      <trkpt lat="46.70061" lon="-2.34348">
        <ele>35.71</ele>
        <time>2018-04-04T09:19:20Z</time>
      </trkpt>
      <trkpt lat="46.70073" lon="-2.34329">
        <ele>33.3</ele>
        <time>2018-04-04T09:19:33Z</time>
      </trkpt>
      <trkpt lat="46.70081" lon="-2.34323">
        <ele>28.98</ele>
        <time>2018-04-04T09:19:39Z</time>
      </trkpt>
      <trkpt lat="46.70085" lon="-2.34313">
        <ele>26.57</ele>
        <time>2018-04-04T09:19:44Z</time>
      </trkpt>
      <trkpt lat="46.70089" lon="-2.34309">
        <ele>26.09</ele>
        <time>2018-04-04T09:19:48Z</time>
      </trkpt>
      <trkpt lat="46.70091" lon="-2.34307">
        <ele>26.09</ele>
        <time>2018-04-04T09:19:50Z</time>
      </trkpt>
      <trkpt lat="46.70105" lon="-2.34293">
        <ele>26.09</ele>
        <time>2018-04-04T09:20:01Z</time>
      </trkpt>
      <trkpt lat="46.70111" lon="-2.34287">
        <ele>25.13</ele>
        <time>2018-04-04T09:20:08Z</time>
      </trkpt>
      <trkpt lat="46.70117" lon="-2.34279">
        <ele>24.17</ele>
        <time>2018-04-04T09:20:16Z</time>
      </trkpt>
      <trkpt lat="46.70122" lon="-2.34275">
        <ele>22.25</ele>
        <time>2018-04-04T09:20:30Z</time>
      </trkpt>
      <trkpt lat="46.70126" lon="-2.34269">
        <ele>21.29</ele>
        <time>2018-04-04T09:20:38Z</time>
      </trkpt>
      <trkpt lat="46.70134" lon="-2.34262">
        <ele>20.81</ele>
        <time>2018-04-04T09:20:47Z</time>
      </trkpt>
      <trkpt lat="46.70143" lon="-2.34253">
        <ele>20.81</ele>
        <time>2018-04-04T09:20:57Z</time>
      </trkpt>
      <trkpt lat="46.70147" lon="-2.34251">
        <ele>20.81</ele>
        <time>2018-04-04T09:21:00Z</time>
      </trkpt>
      <trkpt lat="46.70151" lon="-2.34247">
        <ele>20.32</ele>
        <time>2018-04-04T09:21:07Z</time>
      </trkpt>
      <trkpt lat="46.70157" lon="-2.34238">
        <ele>19.84</ele>
        <time>2018-04-04T09:21:14Z</time>
      </trkpt>
      <trkpt lat="46.70168" lon="-2.34233">
        <ele>19.36</ele>
        <time>2018-04-04T09:21:22Z</time>
      </trkpt>
      <trkpt lat="46.70173" lon="-2.34227">
        <ele>22.25</ele>
        <time>2018-04-04T09:21:31Z</time>
      </trkpt>
      <trkpt lat="46.70177" lon="-2.34224">
        <ele>23.21</ele>
        <time>2018-04-04T09:21:35Z</time>
      </trkpt>
      <trkpt lat="46.70186" lon="-2.34219">
        <ele>24.17</ele>
        <time>2018-04-04T09:21:41Z</time>
      </trkpt>
      <trkpt lat="46.702" lon="-2.34211">
        <ele>25.61</ele>
        <time>2018-04-04T09:21:53Z</time>
      </trkpt>
      <trkpt lat="46.70208" lon="-2.34196">
        <ele>27.53</ele>
        <time>2018-04-04T09:22:03Z</time>
      </trkpt>
      <trkpt lat="46.70212" lon="-2.34179">
        <ele>25.61</ele>
        <time>2018-04-04T09:22:11Z</time>
      </trkpt>
      <trkpt lat="46.70217" lon="-2.34165">
        <ele>25.61</ele>
        <time>2018-04-04T09:22:20Z</time>
      </trkpt>
      <trkpt lat="46.70217" lon="-2.34165">
        <ele>25.61</ele>
        <time>2018-04-04T09:22:21Z</time>
      </trkpt>
      <trkpt lat="46.70222" lon="-2.34156">
        <ele>26.57</ele>
        <time>2018-04-04T09:22:25Z</time>
      </trkpt>
      <trkpt lat="46.70223" lon="-2.34152">
        <ele>26.57</ele>
        <time>2018-04-04T09:22:29Z</time>
      </trkpt>
      <trkpt lat="46.70228" lon="-2.34145">
        <ele>26.09</ele>
        <time>2018-04-04T09:22:33Z</time>
      </trkpt>
      <trkpt lat="46.7023" lon="-2.34143">
        <ele>25.61</ele>
        <time>2018-04-04T09:22:36Z</time>
      </trkpt>
      <trkpt lat="46.70237" lon="-2.34131">
        <ele>24.65</ele>
        <time>2018-04-04T09:22:45Z</time>
      </trkpt>
      <trkpt lat="46.70244" lon="-2.34128">
        <ele>23.21</ele>
        <time>2018-04-04T09:22:54Z</time>
      </trkpt>
      <trkpt lat="46.70253" lon="-2.34122">
        <ele>21.77</ele>
        <time>2018-04-04T09:23:03Z</time>
      </trkpt>
      <trkpt lat="46.7026" lon="-2.34117">
        <ele>21.29</ele>
        <time>2018-04-04T09:23:09Z</time>
      </trkpt>
      <trkpt lat="46.70272" lon="-2.34106">
        <ele>21.77</ele>
        <time>2018-04-04T09:23:19Z</time>
      </trkpt>
      <trkpt lat="46.70281" lon="-2.34091">
        <ele>23.69</ele>
        <time>2018-04-04T09:23:29Z</time>
      </trkpt>
      <trkpt lat="46.7029" lon="-2.34079">
        <ele>24.65</ele>
        <time>2018-04-04T09:23:39Z</time>
      </trkpt>
      <trkpt lat="46.70292" lon="-2.34075">
        <ele>24.65</ele>
        <time>2018-04-04T09:23:43Z</time>
      </trkpt>
      <trkpt lat="46.70294" lon="-2.34064">
        <ele>24.65</ele>
        <time>2018-04-04T09:23:49Z</time>
      </trkpt>
      <trkpt lat="46.70294" lon="-2.34049">
        <ele>24.17</ele>
        <time>2018-04-04T09:23:58Z</time>
      </trkpt>
      <trkpt lat="46.7029" lon="-2.34033">
        <ele>23.21</ele>
        <time>2018-04-04T09:24:09Z</time>
      </trkpt>
      <trkpt lat="46.70287" lon="-2.34021">
        <ele>20.81</ele>
        <time>2018-04-04T09:24:20Z</time>
      </trkpt>
      <trkpt lat="46.70289" lon="-2.34003">
        <ele>20.32</ele>
        <time>2018-04-04T09:24:33Z</time>
      </trkpt>
      <trkpt lat="46.70295" lon="-2.33997">
        <ele>19.84</ele>
        <time>2018-04-04T09:24:37Z</time>
      </trkpt>
      <trkpt lat="46.70301" lon="-2.33995">
        <ele>18.88</ele>
        <time>2018-04-04T09:24:42Z</time>
      </trkpt>
      <trkpt lat="46.70308" lon="-2.33986">
        <ele>18.88</ele>
        <time>2018-04-04T09:24:50Z</time>
      </trkpt>
      <trkpt lat="46.70317" lon="-2.33981">
        <ele>18.4</ele>
        <time>2018-04-04T09:24:57Z</time>
      </trkpt>
      <trkpt lat="46.70328" lon="-2.33973">
        <ele>20.32</ele>
        <time>2018-04-04T09:25:07Z</time>
      </trkpt>
      <trkpt lat="46.70337" lon="-2.33972">
        <ele>20.32</ele>
        <time>2018-04-04T09:25:13Z</time>
      </trkpt>
      <trkpt lat="46.70348" lon="-2.33965">
        <ele>19.84</ele>
        <time>2018-04-04T09:25:24Z</time>
      </trkpt>
      <trkpt lat="46.70352" lon="-2.33962">
        <ele>20.81</ele>
        <time>2018-04-04T09:25:29Z</time>
      </trkpt>
      <trkpt lat="46.70365" lon="-2.33956">
        <ele>21.77</ele>
        <time>2018-04-04T09:25:39Z</time>
      </trkpt>
      <trkpt lat="46.70376" lon="-2.33952">
        <ele>20.81</ele>
        <time>2018-04-04T09:25:49Z</time>
      </trkpt>
      <trkpt lat="46.70385" lon="-2.3395">
        <ele>20.81</ele>
        <time>2018-04-04T09:25:55Z</time>
      </trkpt>
      <trkpt lat="46.70397" lon="-2.3394">
        <ele>21.29</ele>
        <time>2018-04-04T09:26:05Z</time>
      </trkpt>
      <trkpt lat="46.70409" lon="-2.33934">
        <ele>21.77</ele>
        <time>2018-04-04T09:26:15Z</time>
      </trkpt>
      <trkpt lat="46.70418" lon="-2.33931">
        <ele>20.81</ele>
        <time>2018-04-04T09:26:22Z</time>
      </trkpt>
      <trkpt lat="46.7043" lon="-2.33933">
        <ele>22.73</ele>
        <time>2018-04-04T09:26:32Z</time>
      </trkpt>
      <trkpt lat="46.70429" lon="-2.33934">
        <ele>22.73</ele>
        <time>2018-04-04T09:26:35Z</time>
      </trkpt>
      <trkpt lat="46.70428" lon="-2.33934">
        <ele>22.73</ele>
        <time>2018-04-04T09:26:40Z</time>
      </trkpt>
      <trkpt lat="46.70441" lon="-2.33933">
        <ele>22.25</ele>
        <time>2018-04-04T09:26:50Z</time>
      </trkpt>
      <trkpt lat="46.70454" lon="-2.33925">
        <ele>22.73</ele>
        <time>2018-04-04T09:27:03Z</time>
      </trkpt>
      <trkpt lat="46.7046" lon="-2.33921">
        <ele>22.73</ele>
        <time>2018-04-04T09:27:09Z</time>
      </trkpt>
      <trkpt lat="46.70485" lon="-2.33923">
        <ele>25.61</ele>
        <time>2018-04-04T09:27:18Z</time>
      </trkpt>
      <trkpt lat="46.70491" lon="-2.33923">
        <ele>26.09</ele>
        <time>2018-04-04T09:27:22Z</time>
      </trkpt>
      <trkpt lat="46.70496" lon="-2.33925">
        <ele>26.57</ele>
        <time>2018-04-04T09:27:25Z</time>
      </trkpt>
      <trkpt lat="46.70505" lon="-2.33929">
        <ele>28.02</ele>
        <time>2018-04-04T09:27:32Z</time>
      </trkpt>
      <trkpt lat="46.70514" lon="-2.33939">
        <ele>27.05</ele>
        <time>2018-04-04T09:27:41Z</time>
      </trkpt>
      <trkpt lat="46.70517" lon="-2.3394">
        <ele>27.05</ele>
        <time>2018-04-04T09:27:42Z</time>
      </trkpt>
      <trkpt lat="46.70522" lon="-2.33943">
        <ele>27.05</ele>
        <time>2018-04-04T09:27:47Z</time>
      </trkpt>
      <trkpt lat="46.70532" lon="-2.33948">
        <ele>27.53</ele>
        <time>2018-04-04T09:27:57Z</time>
      </trkpt>
      <trkpt lat="46.70547" lon="-2.33954">
        <ele>27.05</ele>
        <time>2018-04-04T09:28:07Z</time>
      </trkpt>
      <trkpt lat="46.70562" lon="-2.33958">
        <ele>27.53</ele>
        <time>2018-04-04T09:28:20Z</time>
      </trkpt>
      <trkpt lat="46.70567" lon="-2.33959">
        <ele>27.53</ele>
        <time>2018-04-04T09:28:23Z</time>
      </trkpt>
      <trkpt lat="46.7057" lon="-2.33957">
        <ele>27.53</ele>
        <time>2018-04-04T09:28:28Z</time>
      </trkpt>
      <trkpt lat="46.70577" lon="-2.33957">
        <ele>26.57</ele>
        <time>2018-04-04T09:28:33Z</time>
      </trkpt>
      <trkpt lat="46.70578" lon="-2.33955">
        <ele>26.57</ele>
        <time>2018-04-04T09:28:35Z</time>
      </trkpt>
      <trkpt lat="46.70587" lon="-2.33955">
        <ele>26.09</ele>
        <time>2018-04-04T09:28:39Z</time>
      </trkpt>
      <trkpt lat="46.70595" lon="-2.33953">
        <ele>27.05</ele>
        <time>2018-04-04T09:28:44Z</time>
      </trkpt>
      <trkpt lat="46.70607" lon="-2.33948">
        <ele>27.53</ele>
        <time>2018-04-04T09:28:54Z</time>
      </trkpt>
      <trkpt lat="46.70612" lon="-2.33943">
        <ele>27.05</ele>
        <time>2018-04-04T09:29:05Z</time>
      </trkpt>
      <trkpt lat="46.70625" lon="-2.33937">
        <ele>26.57</ele>
        <time>2018-04-04T09:29:14Z</time>
      </trkpt>
      <trkpt lat="46.70636" lon="-2.33935">
        <ele>24.65</ele>
        <time>2018-04-04T09:29:20Z</time>
      </trkpt>
      <trkpt lat="46.70638" lon="-2.33931">
        <ele>22.73</ele>
        <time>2018-04-04T09:29:27Z</time>
      </trkpt>
      <trkpt lat="46.70645" lon="-2.33928">
        <ele>23.21</ele>
        <time>2018-04-04T09:29:32Z</time>
      </trkpt>
      <trkpt lat="46.70654" lon="-2.33931">
        <ele>24.17</ele>
        <time>2018-04-04T09:29:35Z</time>
      </trkpt>
      <trkpt lat="46.70661" lon="-2.33931">
        <ele>24.65</ele>
        <time>2018-04-04T09:29:38Z</time>
      </trkpt>
      <trkpt lat="46.70663" lon="-2.3393">
        <ele>25.61</ele>
        <time>2018-04-04T09:29:40Z</time>
      </trkpt>
      <trkpt lat="46.70674" lon="-2.33931">
        <ele>27.05</ele>
        <time>2018-04-04T09:29:51Z</time>
      </trkpt>
      <trkpt lat="46.70686" lon="-2.33929">
        <ele>28.5</ele>
        <time>2018-04-04T09:29:57Z</time>
      </trkpt>
      <trkpt lat="46.70697" lon="-2.33929">
        <ele>29.94</ele>
        <time>2018-04-04T09:30:05Z</time>
      </trkpt>
      <trkpt lat="46.70713" lon="-2.33928">
        <ele>31.86</ele>
        <time>2018-04-04T09:30:13Z</time>
      </trkpt>
      <trkpt lat="46.70718" lon="-2.33927">
        <ele>32.34</ele>
        <time>2018-04-04T09:30:18Z</time>
      </trkpt>
      <trkpt lat="46.70729" lon="-2.3392">
        <ele>30.9</ele>
        <time>2018-04-04T09:30:28Z</time>
      </trkpt>
      <trkpt lat="46.70731" lon="-2.33917">
        <ele>29.94</ele>
        <time>2018-04-04T09:30:33Z</time>
      </trkpt>
      <trkpt lat="46.70741" lon="-2.3391">
        <ele>28.98</ele>
        <time>2018-04-04T09:30:42Z</time>
      </trkpt>
      <trkpt lat="46.70748" lon="-2.33904">
        <ele>28.5</ele>
        <time>2018-04-04T09:30:50Z</time>
      </trkpt>
      <trkpt lat="46.70756" lon="-2.33897">
        <ele>28.98</ele>
        <time>2018-04-04T09:30:58Z</time>
      </trkpt>
      <trkpt lat="46.70765" lon="-2.33892">
        <ele>28.5</ele>
        <time>2018-04-04T09:31:06Z</time>
      </trkpt>
      <trkpt lat="46.70775" lon="-2.33886">
        <ele>27.05</ele>
        <time>2018-04-04T09:31:15Z</time>
      </trkpt>
      <trkpt lat="46.70785" lon="-2.3388">
        <ele>28.02</ele>
        <time>2018-04-04T09:31:24Z</time>
      </trkpt>
      <trkpt lat="46.70794" lon="-2.33871">
        <ele>26.09</ele>
        <time>2018-04-04T09:31:32Z</time>
      </trkpt>
      <trkpt lat="46.70804" lon="-2.33862">
        <ele>24.65</ele>
        <time>2018-04-04T09:31:40Z</time>
      </trkpt>
      <trkpt lat="46.70806" lon="-2.33858">
        <ele>24.17</ele>
        <time>2018-04-04T09:31:45Z</time>
      </trkpt>
      <trkpt lat="46.70815" lon="-2.33845">
        <ele>22.25</ele>
        <time>2018-04-04T09:31:55Z</time>
      </trkpt>
      <trkpt lat="46.70823" lon="-2.33833">
        <ele>20.32</ele>
        <time>2018-04-04T09:32:04Z</time>
      </trkpt>
      <trkpt lat="46.70825" lon="-2.33825">
        <ele>20.32</ele>
        <time>2018-04-04T09:32:12Z</time>
      </trkpt>
      <trkpt lat="46.70831" lon="-2.33817">
        <ele>20.81</ele>
        <time>2018-04-04T09:32:16Z</time>
      </trkpt>
      <trkpt lat="46.70845" lon="-2.338">
        <ele>20.81</ele>
        <time>2018-04-04T09:32:29Z</time>
      </trkpt>
      <trkpt lat="46.70852" lon="-2.33794">
        <ele>20.32</ele>
        <time>2018-04-04T09:32:36Z</time>
      </trkpt>
      <trkpt lat="46.70861" lon="-2.33795">
        <ele>20.32</ele>
        <time>2018-04-04T09:32:39Z</time>
      </trkpt>
      <trkpt lat="46.70874" lon="-2.33796">
        <ele>20.81</ele>
        <time>2018-04-04T09:32:50Z</time>
      </trkpt>
      <trkpt lat="46.70889" lon="-2.33808">
        <ele>21.29</ele>
        <time>2018-04-04T09:33:02Z</time>
      </trkpt>
      <trkpt lat="46.7089" lon="-2.33809">
        <ele>20.81</ele>
        <time>2018-04-04T09:33:03Z</time>
      </trkpt>
      <trkpt lat="46.709" lon="-2.33822">
        <ele>19.84</ele>
        <time>2018-04-04T09:33:13Z</time>
      </trkpt>
      <trkpt lat="46.709" lon="-2.33822">
        <ele>19.36</ele>
        <time>2018-04-04T09:33:14Z</time>
      </trkpt>
      <trkpt lat="46.70908" lon="-2.33831">
        <ele>19.84</ele>
        <time>2018-04-04T09:33:22Z</time>
      </trkpt>
      <trkpt lat="46.70913" lon="-2.33837">
        <ele>20.81</ele>
        <time>2018-04-04T09:33:30Z</time>
      </trkpt>
      <trkpt lat="46.70928" lon="-2.33848">
        <ele>21.29</ele>
        <time>2018-04-04T09:33:40Z</time>
      </trkpt>
      <trkpt lat="46.70932" lon="-2.3385">
        <ele>21.29</ele>
        <time>2018-04-04T09:33:42Z</time>
      </trkpt>
      <trkpt lat="46.70934" lon="-2.33849">
        <ele>20.81</ele>
        <time>2018-04-04T09:33:46Z</time>
      </trkpt>
      <trkpt lat="46.70948" lon="-2.33857">
        <ele>19.84</ele>
        <time>2018-04-04T09:33:57Z</time>
      </trkpt>
      <trkpt lat="46.70954" lon="-2.33862">
        <ele>20.81</ele>
        <time>2018-04-04T09:34:04Z</time>
      </trkpt>
      <trkpt lat="46.70965" lon="-2.33872">
        <ele>22.73</ele>
        <time>2018-04-04T09:34:13Z</time>
      </trkpt>
      <trkpt lat="46.70967" lon="-2.33873">
        <ele>22.73</ele>
        <time>2018-04-04T09:34:14Z</time>
      </trkpt>
      <trkpt lat="46.70973" lon="-2.3388">
        <ele>21.77</ele>
        <time>2018-04-04T09:34:19Z</time>
      </trkpt>
      <trkpt lat="46.70975" lon="-2.3388">
        <ele>21.77</ele>
        <time>2018-04-04T09:34:23Z</time>
      </trkpt>
      <trkpt lat="46.70991" lon="-2.33887">
        <ele>22.25</ele>
        <time>2018-04-04T09:34:36Z</time>
      </trkpt>
      <trkpt lat="46.70997" lon="-2.33893">
        <ele>22.73</ele>
        <time>2018-04-04T09:34:49Z</time>
      </trkpt>
      <trkpt lat="46.71009" lon="-2.33901">
        <ele>21.29</ele>
        <time>2018-04-04T09:35:01Z</time>
      </trkpt>
      <trkpt lat="46.71012" lon="-2.33905">
        <ele>20.32</ele>
        <time>2018-04-04T09:35:05Z</time>
      </trkpt>
      <trkpt lat="46.7102" lon="-2.33907">
        <ele>19.84</ele>
        <time>2018-04-04T09:35:11Z</time>
      </trkpt>
      <trkpt lat="46.71032" lon="-2.33919">
        <ele>18.4</ele>
        <time>2018-04-04T09:35:20Z</time>
      </trkpt>
      <trkpt lat="46.71032" lon="-2.33934">
        <ele>16.48</ele>
        <time>2018-04-04T09:35:25Z</time>
      </trkpt>
      <trkpt lat="46.71035" lon="-2.33953">
        <ele>15.04</ele>
        <time>2018-04-04T09:35:35Z</time>
      </trkpt>
      <trkpt lat="46.71039" lon="-2.33959">
        <ele>14.56</ele>
        <time>2018-04-04T09:35:41Z</time>
      </trkpt>
      <trkpt lat="46.71043" lon="-2.3398">
        <ele>15.52</ele>
        <time>2018-04-04T09:35:52Z</time>
      </trkpt>
      <trkpt lat="46.71043" lon="-2.33982">
        <ele>15.52</ele>
        <time>2018-04-04T09:35:53Z</time>
      </trkpt>
      <trkpt lat="46.71047" lon="-2.33991">
        <ele>16</ele>
        <time>2018-04-04T09:36:00Z</time>
      </trkpt>
      <trkpt lat="46.71053" lon="-2.34006">
        <ele>16</ele>
        <time>2018-04-04T09:36:08Z</time>
      </trkpt>
      <trkpt lat="46.71067" lon="-2.34026">
        <ele>18.4</ele>
        <time>2018-04-04T09:36:18Z</time>
      </trkpt>
      <trkpt lat="46.7107" lon="-2.34035">
        <ele>18.4</ele>
        <time>2018-04-04T09:36:21Z</time>
      </trkpt>
      <trkpt lat="46.71072" lon="-2.34038">
        <ele>18.88</ele>
        <time>2018-04-04T09:36:26Z</time>
      </trkpt>
      <trkpt lat="46.71073" lon="-2.34048">
        <ele>19.36</ele>
        <time>2018-04-04T09:36:29Z</time>
      </trkpt>
      <trkpt lat="46.71075" lon="-2.34053">
        <ele>20.32</ele>
        <time>2018-04-04T09:36:34Z</time>
      </trkpt>
      <trkpt lat="46.71081" lon="-2.34066">
        <ele>21.29</ele>
        <time>2018-04-04T09:36:42Z</time>
      </trkpt>
      <trkpt lat="46.71086" lon="-2.34083">
        <ele>21.77</ele>
        <time>2018-04-04T09:36:51Z</time>
      </trkpt>
      <trkpt lat="46.71088" lon="-2.34093">
        <ele>20.81</ele>
        <time>2018-04-04T09:36:56Z</time>
      </trkpt>
      <trkpt lat="46.71091" lon="-2.34099">
        <ele>19.84</ele>
        <time>2018-04-04T09:37:01Z</time>
      </trkpt>
      <trkpt lat="46.71094" lon="-2.34109">
        <ele>18.4</ele>
        <time>2018-04-04T09:37:05Z</time>
      </trkpt>
      <trkpt lat="46.71101" lon="-2.34126">
        <ele>16.48</ele>
        <time>2018-04-04T09:37:15Z</time>
      </trkpt>
      <trkpt lat="46.71106" lon="-2.34137">
        <ele>15.04</ele>
        <time>2018-04-04T09:37:23Z</time>
      </trkpt>
      <trkpt lat="46.71109" lon="-2.34144">
        <ele>15.04</ele>
        <time>2018-04-04T09:37:26Z</time>
      </trkpt>
      <trkpt lat="46.71113" lon="-2.34145">
        <ele>14.56</ele>
        <time>2018-04-04T09:37:30Z</time>
      </trkpt>
      <trkpt lat="46.7112" lon="-2.34158">
        <ele>17.44</ele>
        <time>2018-04-04T09:37:38Z</time>
      </trkpt>
      <trkpt lat="46.71126" lon="-2.34174">
        <ele>19.84</ele>
        <time>2018-04-04T09:37:46Z</time>
      </trkpt>
      <trkpt lat="46.71132" lon="-2.34187">
        <ele>22.73</ele>
        <time>2018-04-04T09:37:58Z</time>
      </trkpt>
      <trkpt lat="46.7114" lon="-2.34197">
        <ele>21.77</ele>
        <time>2018-04-04T09:38:06Z</time>
      </trkpt>
      <trkpt lat="46.71144" lon="-2.34201">
        <ele>21.29</ele>
        <time>2018-04-04T09:38:11Z</time>
      </trkpt>
      <trkpt lat="46.71156" lon="-2.34218">
        <ele>19.36</ele>
        <time>2018-04-04T09:38:22Z</time>
      </trkpt>
      <trkpt lat="46.71168" lon="-2.34234">
        <ele>19.84</ele>
        <time>2018-04-04T09:38:33Z</time>
      </trkpt>
      <trkpt lat="46.71174" lon="-2.34243">
        <ele>20.32</ele>
        <time>2018-04-04T09:38:41Z</time>
      </trkpt>
      <trkpt lat="46.71176" lon="-2.34244">
        <ele>20.81</ele>
        <time>2018-04-04T09:38:44Z</time>
      </trkpt>
      <trkpt lat="46.71182" lon="-2.3425">
        <ele>20.81</ele>
        <time>2018-04-04T09:38:48Z</time>
      </trkpt>
      <trkpt lat="46.71188" lon="-2.34257">
        <ele>19.84</ele>
        <time>2018-04-04T09:38:53Z</time>
      </trkpt>
      <trkpt lat="46.71201" lon="-2.34271">
        <ele>18.88</ele>
        <time>2018-04-04T09:39:06Z</time>
      </trkpt>
      <trkpt lat="46.71207" lon="-2.34279">
        <ele>19.84</ele>
        <time>2018-04-04T09:39:13Z</time>
      </trkpt>
      <trkpt lat="46.71215" lon="-2.34299">
        <ele>22.73</ele>
        <time>2018-04-04T09:39:24Z</time>
      </trkpt>
      <trkpt lat="46.71221" lon="-2.34311">
        <ele>24.65</ele>
        <time>2018-04-04T09:39:33Z</time>
      </trkpt>
      <trkpt lat="46.71225" lon="-2.34317">
        <ele>24.65</ele>
        <time>2018-04-04T09:39:36Z</time>
      </trkpt>
      <trkpt lat="46.71227" lon="-2.34319">
        <ele>25.13</ele>
        <time>2018-04-04T09:39:40Z</time>
      </trkpt>
      <trkpt lat="46.7123" lon="-2.34327">
        <ele>25.13</ele>
        <time>2018-04-04T09:39:45Z</time>
      </trkpt>
      <trkpt lat="46.71233" lon="-2.34329">
        <ele>25.61</ele>
        <time>2018-04-04T09:39:50Z</time>
      </trkpt>
      <trkpt lat="46.71245" lon="-2.34346">
        <ele>25.61</ele>
        <time>2018-04-04T09:40:01Z</time>
      </trkpt>
      <trkpt lat="46.71249" lon="-2.34353">
        <ele>24.65</ele>
        <time>2018-04-04T09:40:04Z</time>
      </trkpt>
      <trkpt lat="46.71255" lon="-2.34359">
        <ele>23.69</ele>
        <time>2018-04-04T09:40:10Z</time>
      </trkpt>
      <trkpt lat="46.71259" lon="-2.34369">
        <ele>23.21</ele>
        <time>2018-04-04T09:40:14Z</time>
      </trkpt>
      <trkpt lat="46.71263" lon="-2.34374">
        <ele>23.21</ele>
        <time>2018-04-04T09:40:20Z</time>
      </trkpt>
      <trkpt lat="46.71271" lon="-2.34392">
        <ele>22.73</ele>
        <time>2018-04-04T09:40:30Z</time>
      </trkpt>
      <trkpt lat="46.71278" lon="-2.34412">
        <ele>22.25</ele>
        <time>2018-04-04T09:40:40Z</time>
      </trkpt>
      <trkpt lat="46.71278" lon="-2.34417">
        <ele>21.77</ele>
        <time>2018-04-04T09:40:43Z</time>
      </trkpt>
      <trkpt lat="46.71283" lon="-2.3443">
        <ele>20.81</ele>
        <time>2018-04-04T09:40:51Z</time>
      </trkpt>
      <trkpt lat="46.71286" lon="-2.34438">
        <ele>19.84</ele>
        <time>2018-04-04T09:40:57Z</time>
      </trkpt>
      <trkpt lat="46.71297" lon="-2.34432">
        <ele>18.88</ele>
        <time>2018-04-04T09:41:08Z</time>
      </trkpt>
      <trkpt lat="46.71299" lon="-2.34429">
        <ele>18.88</ele>
        <time>2018-04-04T09:41:12Z</time>
      </trkpt>
      <trkpt lat="46.71306" lon="-2.34423">
        <ele>17.44</ele>
        <time>2018-04-04T09:41:17Z</time>
      </trkpt>
      <trkpt lat="46.71314" lon="-2.34416">
        <ele>15.04</ele>
        <time>2018-04-04T09:41:25Z</time>
      </trkpt>
      <trkpt lat="46.71321" lon="-2.34411">
        <ele>14.08</ele>
        <time>2018-04-04T09:41:29Z</time>
      </trkpt>
      <trkpt lat="46.71329" lon="-2.34402">
        <ele>14.56</ele>
        <time>2018-04-04T09:41:39Z</time>
      </trkpt>
      <trkpt lat="46.71331" lon="-2.34401">
        <ele>14.56</ele>
        <time>2018-04-04T09:41:40Z</time>
      </trkpt>
      <trkpt lat="46.71342" lon="-2.34389">
        <ele>13.6</ele>
        <time>2018-04-04T09:41:50Z</time>
      </trkpt>
      <trkpt lat="46.71348" lon="-2.34381">
        <ele>12.15</ele>
        <time>2018-04-04T09:41:59Z</time>
      </trkpt>
      <trkpt lat="46.71357" lon="-2.3437">
        <ele>11.67</ele>
        <time>2018-04-04T09:42:08Z</time>
      </trkpt>
      <trkpt lat="46.71365" lon="-2.34359">
        <ele>10.71</ele>
        <time>2018-04-04T09:42:17Z</time>
      </trkpt>
      <trkpt lat="46.71366" lon="-2.34358">
        <ele>10.71</ele>
        <time>2018-04-04T09:42:18Z</time>
      </trkpt>
      <trkpt lat="46.71376" lon="-2.34345">
        <ele>12.15</ele>
        <time>2018-04-04T09:42:27Z</time>
      </trkpt>
      <trkpt lat="46.71384" lon="-2.34333">
        <ele>13.12</ele>
        <time>2018-04-04T09:42:37Z</time>
      </trkpt>
      <trkpt lat="46.71392" lon="-2.34321">
        <ele>13.12</ele>
        <time>2018-04-04T09:42:46Z</time>
      </trkpt>
      <trkpt lat="46.71401" lon="-2.34309">
        <ele>14.08</ele>
        <time>2018-04-04T09:42:55Z</time>
      </trkpt>
      <trkpt lat="46.71411" lon="-2.34292">
        <ele>16</ele>
        <time>2018-04-04T09:43:04Z</time>
      </trkpt>
      <trkpt lat="46.71419" lon="-2.3428">
        <ele>16</ele>
        <time>2018-04-04T09:43:12Z</time>
      </trkpt>
      <trkpt lat="46.71426" lon="-2.34271">
        <ele>15.52</ele>
        <time>2018-04-04T09:43:20Z</time>
      </trkpt>
      <trkpt lat="46.71431" lon="-2.34266">
        <ele>15.52</ele>
        <time>2018-04-04T09:43:25Z</time>
      </trkpt>
      <trkpt lat="46.71434" lon="-2.3426">
        <ele>16.48</ele>
        <time>2018-04-04T09:43:29Z</time>
      </trkpt>
      <trkpt lat="46.71441" lon="-2.3425">
        <ele>16</ele>
        <time>2018-04-04T09:43:37Z</time>
      </trkpt>
      <trkpt lat="46.71445" lon="-2.34243">
        <ele>16.48</ele>
        <time>2018-04-04T09:43:42Z</time>
      </trkpt>
      <trkpt lat="46.71447" lon="-2.34239">
        <ele>16.48</ele>
        <time>2018-04-04T09:43:45Z</time>
      </trkpt>
      <trkpt lat="46.71449" lon="-2.34236">
        <ele>16.48</ele>
        <time>2018-04-04T09:43:48Z</time>
      </trkpt>
      <trkpt lat="46.7146" lon="-2.34223">
        <ele>17.92</ele>
        <time>2018-04-04T09:43:59Z</time>
      </trkpt>
      <trkpt lat="46.71462" lon="-2.3422">
        <ele>18.4</ele>
        <time>2018-04-04T09:44:02Z</time>
      </trkpt>
      <trkpt lat="46.71463" lon="-2.34218">
        <ele>18.88</ele>
        <time>2018-04-04T09:44:04Z</time>
      </trkpt>
      <trkpt lat="46.71472" lon="-2.34207">
        <ele>20.81</ele>
        <time>2018-04-04T09:44:14Z</time>
      </trkpt>
      <trkpt lat="46.71479" lon="-2.34207">
        <ele>20.81</ele>
        <time>2018-04-04T09:44:17Z</time>
      </trkpt>
      <trkpt lat="46.71491" lon="-2.34204">
        <ele>21.29</ele>
        <time>2018-04-04T09:44:24Z</time>
      </trkpt>
      <trkpt lat="46.71503" lon="-2.34199">
        <ele>21.29</ele>
        <time>2018-04-04T09:44:31Z</time>
      </trkpt>
      <trkpt lat="46.71516" lon="-2.34195">
        <ele>21.77</ele>
        <time>2018-04-04T09:44:41Z</time>
      </trkpt>
      <trkpt lat="46.71519" lon="-2.34192">
        <ele>21.29</ele>
        <time>2018-04-04T09:44:45Z</time>
      </trkpt>
      <trkpt lat="46.71532" lon="-2.34187">
        <ele>21.29</ele>
        <time>2018-04-04T09:44:56Z</time>
      </trkpt>
      <trkpt lat="46.71538" lon="-2.34183">
        <ele>20.81</ele>
        <time>2018-04-04T09:45:01Z</time>
      </trkpt>
      <trkpt lat="46.7155" lon="-2.34176">
        <ele>19.36</ele>
        <time>2018-04-04T09:45:11Z</time>
      </trkpt>
      <trkpt lat="46.7156" lon="-2.3417">
        <ele>19.36</ele>
        <time>2018-04-04T09:45:20Z</time>
      </trkpt>
      <trkpt lat="46.71572" lon="-2.34163">
        <ele>20.81</ele>
        <time>2018-04-04T09:45:29Z</time>
      </trkpt>
      <trkpt lat="46.71584" lon="-2.34157">
        <ele>19.36</ele>
        <time>2018-04-04T09:45:39Z</time>
      </trkpt>
      <trkpt lat="46.7158" lon="-2.34148">
        <ele>19.36</ele>
        <time>2018-04-04T09:45:48Z</time>
      </trkpt>
      <trkpt lat="46.71586" lon="-2.34159">
        <ele>19.84</ele>
        <time>2018-04-04T09:45:55Z</time>
      </trkpt>
      <trkpt lat="46.71593" lon="-2.34154">
        <ele>20.32</ele>
        <time>2018-04-04T09:46:06Z</time>
      </trkpt>
      <trkpt lat="46.71595" lon="-2.34152">
        <ele>20.32</ele>
        <time>2018-04-04T09:46:08Z</time>
      </trkpt>
      <trkpt lat="46.71607" lon="-2.34139">
        <ele>17.44</ele>
        <time>2018-04-04T09:46:19Z</time>
      </trkpt>
      <trkpt lat="46.71618" lon="-2.34127">
        <ele>16.96</ele>
        <time>2018-04-04T09:46:30Z</time>
      </trkpt>
      <trkpt lat="46.71621" lon="-2.34124">
        <ele>16.96</ele>
        <time>2018-04-04T09:46:33Z</time>
      </trkpt>
      <trkpt lat="46.7163" lon="-2.34115">
        <ele>17.92</ele>
        <time>2018-04-04T09:46:40Z</time>
      </trkpt>
      <trkpt lat="46.7164" lon="-2.34107">
        <ele>18.4</ele>
        <time>2018-04-04T09:46:49Z</time>
      </trkpt>
      <trkpt lat="46.71645" lon="-2.34108">
        <ele>18.4</ele>
        <time>2018-04-04T09:46:53Z</time>
      </trkpt>
      <trkpt lat="46.71652" lon="-2.34122">
        <ele>17.92</ele>
        <time>2018-04-04T09:47:06Z</time>
      </trkpt>
      <trkpt lat="46.71655" lon="-2.3413">
        <ele>17.92</ele>
        <time>2018-04-04T09:47:11Z</time>
      </trkpt>
      <trkpt lat="46.7166" lon="-2.3414">
        <ele>18.4</ele>
        <time>2018-04-04T09:47:18Z</time>
      </trkpt>
      <trkpt lat="46.71666" lon="-2.3416">
        <ele>17.44</ele>
        <time>2018-04-04T09:47:31Z</time>
      </trkpt>
      <trkpt lat="46.71668" lon="-2.34164">
        <ele>16.48</ele>
        <time>2018-04-04T09:47:38Z</time>
      </trkpt>
      <trkpt lat="46.71681" lon="-2.34156">
        <ele>15.04</ele>
        <time>2018-04-04T09:47:48Z</time>
      </trkpt>
      <trkpt lat="46.71697" lon="-2.34143">
        <ele>14.08</ele>
        <time>2018-04-04T09:48:02Z</time>
      </trkpt>
      <trkpt lat="46.71698" lon="-2.34142">
        <ele>14.08</ele>
        <time>2018-04-04T09:48:03Z</time>
      </trkpt>
      <trkpt lat="46.717" lon="-2.34136">
        <ele>13.12</ele>
        <time>2018-04-04T09:48:08Z</time>
      </trkpt>
      <trkpt lat="46.71708" lon="-2.34132">
        <ele>11.67</ele>
        <time>2018-04-04T09:48:12Z</time>
      </trkpt>
      <trkpt lat="46.71714" lon="-2.34124">
        <ele>8.31</ele>
        <time>2018-04-04T09:48:21Z</time>
      </trkpt>
      <trkpt lat="46.71726" lon="-2.34127">
        <ele>4.46</ele>
        <time>2018-04-04T09:48:32Z</time>
      </trkpt>
      <trkpt lat="46.71726" lon="-2.34128">
        <ele>3.5</ele>
        <time>2018-04-04T09:48:34Z</time>
      </trkpt>
      <trkpt lat="46.71738" lon="-2.34149">
        <ele>1.58</ele>
        <time>2018-04-04T09:48:43Z</time>
      </trkpt>
      <trkpt lat="46.71739" lon="-2.3415">
        <ele>2.06</ele>
        <time>2018-04-04T09:48:44Z</time>
      </trkpt>
      <trkpt lat="46.71739" lon="-2.3415">
        <ele>3.02</ele>
        <time>2018-04-04T09:48:48Z</time>
      </trkpt>
      <trkpt lat="46.71746" lon="-2.34168">
        <ele>2.54</ele>
        <time>2018-04-04T09:48:59Z</time>
      </trkpt>
      <trkpt lat="46.71752" lon="-2.34181">
        <ele>1.1</ele>
        <time>2018-04-04T09:49:04Z</time>
      </trkpt>
      <trkpt lat="46.71757" lon="-2.34186">
        <ele>3.02</ele>
        <time>2018-04-04T09:49:10Z</time>
      </trkpt>
      <trkpt lat="46.71762" lon="-2.34195">
        <ele>4.94</ele>
        <time>2018-04-04T09:49:21Z</time>
      </trkpt>
      <trkpt lat="46.71764" lon="-2.34203">
        <ele>3.02</ele>
        <time>2018-04-04T09:49:26Z</time>
      </trkpt>
      <trkpt lat="46.71767" lon="-2.34207">
        <ele>2.54</ele>
        <time>2018-04-04T09:49:30Z</time>
      </trkpt>
      <trkpt lat="46.71767" lon="-2.34214">
        <ele>3.02</ele>
        <time>2018-04-04T09:49:46Z</time>
      </trkpt>
      <trkpt lat="46.71768" lon="-2.34215">
        <ele>3.02</ele>
        <time>2018-04-04T09:49:54Z</time>
      </trkpt>
      <trkpt lat="46.7177" lon="-2.34226">
        <ele>2.06</ele>
        <time>2018-04-04T09:50:04Z</time>
      </trkpt>
      <trkpt lat="46.71772" lon="-2.3423">
        <ele>2.06</ele>
        <time>2018-04-04T09:50:06Z</time>
      </trkpt>
      <trkpt lat="46.71774" lon="-2.34234">
        <ele>2.06</ele>
        <time>2018-04-04T09:50:08Z</time>
      </trkpt>
      <trkpt lat="46.71785" lon="-2.34247">
        <ele>2.06</ele>
        <time>2018-04-04T09:50:20Z</time>
      </trkpt>
      <trkpt lat="46.71793" lon="-2.34257">
        <ele>0.62</ele>
        <time>2018-04-04T09:50:32Z</time>
      </trkpt>
      <trkpt lat="46.71802" lon="-2.34266">
        <ele>-0.34</ele>
        <time>2018-04-04T09:50:38Z</time>
      </trkpt>
      <trkpt lat="46.71815" lon="-2.34274">
        <ele>2.06</ele>
        <time>2018-04-04T09:50:52Z</time>
      </trkpt>
      <trkpt lat="46.71824" lon="-2.34282">
        <ele>2.06</ele>
        <time>2018-04-04T09:51:02Z</time>
      </trkpt>
      <trkpt lat="46.71824" lon="-2.34282">
        <ele>2.06</ele>
        <time>2018-04-04T09:51:03Z</time>
      </trkpt>
      <trkpt lat="46.71827" lon="-2.34286">
        <ele>2.06</ele>
        <time>2018-04-04T09:51:06Z</time>
      </trkpt>
      <trkpt lat="46.7183" lon="-2.34288">
        <ele>3.02</ele>
        <time>2018-04-04T09:51:10Z</time>
      </trkpt>
      <trkpt lat="46.71838" lon="-2.34294">
        <ele>4.46</ele>
        <time>2018-04-04T09:51:18Z</time>
      </trkpt>
      <trkpt lat="46.71844" lon="-2.34304">
        <ele>5.91</ele>
        <time>2018-04-04T09:51:29Z</time>
      </trkpt>
      <trkpt lat="46.71857" lon="-2.3431">
        <ele>5.91</ele>
        <time>2018-04-04T09:51:39Z</time>
      </trkpt>
      <trkpt lat="46.71866" lon="-2.34321">
        <ele>4.94</ele>
        <time>2018-04-04T09:51:49Z</time>
      </trkpt>
      <trkpt lat="46.71873" lon="-2.34329">
        <ele>3.02</ele>
        <time>2018-04-04T09:51:59Z</time>
      </trkpt>
      <trkpt lat="46.71873" lon="-2.34333">
        <ele>2.54</ele>
        <time>2018-04-04T09:52:04Z</time>
      </trkpt>
      <trkpt lat="46.71875" lon="-2.34336">
        <ele>2.54</ele>
        <time>2018-04-04T09:52:10Z</time>
      </trkpt>
      <trkpt lat="46.71887" lon="-2.34342">
        <ele>-0.34</ele>
        <time>2018-04-04T09:52:20Z</time>
      </trkpt>
      <trkpt lat="46.71902" lon="-2.34347">
        <ele>1.1</ele>
        <time>2018-04-04T09:52:31Z</time>
      </trkpt>
      <trkpt lat="46.71906" lon="-2.34348">
        <ele>2.54</ele>
        <time>2018-04-04T09:52:39Z</time>
      </trkpt>
      <trkpt lat="46.71915" lon="-2.3435">
        <ele>3.98</ele>
        <time>2018-04-04T09:52:49Z</time>
      </trkpt>
      <trkpt lat="46.71924" lon="-2.34351">
        <ele>5.42</ele>
        <time>2018-04-04T09:52:59Z</time>
      </trkpt>
      <trkpt lat="46.71925" lon="-2.34352">
        <ele>5.42</ele>
        <time>2018-04-04T09:53:01Z</time>
      </trkpt>
      <trkpt lat="46.71937" lon="-2.34356">
        <ele>5.91</ele>
        <time>2018-04-04T09:53:11Z</time>
      </trkpt>
      <trkpt lat="46.71948" lon="-2.34354">
        <ele>6.39</ele>
        <time>2018-04-04T09:53:22Z</time>
      </trkpt>
      <trkpt lat="46.71952" lon="-2.34356">
        <ele>6.87</ele>
        <time>2018-04-04T09:53:35Z</time>
      </trkpt>
      <trkpt lat="46.71953" lon="-2.34355">
        <ele>6.87</ele>
        <time>2018-04-04T09:53:42Z</time>
      </trkpt>
      <trkpt lat="46.71957" lon="-2.34343">
        <ele>5.91</ele>
        <time>2018-04-04T09:53:50Z</time>
      </trkpt>
      <trkpt lat="46.71957" lon="-2.34335">
        <ele>5.91</ele>
        <time>2018-04-04T09:53:55Z</time>
      </trkpt>
      <trkpt lat="46.71961" lon="-2.34324">
        <ele>5.42</ele>
        <time>2018-04-04T09:54:02Z</time>
      </trkpt>
      <trkpt lat="46.71969" lon="-2.3432">
        <ele>4.94</ele>
        <time>2018-04-04T09:54:10Z</time>
      </trkpt>
      <trkpt lat="46.71978" lon="-2.34326">
        <ele>7.35</ele>
        <time>2018-04-04T09:54:21Z</time>
      </trkpt>
      <trkpt lat="46.71985" lon="-2.34333">
        <ele>8.79</ele>
        <time>2018-04-04T09:54:29Z</time>
      </trkpt>
      <trkpt lat="46.71986" lon="-2.34338">
        <ele>9.27</ele>
        <time>2018-04-04T09:54:32Z</time>
      </trkpt>
      <trkpt lat="46.71991" lon="-2.34346">
        <ele>9.75</ele>
        <time>2018-04-04T09:54:38Z</time>
      </trkpt>
      <trkpt lat="46.72001" lon="-2.3435">
        <ele>10.71</ele>
        <time>2018-04-04T09:54:46Z</time>
      </trkpt>
      <trkpt lat="46.72015" lon="-2.34345">
        <ele>9.27</ele>
        <time>2018-04-04T09:54:59Z</time>
      </trkpt>
      <trkpt lat="46.72016" lon="-2.34343">
        <ele>8.31</ele>
        <time>2018-04-04T09:55:13Z</time>
      </trkpt>
      <trkpt lat="46.72022" lon="-2.34335">
        <ele>6.87</ele>
        <time>2018-04-04T09:55:20Z</time>
      </trkpt>
      <trkpt lat="46.72023" lon="-2.34331">
        <ele>5.91</ele>
        <time>2018-04-04T09:55:24Z</time>
      </trkpt>
      <trkpt lat="46.72032" lon="-2.34319">
        <ele>6.87</ele>
        <time>2018-04-04T09:55:33Z</time>
      </trkpt>
      <trkpt lat="46.72033" lon="-2.34317">
        <ele>6.87</ele>
        <time>2018-04-04T09:55:34Z</time>
      </trkpt>
      <trkpt lat="46.72041" lon="-2.3431">
        <ele>6.39</ele>
        <time>2018-04-04T09:55:42Z</time>
      </trkpt>
      <trkpt lat="46.72049" lon="-2.34323">
        <ele>5.91</ele>
        <time>2018-04-04T09:55:52Z</time>
      </trkpt>
      <trkpt lat="46.72056" lon="-2.3434">
        <ele>4.46</ele>
        <time>2018-04-04T09:56:01Z</time>
      </trkpt>
      <trkpt lat="46.72058" lon="-2.34347">
        <ele>5.42</ele>
        <time>2018-04-04T09:56:07Z</time>
      </trkpt>
      <trkpt lat="46.72059" lon="-2.34349">
        <ele>5.91</ele>
        <time>2018-04-04T09:56:14Z</time>
      </trkpt>
      <trkpt lat="46.72061" lon="-2.34353">
        <ele>4.46</ele>
        <time>2018-04-04T09:56:17Z</time>
      </trkpt>
      <trkpt lat="46.72063" lon="-2.34356">
        <ele>2.54</ele>
        <time>2018-04-04T09:56:20Z</time>
      </trkpt>
      <trkpt lat="46.72067" lon="-2.34371">
        <ele>1.1</ele>
        <time>2018-04-04T09:56:25Z</time>
      </trkpt>
      <trkpt lat="46.72069" lon="-2.34375">
        <ele>1.1</ele>
        <time>2018-04-04T09:56:29Z</time>
      </trkpt>
      <trkpt lat="46.72074" lon="-2.344">
        <ele>-0.34</ele>
        <time>2018-04-04T09:56:41Z</time>
      </trkpt>
      <trkpt lat="46.72075" lon="-2.34405">
        <ele>-1.3</ele>
        <time>2018-04-04T09:56:43Z</time>
      </trkpt>
      <trkpt lat="46.72079" lon="-2.34409">
        <ele>-3.23</ele>
        <time>2018-04-04T09:56:48Z</time>
      </trkpt>
      <trkpt lat="46.7208" lon="-2.34419">
        <ele>-2.75</ele>
        <time>2018-04-04T09:56:53Z</time>
      </trkpt>
      <trkpt lat="46.72081" lon="-2.34424">
        <ele>-2.75</ele>
        <time>2018-04-04T09:56:57Z</time>
      </trkpt>
      <trkpt lat="46.72086" lon="-2.34441">
        <ele>-2.75</ele>
        <time>2018-04-04T09:57:06Z</time>
      </trkpt>
      <trkpt lat="46.72085" lon="-2.3446">
        <ele>1.1</ele>
        <time>2018-04-04T09:57:17Z</time>
      </trkpt>
      <trkpt lat="46.72086" lon="-2.34466">
        <ele>1.58</ele>
        <time>2018-04-04T09:57:19Z</time>
      </trkpt>
      <trkpt lat="46.72085" lon="-2.3447">
        <ele>2.06</ele>
        <time>2018-04-04T09:57:24Z</time>
      </trkpt>
      <trkpt lat="46.72088" lon="-2.34484">
        <ele>2.06</ele>
        <time>2018-04-04T09:57:29Z</time>
      </trkpt>
      <trkpt lat="46.72098" lon="-2.34496">
        <ele>3.5</ele>
        <time>2018-04-04T09:57:39Z</time>
      </trkpt>
      <trkpt lat="46.7211" lon="-2.34504">
        <ele>5.91</ele>
        <time>2018-04-04T09:57:49Z</time>
      </trkpt>
      <trkpt lat="46.72121" lon="-2.34513">
        <ele>6.87</ele>
        <time>2018-04-04T09:58:00Z</time>
      </trkpt>
      <trkpt lat="46.72126" lon="-2.34516">
        <ele>7.83</ele>
        <time>2018-04-04T09:58:05Z</time>
      </trkpt>
      <trkpt lat="46.7213" lon="-2.3452">
        <ele>7.35</ele>
        <time>2018-04-04T09:58:10Z</time>
      </trkpt>
      <trkpt lat="46.72145" lon="-2.34532">
        <ele>6.39</ele>
        <time>2018-04-04T09:58:24Z</time>
      </trkpt>
      <trkpt lat="46.72147" lon="-2.34533">
        <ele>6.87</ele>
        <time>2018-04-04T09:58:26Z</time>
      </trkpt>
      <trkpt lat="46.72158" lon="-2.34541">
        <ele>5.91</ele>
        <time>2018-04-04T09:58:37Z</time>
      </trkpt>
      <trkpt lat="46.72157" lon="-2.34541">
        <ele>5.91</ele>
        <time>2018-04-04T09:58:47Z</time>
      </trkpt>
      <trkpt lat="46.72164" lon="-2.34546">
        <ele>4.94</ele>
        <time>2018-04-04T09:58:56Z</time>
      </trkpt>
      <trkpt lat="46.72168" lon="-2.34549">
        <ele>4.94</ele>
        <time>2018-04-04T09:59:00Z</time>
      </trkpt>
      <trkpt lat="46.72193" lon="-2.34551">
        <ele>4.46</ele>
        <time>2018-04-04T09:59:14Z</time>
      </trkpt>
      <trkpt lat="46.72204" lon="-2.34552">
        <ele>3.98</ele>
        <time>2018-04-04T09:59:24Z</time>
      </trkpt>
      <trkpt lat="46.72215" lon="-2.34553">
        <ele>2.06</ele>
        <time>2018-04-04T09:59:33Z</time>
      </trkpt>
      <trkpt lat="46.72226" lon="-2.34557">
        <ele>-0.82</ele>
        <time>2018-04-04T09:59:43Z</time>
      </trkpt>
      <trkpt lat="46.72241" lon="-2.34555">
        <ele>-4.19</ele>
        <time>2018-04-04T09:59:56Z</time>
      </trkpt>
      <trkpt lat="46.72253" lon="-2.34552">
        <ele>-4.19</ele>
        <time>2018-04-04T10:00:05Z</time>
      </trkpt>
      <trkpt lat="46.72256" lon="-2.34551">
        <ele>-3.71</ele>
        <time>2018-04-04T10:00:10Z</time>
      </trkpt>
      <trkpt lat="46.72265" lon="-2.34538">
        <ele>-3.71</ele>
        <time>2018-04-04T10:00:20Z</time>
      </trkpt>
      <trkpt lat="46.72278" lon="-2.34527">
        <ele>-2.27</ele>
        <time>2018-04-04T10:00:29Z</time>
      </trkpt>
      <trkpt lat="46.7228" lon="-2.34523">
        <ele>-1.3</ele>
        <time>2018-04-04T10:00:33Z</time>
      </trkpt>
      <trkpt lat="46.72289" lon="-2.34517">
        <ele>0.14</ele>
        <time>2018-04-04T10:00:44Z</time>
      </trkpt>
      <trkpt lat="46.72289" lon="-2.34515">
        <ele>0.14</ele>
        <time>2018-04-04T10:00:49Z</time>
      </trkpt>
      <trkpt lat="46.72293" lon="-2.34505">
        <ele>0.14</ele>
        <time>2018-04-04T10:00:58Z</time>
      </trkpt>
      <trkpt lat="46.72304" lon="-2.34497">
        <ele>1.1</ele>
        <time>2018-04-04T10:01:07Z</time>
      </trkpt>
      <trkpt lat="46.72309" lon="-2.34492">
        <ele>2.06</ele>
        <time>2018-04-04T10:01:11Z</time>
      </trkpt>
      <trkpt lat="46.72316" lon="-2.34482">
        <ele>2.06</ele>
        <time>2018-04-04T10:01:18Z</time>
      </trkpt>
      <trkpt lat="46.72326" lon="-2.34472">
        <ele>1.1</ele>
        <time>2018-04-04T10:01:28Z</time>
      </trkpt>
      <trkpt lat="46.72328" lon="-2.3447">
        <ele>1.1</ele>
        <time>2018-04-04T10:01:30Z</time>
      </trkpt>
      <trkpt lat="46.72331" lon="-2.34471">
        <ele>1.58</ele>
        <time>2018-04-04T10:01:37Z</time>
      </trkpt>
      <trkpt lat="46.72343" lon="-2.34468">
        <ele>3.98</ele>
        <time>2018-04-04T10:01:46Z</time>
      </trkpt>
      <trkpt lat="46.72354" lon="-2.34462">
        <ele>4.46</ele>
        <time>2018-04-04T10:01:56Z</time>
      </trkpt>
      <trkpt lat="46.72355" lon="-2.34462">
        <ele>4.46</ele>
        <time>2018-04-04T10:01:58Z</time>
      </trkpt>
      <trkpt lat="46.72363" lon="-2.34463">
        <ele>3.5</ele>
        <time>2018-04-04T10:02:05Z</time>
      </trkpt>
      <trkpt lat="46.72376" lon="-2.34455">
        <ele>3.5</ele>
        <time>2018-04-04T10:02:15Z</time>
      </trkpt>
      <trkpt lat="46.72384" lon="-2.34453">
        <ele>3.5</ele>
        <time>2018-04-04T10:02:22Z</time>
      </trkpt>
      <trkpt lat="46.7239" lon="-2.34464">
        <ele>2.54</ele>
        <time>2018-04-04T10:02:30Z</time>
      </trkpt>
      <trkpt lat="46.72397" lon="-2.34476">
        <ele>3.02</ele>
        <time>2018-04-04T10:02:38Z</time>
      </trkpt>
      <trkpt lat="46.72398" lon="-2.34477">
        <ele>3.02</ele>
        <time>2018-04-04T10:02:40Z</time>
      </trkpt>
      <trkpt lat="46.72404" lon="-2.34494">
        <ele>3.02</ele>
        <time>2018-04-04T10:02:49Z</time>
      </trkpt>
      <trkpt lat="46.72406" lon="-2.34509">
        <ele>2.54</ele>
        <time>2018-04-04T10:02:57Z</time>
      </trkpt>
      <trkpt lat="46.72412" lon="-2.34525">
        <ele>2.54</ele>
        <time>2018-04-04T10:03:06Z</time>
      </trkpt>
      <trkpt lat="46.72419" lon="-2.3454">
        <ele>2.06</ele>
        <time>2018-04-04T10:03:15Z</time>
      </trkpt>
      <trkpt lat="46.72424" lon="-2.34549">
        <ele>2.54</ele>
        <time>2018-04-04T10:03:19Z</time>
      </trkpt>
      <trkpt lat="46.72426" lon="-2.34549">
        <ele>2.54</ele>
        <time>2018-04-04T10:03:23Z</time>
      </trkpt>
      <trkpt lat="46.72431" lon="-2.34557">
        <ele>3.5</ele>
        <time>2018-04-04T10:03:28Z</time>
      </trkpt>
      <trkpt lat="46.72434" lon="-2.34558">
        <ele>3.98</ele>
        <time>2018-04-04T10:03:31Z</time>
      </trkpt>
      <trkpt lat="46.72444" lon="-2.34569">
        <ele>4.46</ele>
        <time>2018-04-04T10:03:40Z</time>
      </trkpt>
      <trkpt lat="46.72445" lon="-2.3457">
        <ele>3.98</ele>
        <time>2018-04-04T10:03:42Z</time>
      </trkpt>
      <trkpt lat="46.7245" lon="-2.34584">
        <ele>3.98</ele>
        <time>2018-04-04T10:03:47Z</time>
      </trkpt>
      <trkpt lat="46.72452" lon="-2.34587">
        <ele>4.94</ele>
        <time>2018-04-04T10:03:50Z</time>
      </trkpt>
      <trkpt lat="46.72453" lon="-2.34587">
        <ele>5.42</ele>
        <time>2018-04-04T10:03:52Z</time>
      </trkpt>
      <trkpt lat="46.72459" lon="-2.34598">
        <ele>6.87</ele>
        <time>2018-04-04T10:04:01Z</time>
      </trkpt>
      <trkpt lat="46.72463" lon="-2.34615">
        <ele>7.83</ele>
        <time>2018-04-04T10:04:07Z</time>
      </trkpt>
      <trkpt lat="46.72464" lon="-2.3462">
        <ele>7.35</ele>
        <time>2018-04-04T10:04:12Z</time>
      </trkpt>
      <trkpt lat="46.72462" lon="-2.34639">
        <ele>4.94</ele>
        <time>2018-04-04T10:04:21Z</time>
      </trkpt>
      <trkpt lat="46.7246" lon="-2.34655">
        <ele>3.02</ele>
        <time>2018-04-04T10:04:29Z</time>
      </trkpt>
      <trkpt lat="46.7246" lon="-2.34657">
        <ele>2.54</ele>
        <time>2018-04-04T10:04:30Z</time>
      </trkpt>
      <trkpt lat="46.72454" lon="-2.3467">
        <ele>0.62</ele>
        <time>2018-04-04T10:04:37Z</time>
      </trkpt>
      <trkpt lat="46.72444" lon="-2.34675">
        <ele>-3.23</ele>
        <time>2018-04-04T10:04:48Z</time>
      </trkpt>
      <trkpt lat="46.72437" lon="-2.34666">
        <ele>-4.67</ele>
        <time>2018-04-04T10:04:57Z</time>
      </trkpt>
      <trkpt lat="46.72434" lon="-2.34664">
        <ele>-6.11</ele>
        <time>2018-04-04T10:05:05Z</time>
      </trkpt>
      <trkpt lat="46.72435" lon="-2.34653">
        <ele>-5.63</ele>
        <time>2018-04-04T10:05:25Z</time>
      </trkpt>
      <trkpt lat="46.72437" lon="-2.34653">
        <ele>-5.15</ele>
        <time>2018-04-04T10:05:46Z</time>
      </trkpt>
      <trkpt lat="46.72443" lon="-2.34656">
        <ele>-4.67</ele>
        <time>2018-04-04T10:06:05Z</time>
      </trkpt>
      <trkpt lat="46.72444" lon="-2.34656">
        <ele>-2.75</ele>
        <time>2018-04-04T10:06:24Z</time>
      </trkpt>
      <trkpt lat="46.7244" lon="-2.34658">
        <ele>-2.27</ele>
        <time>2018-04-04T10:06:50Z</time>
      </trkpt>
      <trkpt lat="46.72439" lon="-2.34657">
        <ele>-2.75</ele>
        <time>2018-04-04T10:07:15Z</time>
      </trkpt>
      <trkpt lat="46.72439" lon="-2.34656">
        <ele>-2.75</ele>
        <time>2018-04-04T10:07:35Z</time>
      </trkpt>
    </trkseg>
  </trk>
</gpx>